Provisional Data: Chiques Creek near Route 283


Please select a monitoring station.
Please select start date.
Please select start date.

Toggle Unit: C/F Toggle Unit: C/F
Sample Time Temperature (C) Temperature (F) Specific Conductivity (mS/cm) pH   Turbidity (NTU+) DO (mg/L)
8/1/2022 12:00:00 AM 21.81 71.258 0.3 7.83 3.66 8.16
8/1/2022 12:15:00 AM 21.78 71.204 0.557 7.83 3.11 8.17
8/1/2022 12:30:00 AM 21.75 71.15 0.319 7.83 3.36 8.18
8/1/2022 12:45:00 AM 21.71 71.078 0.324 7.81 3.15 8.15
8/1/2022 1:00:00 AM 21.67 71.006 0.318 7.81 3.27 8.16
8/1/2022 1:15:00 AM 21.64 70.952 0.555 7.79 2.93 8.16
8/1/2022 1:30:00 AM 21.61 70.898 0.31 7.8 2.9 8.14
8/1/2022 1:45:00 AM 21.58 70.844 0.323 7.83 3.8 8.18
8/1/2022 2:00:00 AM 21.54 70.772 0.289 7.82 3.05 8.16
8/1/2022 2:15:00 AM 21.52 70.736 0.3 7.82 3.23 8.2
8/1/2022 2:30:00 AM 21.5 70.7 0.314 7.81 4.39 8.23
8/1/2022 2:45:00 AM 21.48 70.664 0.304 7.82 3.53 8.24
8/1/2022 3:00:00 AM 21.48 70.664 0.301 7.82 3.83 8.24
8/1/2022 3:15:00 AM 21.48 70.664 0.325 7.81 6.32 8.25
8/1/2022 3:30:00 AM 21.48 70.664 0.558 7.82 4.67 8.25
8/1/2022 3:45:00 AM 21.49 70.682 0.316 7.81 4.56 8.25
8/1/2022 4:00:00 AM 21.5 70.7 0.561 7.81 4.57 8.26
8/1/2022 4:15:00 AM 21.5 70.7 0.307 7.8 4.16 8.25
8/1/2022 4:30:00 AM 21.5 70.7 0.319 7.81 4.35 8.25
8/1/2022 4:45:00 AM 21.49 70.682 0.561 7.81 4.15 8.24
8/1/2022 5:00:00 AM 21.48 70.664 0.287 7.81 4.98 8.23
8/1/2022 5:15:00 AM 21.46 70.628 0.322 7.78 4.52 8.21
8/1/2022 5:30:00 AM 21.43 70.574 0.315 7.8 8.27 8.21
8/1/2022 5:45:00 AM 21.38 70.484 0.316 7.77 6.77 8.2
8/1/2022 6:00:00 AM 21.32 70.376 0.301 7.78 5.76 8.19
8/1/2022 6:15:00 AM 21.24 70.232 0.281 7.78 6.8 8.16
8/1/2022 6:30:00 AM 21.17 70.106 0.296 7.76 6.15 8.13
8/1/2022 6:45:00 AM 21.09 69.962 0.329 7.75 8.08 8.13
8/1/2022 7:00:00 AM 21.01 69.818 0.323 7.74 7.27 8.12
8/1/2022 7:15:00 AM 20.93 69.674 0.327 7.74 9.44 8.11
8/1/2022 7:30:00 AM 20.87 69.566 0.303 7.73 6 8.12
8/1/2022 7:45:00 AM 20.83 69.494 0.271 7.74 5.65 8.12
8/1/2022 8:00:00 AM 20.79 69.422 0.321 7.74 7.17 8.12
8/1/2022 8:15:00 AM 20.76 69.368 0.311 7.74 5.47 8.11
8/1/2022 8:30:00 AM 20.74 69.332 0.311 7.74 7.57 8.12
8/1/2022 8:45:00 AM 20.73 69.314 0.309 7.72 5.63 8.13
8/1/2022 9:00:00 AM 20.74 69.332 0.326 7.74 5.15 8.15
8/1/2022 9:15:00 AM 20.77 69.386 0.318 7.75 5.93 8.24
8/1/2022 9:30:00 AM 20.8 69.44 0.319 7.76 5.22 8.26
8/1/2022 9:45:00 AM 20.82 69.476 0.295 7.75 5.14 8.23
8/1/2022 10:00:00 AM 20.87 69.566 0.542 7.77 5.86 8.27
8/1/2022 10:15:00 AM 20.9 69.62 0.315 7.77 5.29 8.29
8/1/2022 10:30:00 AM 20.93 69.674 0.306 7.78 4.75 8.3
8/1/2022 10:45:00 AM 20.97 69.746 0.549 7.78 4.37 8.3
8/1/2022 11:00:00 AM 20.98 69.764 0.297 7.77 4.39 8.3
8/1/2022 11:15:00 AM 21.03 69.854 0.303 7.77 4.81 8.37
8/1/2022 11:30:00 AM 21.08 69.944 0.28 7.8 4.2 8.42
8/1/2022 11:45:00 AM 21.13 70.034 0.323 7.81 4.87 8.46
8/1/2022 12:00:00 PM 21.17 70.106 0.549 7.83 4.39 8.45
8/1/2022 12:15:00 PM 21.21 70.17799 0.285 7.82 4.4 8.46
8/1/2022 12:30:00 PM 21.23 70.214 0.289 7.83 4.49 8.45
8/1/2022 12:45:00 PM 21.23 70.214 0.326 7.82 4.64 8.37
8/1/2022 1:00:00 PM 21.26 70.268 0.547 7.84 4.28 8.41
8/1/2022 1:15:00 PM 21.25 70.25 0.314 7.8 4.74 8.35
8/1/2022 1:30:00 PM 21.24 70.232 0.317 7.83 4.28 8.36
8/1/2022 1:45:00 PM 21.27 70.286 0.305 7.83 4.14 8.43
8/1/2022 2:00:00 PM 21.31 70.358 0.316 7.85 4.58 8.53
8/1/2022 2:15:00 PM 21.36 70.448 0.313 7.85 5.37 8.59
8/1/2022 2:30:00 PM 21.49 70.682 0.546 7.87 4.56 8.68
8/1/2022 2:45:00 PM 21.51 70.718 0.265 7.88 4.4 8.66
8/1/2022 3:00:00 PM 21.51 70.718 0.545 7.88 4.7 8.6
8/1/2022 3:15:00 PM 21.54 70.772 0.281 7.88 4.82 8.64
8/1/2022 3:30:00 PM 21.6 70.88 0.292 7.88 4.61 8.67
8/1/2022 3:45:00 PM 21.62 70.916 0.256 7.89 4.43 8.68
8/1/2022 4:00:00 PM 21.71 71.078 0.282 7.89 4.35 8.65
8/1/2022 4:15:00 PM 21.76 71.168 0.275 7.9 4.23 8.64
8/1/2022 4:30:00 PM 21.81 71.258 0.295 7.91 4.16 8.63
8/1/2022 4:45:00 PM 21.84 71.312 0.557 7.82 4.23 8.63
8/1/2022 5:00:00 PM 21.87 71.366 0.3 7.92 4.3 8.65
8/1/2022 5:15:00 PM 21.93 71.474 0.257 7.93 4.02 8.65
8/1/2022 5:30:00 PM 21.99 71.582 0.28 7.94 4.54 8.63
8/1/2022 5:45:00 PM 22.01 71.618 0.328 7.94 4.47 8.65
8/1/2022 6:00:00 PM 22.05 71.69 0.253 7.94 4.2 8.64
8/1/2022 6:15:00 PM 22.09 71.762 0.272 7.95 4.09 8.63
8/1/2022 6:30:00 PM 22.1 71.78 0.294 7.95 4.28 8.6
8/1/2022 6:45:00 PM 22.1 71.78 0.285 7.95 3.87 8.56
8/1/2022 7:00:00 PM 22.1 71.78 0.291 7.93 4.26 8.56
8/1/2022 7:15:00 PM 22.09 71.762 0.29 7.94 3.89 8.52
8/1/2022 7:30:00 PM 22.08 71.744 0.266 7.93 4.22 8.54
8/1/2022 7:45:00 PM 22.06 71.708 0.301 7.92 4.29 8.52
8/1/2022 8:00:00 PM 22.02 71.636 0.32 7.92 4.07 8.46
8/1/2022 8:15:00 PM 21.98 71.564 0.296 7.91 3.94 8.41
8/1/2022 8:30:00 PM 21.94 71.492 0.256 7.89 5.26 8.36
8/1/2022 8:45:00 PM 21.9 71.42 0.273 7.88 4.62 8.31
8/1/2022 9:00:00 PM 21.88 71.384 0.32 7.85 4.81 8.28
8/1/2022 9:15:00 PM 21.87 71.366 0.314 7.88 5.54 8.22
8/1/2022 9:30:00 PM 21.86 71.348 0.267 7.86 5.19 8.23
8/1/2022 9:45:00 PM 21.86 71.348 0.564 7.85 4.81 8.22
8/1/2022 10:00:00 PM 21.87 71.366 0.562 7.85 4.68 8.17
8/1/2022 10:15:00 PM 21.87 71.366 0.309 7.83 4.79 8.14
8/1/2022 10:30:00 PM 21.89 71.402 0.296 7.84 4.12 8.16
8/1/2022 10:45:00 PM 21.9 71.42 0.309 7.81 4.24 8.1
8/1/2022 11:00:00 PM 21.91 71.438 0.317 7.82 4.09 8.1
8/1/2022 11:15:00 PM 21.92 71.456 0.289 7.82 4.28 8.09
8/1/2022 11:30:00 PM 21.93 71.474 0.277 7.82 4.66 8.06
8/1/2022 11:45:00 PM 21.94 71.492 0.318 7.81 4.47 8.06
8/2/2022 12:00:00 AM 21.96 71.528 0.28 7.8 4.07 8.03
8/2/2022 12:15:00 AM 21.97 71.546 0.319 7.8 4.15 8
8/2/2022 12:30:00 AM 21.98 71.564 0.299 7.77 4.78 7.96
8/2/2022 12:45:00 AM 22 71.6 0.305 7.78 3.99 7.96
8/2/2022 1:00:00 AM 22.01 71.618 0.298 7.78 3.87 7.96
8/2/2022 1:15:00 AM 22.02 71.636 0.316 7.8 4.4 7.97
8/2/2022 1:30:00 AM 22.03 71.654 0.279 7.8 4.34 7.91
8/2/2022 1:45:00 AM 22.04 71.672 0.257 7.8 3.99 7.93
8/2/2022 2:00:00 AM 22.05 71.69 0.308 7.79 4.07 7.89
8/2/2022 2:15:00 AM 22.05 71.69 0.306 7.79 4.14 7.86
8/2/2022 2:30:00 AM 22.06 71.708 0.31 7.78 3.79 7.84
8/2/2022 2:45:00 AM 22.06 71.708 0.315 7.77 3.68 7.82
8/2/2022 3:00:00 AM 22.07 71.726 0.267 7.77 3.64 7.84
8/2/2022 3:15:00 AM 22.07 71.726 0.313 7.76 3.81 7.83
8/2/2022 3:30:00 AM 22.06 71.708 0.502 7.76 2326.65 7.79
8/2/2022 3:45:00 AM 22.05 71.69 0.272 7.75 5.12 7.81
8/2/2022 4:00:00 AM 22.04 71.672 0.298 7.74 3.9 7.79
8/2/2022 4:15:00 AM 22.03 71.654 0.289 7.75 4.69 7.78
8/2/2022 4:30:00 AM 22.02 71.636 0.291 7.74 4.01 7.75
8/2/2022 4:45:00 AM 22.01 71.618 0.488 7.73 3.68 7.74
8/2/2022 5:00:00 AM 22 71.6 0.322 7.72 4.24 7.72
8/2/2022 5:15:00 AM 21.98 71.564 0.282 7.7 4.03 7.75
8/2/2022 5:30:00 AM 21.96 71.528 0.283 7.7 4.2 7.73
8/2/2022 5:45:00 AM 21.95 71.51 0.265 7.69 4.04 7.72
8/2/2022 6:00:00 AM 21.93 71.474 0.281 7.7 3.85 7.72
8/2/2022 6:15:00 AM 21.91 71.438 0.307 7.7 4.25 7.72
8/2/2022 6:30:00 AM 21.91 71.438 0.278 7.7 3.87 7.71
8/2/2022 6:45:00 AM 21.9 71.42 0.273 7.69 3.94 7.73
8/2/2022 7:00:00 AM 21.89 71.402 0.278 7.71 4.8 7.71
8/2/2022 7:15:00 AM 21.87 71.366 0.308 7.69 4.15 7.73
8/2/2022 7:30:00 AM 21.86 71.348 0.32 7.66 3.73 7.73
8/2/2022 7:45:00 AM 21.85 71.33 0.319 7.66 3.49 7.74
8/2/2022 8:00:00 AM 21.85 71.33 0.307 7.69 3.9 7.74
8/2/2022 8:15:00 AM 21.84 71.312 0.296 7.69 3.54 7.72
8/2/2022 8:30:00 AM 21.84 71.312 0.288 7.69 3.55 7.76
8/2/2022 8:45:00 AM 21.86 71.348 0.282 7.7 3.84 7.8
8/2/2022 9:00:00 AM 21.88 71.384 0.316 7.69 3.51 7.86
8/2/2022 9:15:00 AM 21.91 71.438 0.285 7.69 3.66 7.91
8/2/2022 9:30:00 AM 21.96 71.528 0.297 7.72 3.87 7.97
8/2/2022 9:45:00 AM 22.01 71.618 0.292 7.72 3.33 8
8/2/2022 10:00:00 AM 22.07 71.726 0.29 7.72 3.47 8.04
8/2/2022 10:15:00 AM 22.12 71.816 0.295 7.73 3.3 8.12
8/2/2022 10:30:00 AM 22.13 71.834 0.292 7.74 3.5 8.14
8/2/2022 10:45:00 AM 22.21 71.978 0.314 7.73 3.77 8.22
8/2/2022 11:00:00 AM 22.28 72.104 0.28 7.75 3.76 8.17
8/2/2022 11:15:00 AM 22.31 72.158 0.289 7.76 3.73 8.26
8/2/2022 11:30:00 AM 22.37 72.266 0.447 7.77 3.61 8.28
8/2/2022 11:45:00 AM 22.48 72.464 0.447 7.77 3.41 8.36
8/2/2022 12:00:00 PM 22.48 72.464 0.447 7.78 3.99 8.33
8/2/2022 12:15:00 PM 22.55 72.59 0.31 7.77 3.64 8.35
8/2/2022 12:30:00 PM 22.6 72.68 0.287 7.8 3.04 8.41
8/2/2022 12:45:00 PM 22.65 72.77 0.282 7.8 3.59 8.4
8/2/2022 1:00:00 PM 22.59 72.662 0.316 7.79 3.17 8.29
8/2/2022 1:15:00 PM 22.63 72.734 0.284 7.8 3.09 8.38
8/2/2022 1:30:00 PM 22.77 72.986 0.307 7.82 3.12 8.45
8/2/2022 1:45:00 PM 22.84 73.112 0.302 7.83 2.92 8.48
8/2/2022 2:00:00 PM 22.94 73.292 0.267 7.83 3.22 8.55
8/2/2022 2:15:00 PM 22.93 73.274 0.282 7.83 3.63 8.48
8/2/2022 2:30:00 PM 23.01 73.418 0.294 7.87 3.14 8.55
8/2/2022 2:45:00 PM 23.06 73.508 0.293 7.88 3.08 8.58
8/2/2022 3:00:00 PM 23.08 73.544 0.307 7.88 2.8 8.6
8/2/2022 3:15:00 PM 23.08 73.544 0.267 7.89 3.17 8.56
8/2/2022 3:30:00 PM 23.12 73.616 0.299 7.89 2.96 8.57
8/2/2022 3:45:00 PM 23.21 73.778 0.29 7.9 2.92 8.6
8/2/2022 4:00:00 PM 23.24 73.832 0.296 7.88 3.06 8.59
8/2/2022 4:15:00 PM 23.28 73.904 0.31 7.91 2.98 8.63
8/2/2022 4:30:00 PM 23.28 73.904 0.294 7.92 3.56 8.59
8/2/2022 4:45:00 PM 23.25 73.85 0.297 7.92 2.69 8.59
8/2/2022 5:00:00 PM 23.24 73.832 0.289 7.93 3.09 8.55
8/2/2022 5:15:00 PM 23.27 73.886 0.305 7.93 3.28 8.58
8/2/2022 5:30:00 PM 23.34 74.012 0.459 7.94 2.74 8.59
8/2/2022 5:45:00 PM 23.38 74.084 0.297 7.95 2.94 8.57
8/2/2022 6:00:00 PM 23.44 74.192 0.264 7.94 2.68 8.58
8/2/2022 6:15:00 PM 23.47 74.246 0.459 7.95 2.62 8.54
8/2/2022 6:30:00 PM 23.46 74.228 0.261 7.95 3.19 8.58
8/2/2022 6:45:00 PM 23.48 74.264 0.304 7.97 2.96 8.56
8/2/2022 7:00:00 PM 23.44 74.192 0.311 7.96 2.8 8.53
8/2/2022 7:15:00 PM 23.42 74.156 0.271 7.95 2.74 8.46
8/2/2022 7:30:00 PM 23.41 74.138 0.463 7.95 2.74 8.48
8/2/2022 7:45:00 PM 23.4 74.12 0.308 7.95 2.78 8.44
8/2/2022 8:00:00 PM 23.38 74.084 0.303 7.95 2.56 8.46
8/2/2022 8:15:00 PM 23.36 74.048 0.461 7.94 2.47 8.44
8/2/2022 8:30:00 PM 23.33 73.994 0.315 7.93 2.64 8.4
8/2/2022 8:45:00 PM 23.29 73.922 0.264 7.91 2.8 8.35
8/2/2022 9:00:00 PM 23.24 73.832 0.304 7.91 3.11 8.34
8/2/2022 9:15:00 PM 23.19 73.742 0.274 7.89 3.04 8.32
8/2/2022 9:30:00 PM 23.15 73.67 0.304 7.89 2.79 8.32
8/2/2022 9:45:00 PM 23.1 73.58 0.302 7.89 3.14 8.29
8/2/2022 10:00:00 PM 23.05 73.49 0.276 7.88 3.29 8.25
8/2/2022 10:15:00 PM 23 73.4 0.307 7.86 2.75 8.22
8/2/2022 10:30:00 PM 22.95 73.31 0.306 7.85 3.61 8.22
8/2/2022 10:45:00 PM 22.91 73.238 0.281 7.85 3.06 8.2
8/2/2022 11:00:00 PM 22.88 73.184 0.273 7.84 3 8.16
8/2/2022 11:15:00 PM 22.84 73.112 0.3 7.84 3.22 8.14
8/2/2022 11:30:00 PM 22.81 73.058 0.272 7.83 3.3 8.13
8/2/2022 11:45:00 PM 22.78 73.004 0.284 7.82 2.93 8.11
8/3/2022 12:00:00 AM 22.76 72.968 0.313 7.81 2.85 8.06
8/3/2022 12:15:00 AM 22.74 72.932 0.317 7.81 2.68 8.07
8/3/2022 12:30:00 AM 22.72 72.896 0.467 7.81 2.91 8.06
8/3/2022 12:45:00 AM 22.7 72.86 0.282 7.8 2.98 8.02
8/3/2022 1:00:00 AM 22.68 72.824 0.304 7.8 3.11 8.01
8/3/2022 1:15:00 AM 22.66 72.788 0.267 7.79 2.96 8.03
8/3/2022 1:30:00 AM 22.64 72.752 0.274 7.79 2.9 7.97
8/3/2022 1:45:00 AM 22.61 72.698 0.315 7.78 2.74 7.93
8/3/2022 2:00:00 AM 22.59 72.662 0.318 7.78 2.84 7.93
8/3/2022 2:15:00 AM 22.58 72.644 0.306 7.77 3.23 7.86
8/3/2022 2:30:00 AM 22.57 72.626 0.282 7.77 3.15 7.89
8/3/2022 2:45:00 AM 22.56 72.608 0.312 7.77 3.35 7.89
8/3/2022 3:00:00 AM 22.55 72.59 0.474 7.76 3.05 7.86
8/3/2022 3:15:00 AM 22.54 72.57201 0.272 7.76 3.48 7.83
8/3/2022 3:30:00 AM 22.54 72.57201 0.308 7.76 3.27 7.76
8/3/2022 3:45:00 AM 22.53 72.554 0.309 7.76 3.39 7.82
8/3/2022 4:00:00 AM 22.53 72.554 0.316 7.76 3.31 7.79
8/3/2022 4:15:00 AM 22.52 72.536 0.262 7.77 2.87 7.78
8/3/2022 4:30:00 AM 22.52 72.536 0.265 7.75 3.06 7.79
8/3/2022 4:45:00 AM 22.52 72.536 0.291 7.75 3.2 7.74
8/3/2022 5:00:00 AM 22.52 72.536 0.31 7.75 2.8 7.71
8/3/2022 5:15:00 AM 22.5 72.5 0.287 7.75 3.4 7.72
8/3/2022 5:30:00 AM 22.5 72.5 0.291 7.75 3.08 7.66
8/3/2022 5:45:00 AM 22.5 72.5 0.269 7.73 3.39 7.58
8/3/2022 6:00:00 AM 22.48 72.464 0.309 7.74 3.91 7.64
8/3/2022 6:15:00 AM 22.48 72.464 0.273 7.74 3.86 7.56
8/3/2022 6:30:00 AM 22.47 72.446 0.265 7.74 3.05 7.61
8/3/2022 6:45:00 AM 22.47 72.446 0.286 7.74 2.96 7.63
8/3/2022 7:00:00 AM 22.47 72.446 0.284 7.74 3.32 7.58
8/3/2022 7:15:00 AM 22.47 72.446 0.282 7.74 3.79 7.61
8/3/2022 7:30:00 AM 22.46 72.42799 0.31 7.74 3.55 7.63
8/3/2022 7:45:00 AM 22.47 72.446 0.272 7.73 3.04 7.52
8/3/2022 8:00:00 AM 22.48 72.464 0.29 7.73 3.29 7.61
8/3/2022 8:15:00 AM 22.49 72.482 0.257 7.74 2.83 7.64
8/3/2022 8:30:00 AM 22.5 72.5 0.257 7.75 3.08 7.69
8/3/2022 8:45:00 AM 22.52 72.536 0.263 7.76 2.88 7.59
8/3/2022 9:00:00 AM 22.56 72.608 0.485 7.76 2.92 7.72
8/3/2022 9:15:00 AM 22.62 72.716 0.275 7.74 3.51 7.71
8/3/2022 9:30:00 AM 22.68 72.824 0.296 7.78 3.4 7.85
8/3/2022 9:45:00 AM 22.74 72.932 0.265 7.78 2.97 7.83
8/3/2022 10:00:00 AM 22.8 73.04 0.279 7.77 3 7.99
8/3/2022 10:15:00 AM 22.88 73.184 0.252 7.8 2.9 8.05
8/3/2022 10:30:00 AM 22.97 73.346 0.259 7.81 3.1 8.09
8/3/2022 10:45:00 AM 23.06 73.508 0.294 7.81 3.3 8.14
8/3/2022 11:00:00 AM 23.16 73.688 0.317 7.83 3.31 8.09
8/3/2022 11:15:00 AM 23.25 73.85 0.487 7.84 3.01 8.19
8/3/2022 11:30:00 AM 23.34 74.012 0.299 7.83 2.62 8.18
8/3/2022 11:45:00 AM 23.41 74.138 0.488 7.85 2.97 8.29
8/3/2022 12:00:00 PM 23.46 74.228 0.302 7.84 2.86 8.33
8/3/2022 12:15:00 PM 23.48 74.264 0.255 7.85 2.61 8.21
8/3/2022 12:30:00 PM 23.54 74.372 0.303 7.85 2.7 8.31
8/3/2022 12:45:00 PM 23.61 74.498 0.297 7.85 2.64 8.35
8/3/2022 1:00:00 PM 23.64 74.552 0.29 7.85 2.64 8.35
8/3/2022 1:15:00 PM 23.63 74.534 0.291 7.86 2.76 8.23
8/3/2022 1:30:00 PM 23.67 74.606 0.294 7.87 2.41 8.28
8/3/2022 1:45:00 PM 23.67 74.606 0.3 7.88 2.5 8.33
8/3/2022 2:00:00 PM 23.68 74.624 0.283 7.86 2.31 8.29
8/3/2022 2:15:00 PM 23.7 74.66 0.261 7.89 2.47 8.3
8/3/2022 2:30:00 PM 23.75 74.75 0.494 7.9 2.46 8.36
8/3/2022 2:45:00 PM 23.81 74.858 0.496 7.92 2.48 8.38
8/3/2022 3:00:00 PM 23.85 74.93 0.286 7.89 2.4 8.39
8/3/2022 3:15:00 PM 23.87 74.966 0.299 7.91 2.65 8.39
8/3/2022 3:30:00 PM 23.93 75.074 0.263 7.92 2.57 8.4
8/3/2022 3:45:00 PM 24.01 75.218 0.306 7.92 2.32 8.4
8/3/2022 4:00:00 PM 24.01 75.218 0.274 7.93 2.07 8.4
8/3/2022 4:15:00 PM 24.07 75.326 0.499 7.95 2.4 8.43
8/3/2022 4:30:00 PM 24.14 75.452 0.502 7.96 2.24 8.46
8/3/2022 4:45:00 PM 24.2 75.56 0.305 7.97 2.71 8.46
8/3/2022 5:00:00 PM 24.22 75.596 0.253 7.97 2.32 8.44
8/3/2022 5:15:00 PM 24.24 75.632 0.274 7.98 2.16 8.4
8/3/2022 5:30:00 PM 24.32 75.776 0.276 7.97 2.52 8.38
8/3/2022 5:45:00 PM 24.39 75.902 0.309 7.98 2.43 8.38
8/3/2022 6:00:00 PM 24.4 75.92 0.305 7.98 2.27 8.38
8/3/2022 6:15:00 PM 24.39 75.902 0.244 7.99 2.25 8.37
8/3/2022 6:30:00 PM 24.4 75.92 0.281 7.99 2.16 8.34
8/3/2022 6:45:00 PM 24.4 75.92 0.245 8 2.13 8.36
8/3/2022 7:00:00 PM 24.36 75.848 0.26 7.99 2.39 8.34
8/3/2022 7:15:00 PM 24.33 75.794 0.262 7.99 2.58 8.36
8/3/2022 7:30:00 PM 24.3 75.74 0.242 8 2.41 8.31
8/3/2022 7:45:00 PM 24.28 75.704 0.241 7.99 2.99 8.34
8/3/2022 8:00:00 PM 24.23 75.614 0.244 7.99 2.25 8.31
8/3/2022 8:15:00 PM 24.18 75.524 0.252 7.98 2.66 8.3
8/3/2022 8:30:00 PM 24.12 75.416 0.311 7.96 2.25 8.25
8/3/2022 8:45:00 PM 24.06 75.308 0.252 7.97 2.61 8.25
8/3/2022 9:00:00 PM 23.99 75.182 0.258 7.98 2.96 8.22
8/3/2022 9:15:00 PM 23.92 75.056 0.516 7.84 2.72 8.23
8/3/2022 9:30:00 PM 23.85 74.93 0.308 7.94 2.84 8.18
8/3/2022 9:45:00 PM 23.78 74.804 0.247 7.95 2.54 8.19
8/3/2022 10:00:00 PM 23.72 74.696 0.303 7.92 3.22 8.18
8/3/2022 10:15:00 PM 23.66 74.588 0.262 7.93 2.68 8.14
8/3/2022 10:30:00 PM 23.6 74.48 0.314 7.92 2.64 8.1
8/3/2022 10:45:00 PM 23.54 74.372 0.246 7.91 2.59 8.09
8/3/2022 11:00:00 PM 23.47 74.246 0.307 7.89 6.55 8.07
8/3/2022 11:15:00 PM 23.42 74.156 0.267 7.88 5.21 8.02
8/3/2022 11:30:00 PM 23.37 74.066 0.517 7.88 2.9 7.99
8/3/2022 11:45:00 PM 23.33 73.994 0.249 7.86 3.7 7.94
8/4/2022 12:00:00 AM 23.28 73.904 0.298 7.85 3.32 7.96
8/4/2022 12:15:00 AM 23.24 73.832 0.281 7.84 2.62 7.9
8/4/2022 12:30:00 AM 23.21 73.778 0.248 7.84 2.75 7.86
8/4/2022 12:45:00 AM 23.17 73.706 0.302 7.83 3.56 7.83
8/4/2022 1:00:00 AM 23.14 73.652 0.276 7.83 3.31 7.82
8/4/2022 1:15:00 AM 23.11 73.598 0.261 7.81 2.72 7.81
8/4/2022 1:30:00 AM 23.09 73.562 0.311 7.82 2.82 7.78
8/4/2022 1:45:00 AM 23.06 73.508 0.278 7.81 2.79 7.8
8/4/2022 2:00:00 AM 23.03 73.454 0.305 7.8 4.91 7.8
8/4/2022 2:15:00 AM 23.01 73.418 0.317 7.8 3.87 7.8
8/4/2022 2:30:00 AM 22.99 73.382 0.273 7.79 3.1 7.79
8/4/2022 2:45:00 AM 22.97 73.346 0.265 7.79 2.88 7.78
8/4/2022 3:00:00 AM 22.95 73.31 0.262 7.79 2.9 7.77
8/4/2022 3:15:00 AM 22.93 73.274 0.28 7.78 3.44 7.77
8/4/2022 3:30:00 AM 22.91 73.238 0.313 7.79 3.34 7.76
8/4/2022 3:45:00 AM 22.89 73.202 0.272 7.78 3.61 7.74
8/4/2022 4:00:00 AM 22.87 73.166 0.316 7.78 3.6 7.72
8/4/2022 4:15:00 AM 22.85 73.13 0.311 7.77 3.17 7.71
8/4/2022 4:30:00 AM 22.83 73.094 0.26 7.77 4.23 7.65
8/4/2022 4:45:00 AM 22.81 73.058 0.308 7.77 3.27 7.64
8/4/2022 5:00:00 AM 22.8 73.04 0.537 7.77 2.88 7.65
8/4/2022 5:15:00 AM 22.79 73.022 0.536 7.76 3 7.63
8/4/2022 5:30:00 AM 22.79 73.022 0.257 7.76 2.85 7.61
8/4/2022 5:45:00 AM 22.78 73.004 0.319 7.76 3.17 7.62
8/4/2022 6:00:00 AM 22.78 73.004 0.306 7.76 2.98 7.63
8/4/2022 6:15:00 AM 22.77 72.986 0.538 7.76 3.12 7.59
8/4/2022 6:30:00 AM 22.77 72.986 0.268 7.76 2.95 7.59
8/4/2022 6:45:00 AM 22.78 73.004 0.257 7.76 3.38 7.6
8/4/2022 7:00:00 AM 22.78 73.004 0.253 7.76 3.32 7.57
8/4/2022 7:15:00 AM 22.79 73.022 0.289 7.76 2.87 7.61
8/4/2022 7:30:00 AM 22.8 73.04 0.309 7.73 2.94 7.64
8/4/2022 7:45:00 AM 22.82 73.076 0.541 7.76 3.08 7.62
8/4/2022 8:00:00 AM 22.84 73.112 0.319 7.76 2.73 7.64
8/4/2022 8:15:00 AM 22.87 73.166 0.302 7.76 2.98 7.67
8/4/2022 8:30:00 AM 22.9 73.22 0.301 7.78 2.98 7.71
8/4/2022 8:45:00 AM 22.94 73.292 0.309 7.77 3.21 7.75
8/4/2022 9:00:00 AM 22.99 73.382 0.253 7.76 2.61 7.8
8/4/2022 9:15:00 AM 23.05 73.49 0.306 7.8 2.83 7.88
8/4/2022 9:30:00 AM 23.13 73.634 0.286 7.8 2.79 7.94
8/4/2022 9:45:00 AM 23.2 73.76 0.546 7.79 2.69 7.99
8/4/2022 10:00:00 AM 23.28 73.904 0.546 7.81 2.61 8.05
8/4/2022 10:15:00 AM 23.36 74.048 0.302 7.82 2.8 8.09
8/4/2022 10:30:00 AM 23.46 74.228 0.314 7.83 2.65 8.17
8/4/2022 10:45:00 AM 23.57 74.426 0.293 7.82 2.7 8.2
8/4/2022 11:00:00 AM 23.67 74.606 0.279 7.85 2.93 8.24
8/4/2022 11:15:00 AM 23.79 74.82201 0.258 7.86 2.91 8.32
8/4/2022 11:30:00 AM 23.87 74.966 0.297 7.85 3.66 8.3
8/4/2022 11:45:00 AM 23.96 75.128 0.551 7.86 3.07 8.36
8/4/2022 12:00:00 PM 24.08 75.344 0.286 7.87 3.22 8.37
8/4/2022 12:15:00 PM 24.09 75.362 0.304 7.86 2.72 8.37
8/4/2022 12:30:00 PM 24.14 75.452 0.306 7.87 2.6 8.38
8/4/2022 12:45:00 PM 24.15 75.47 0.297 7.86 2.97 8.35
8/4/2022 1:00:00 PM 24.22 75.596 0.274 7.87 2.7 8.37
8/4/2022 1:15:00 PM 24.3 75.74 0.26 7.87 2.6 8.35
8/4/2022 1:30:00 PM 24.36 75.848 0.271 7.87 2.8 8.33
8/4/2022 1:45:00 PM 24.39 75.902 0.259 7.88 2.44 8.37
8/4/2022 2:00:00 PM 24.41 75.938 0.269 7.88 2.37 8.32
8/4/2022 2:15:00 PM 24.46 76.028 0.296 7.88 2.89 8.28
8/4/2022 2:30:00 PM 24.56 76.208 0.322 7.88 2.61 8.32
8/4/2022 2:45:00 PM 24.61 76.298 0.56 7.88 2.83 8.32
8/4/2022 3:00:00 PM 24.68 76.424 0.561 7.9 2.56 8.3
8/4/2022 3:15:00 PM 24.75 76.55 0.256 7.9 2.31 8.33
8/4/2022 3:30:00 PM 24.82 76.676 0.244 7.91 2.41 8.33
8/4/2022 3:45:00 PM 24.85 76.73 0.286 7.91 2.58 8.31
8/4/2022 4:00:00 PM 24.85 76.73 0.276 7.93 2.38 8.34
8/4/2022 4:15:00 PM 24.88 76.784 0.305 7.93 2.41 8.35
8/4/2022 4:30:00 PM 24.94 76.892 0.288 7.94 2.12 8.39
8/4/2022 4:45:00 PM 24.92 76.856 0.26 7.95 2.51 8.36
8/4/2022 5:00:00 PM 24.91 76.838 0.271 7.95 2.13 8.28
8/4/2022 5:15:00 PM 24.76 76.568 0.288 7.94 2.2 8.13
8/4/2022 5:30:00 PM 24.51 76.118 0.306 7.93 2.2 8.12
8/4/2022 5:45:00 PM 24.35 75.83 0.57 7.93 2.08 8.16
8/4/2022 6:00:00 PM 24.26 75.668 0.306 7.94 2.27 8.19
8/4/2022 6:15:00 PM 24.27 75.686 0.306 7.93 2.19 8.22
8/4/2022 6:30:00 PM 24.32 75.776 0.292 7.93 2.07 8.18
8/4/2022 6:45:00 PM 24.36 75.848 0.288 7.94 2.23 8.14
8/4/2022 7:00:00 PM 24.41 75.938 0.249 7.93 2.31 8.14
8/4/2022 7:15:00 PM 24.46 76.028 0.575 7.95 2.67 8.14
8/4/2022 7:30:00 PM 24.51 76.118 0.312 7.96 2.23 8.13
8/4/2022 7:45:00 PM 24.55 76.19 0.315 7.96 2.3 8.13
8/4/2022 8:00:00 PM 24.54 76.172 0.242 7.94 2.03 8.12
8/4/2022 8:15:00 PM 24.5 76.1 0.3 7.96 2.24 8.12
8/4/2022 8:30:00 PM 24.46 76.028 0.303 7.96 2.25 8.14
8/4/2022 8:45:00 PM 24.41 75.938 0.266 7.96 3.44 8.11
8/4/2022 9:00:00 PM 24.34 75.812 0.312 7.95 3.27 8.1
8/4/2022 9:15:00 PM 24.29 75.722 0.291 7.95 2.99 8.08
8/4/2022 9:30:00 PM 24.23 75.614 0.32 7.93 7.44 8.05
8/4/2022 9:45:00 PM 24.16 75.488 0.258 7.94 3.94 8.08
8/4/2022 10:00:00 PM 24.11 75.398 0.578 7.94 2.19 8.05
8/4/2022 10:15:00 PM 24.05 75.29 0.276 7.92 2.37 8.02
8/4/2022 10:30:00 PM 24 75.2 0.312 7.93 2.37 8.01
8/4/2022 10:45:00 PM 23.95 75.11 0.254 7.89 2.3 7.99
8/4/2022 11:00:00 PM 23.91 75.038 0.313 7.91 2.53 7.98
8/4/2022 11:15:00 PM 23.87 74.966 0.327 7.9 2.32 7.94
8/4/2022 11:30:00 PM 23.83 74.894 0.324 7.88 2.6 7.94
8/4/2022 11:45:00 PM 23.79 74.82201 0.309 7.89 2.67 7.9
8/5/2022 12:00:00 AM 23.74 74.732 0.322 7.87 3.24 7.89
8/5/2022 12:15:00 AM 23.71 74.67799 0.322 7.86 2.48 7.88
8/5/2022 12:30:00 AM 23.68 74.624 0.324 7.85 2.41 7.84
8/5/2022 12:45:00 AM 23.65 74.57 0.321 7.86 2.46 7.83
8/5/2022 1:00:00 AM 23.62 74.516 0.269 7.86 2.58 7.83
8/5/2022 1:15:00 AM 23.59 74.462 0.293 7.83 3.21 7.8
8/5/2022 1:30:00 AM 23.57 74.426 0.579 7.84 2.88 7.77
8/5/2022 1:45:00 AM 23.54 74.372 0.322 7.83 2.75 7.75
8/5/2022 2:00:00 AM 23.52 74.336 0.579 7.83 2.72 7.71
8/5/2022 2:15:00 AM 23.49 74.282 0.579 7.83 2.8 7.71
8/5/2022 2:30:00 AM 23.47 74.246 0.315 7.82 2.79 7.69
8/5/2022 2:45:00 AM 23.45 74.21 0.269 7.81 2.72 7.67
8/5/2022 3:00:00 AM 23.43 74.174 0.58 7.8 3.09 7.64
8/5/2022 3:15:00 AM 23.42 74.156 0.58 7.81 2.97 7.65
8/5/2022 3:30:00 AM 23.4 74.12 0.32 7.8 2.8 7.63
8/5/2022 3:45:00 AM 23.4 74.12 0.273 7.81 2.78 7.64
8/5/2022 4:00:00 AM 23.38 74.084 0.273 7.81 2.83 7.61
8/5/2022 4:15:00 AM 23.37 74.066 0.304 7.81 2.9 7.6
8/5/2022 4:30:00 AM 23.36 74.048 0.315 7.8 2.47 7.61
8/5/2022 4:45:00 AM 23.34 74.012 0.3 7.81 3.71 7.63
8/5/2022 5:00:00 AM 23.33 73.994 0.281 7.81 3.29 7.64
8/5/2022 5:15:00 AM 23.31 73.958 0.261 7.81 2.71 7.62
8/5/2022 5:30:00 AM 23.31 73.958 0.267 7.8 5.56 7.6
8/5/2022 5:45:00 AM 23.29 73.922 0.247 7.78 4.36 7.45
8/5/2022 6:00:00 AM 23.27 73.886 0.582 7.79 3.98 7.47
8/5/2022 6:15:00 AM 23.27 73.886 0.268 7.78 6.3 7.44
8/5/2022 6:30:00 AM 23.26 73.868 0.273 7.78 3.18 7.5
8/5/2022 6:45:00 AM 23.26 73.868 0.324 7.77 2.89 7.49
8/5/2022 7:00:00 AM 23.27 73.886 0.291 7.78 5.01 7.51
8/5/2022 7:15:00 AM 23.27 73.886 0.305 7.8 3.4 7.49
8/5/2022 7:30:00 AM 23.29 73.922 0.284 7.79 2.82 7.55
8/5/2022 7:45:00 AM 23.3 73.94 0.273 7.79 3.18 7.58
8/5/2022 8:00:00 AM 23.3 73.94 0.331 7.77 3.22 7.47
8/5/2022 8:15:00 AM 23.31 73.958 0.316 7.76 11.88 7.56
8/5/2022 8:30:00 AM 23.33 73.994 0.264 7.78 3.05 7.6
8/5/2022 8:45:00 AM 23.35 74.03 0.264 7.8 2.89 7.67
8/5/2022 9:00:00 AM 23.38 74.084 0.29 7.8 4.52 7.67
8/5/2022 9:15:00 AM 23.4 74.12 0.271 7.81 2.71 7.72
8/5/2022 9:30:00 AM 23.44 74.192 0.318 7.79 2.49 7.67
8/5/2022 9:45:00 AM 23.47 74.246 0.279 7.82 2.56 7.84
8/5/2022 10:00:00 AM 23.5 74.3 0.589 7.82 2.25 7.78
8/5/2022 10:15:00 AM 23.55 74.39 0.304 7.83 2.74 8
8/5/2022 10:30:00 AM 23.67 74.606 0.285 7.85 2.87 8.19
8/5/2022 10:45:00 AM 23.78 74.804 0.268 7.85 2.7 8.23
8/5/2022 11:00:00 AM 23.82 74.876 0.269 7.86 2.41 8.27
8/5/2022 11:15:00 AM 23.93 75.074 0.265 7.87 2.51 8.34
8/5/2022 11:30:00 AM 24 75.2 0.275 7.88 2.97 8.37
8/5/2022 11:45:00 AM 23.98 75.164 0.312 7.86 3.05 8.23
8/5/2022 12:00:00 PM 23.99 75.182 0.309 7.85 2.86 8.18
8/5/2022 12:15:00 PM 24.02 75.236 0.595 7.86 2.52 8.1
8/5/2022 12:30:00 PM 24.11 75.398 0.257 7.87 2.45 8.23
8/5/2022 12:45:00 PM 24.22 75.596 0.275 7.87 2.45 8.31
8/5/2022 1:00:00 PM 24.35 75.83 0.586 7.88 2.47 8.4
8/5/2022 1:15:00 PM 24.33 75.794 0.596 7.88 2.41 8.32
8/5/2022 1:30:00 PM 24.26 75.668 0.248 7.87 2.6 8.18
8/5/2022 1:45:00 PM 24.25 75.65 0.264 7.88 2.43 8.26
8/5/2022 2:00:00 PM 24.25 75.65 0.598 7.82 2.41 8.17
8/5/2022 2:15:00 PM 24.3 75.74 0.313 7.89 3.04 8.29
8/5/2022 2:30:00 PM 24.39 75.902 0.326 7.89 2.51 8.32
8/5/2022 2:45:00 PM 24.47 76.046 0.292 7.89 2.96 8.21
8/5/2022 3:00:00 PM 24.52 76.136 0.292 7.89 2.8 8.31
8/5/2022 3:15:00 PM 24.57 76.226 0.591 7.89 2.05 8.27
8/5/2022 3:30:00 PM 24.63 76.334 0.299 7.91 2.32 8.26
8/5/2022 3:45:00 PM 24.67 76.406 0.293 7.93 2.23 8.33
8/5/2022 4:00:00 PM 24.73 76.514 0.262 7.93 2.25 8.23
8/5/2022 4:15:00 PM 24.79 76.622 0.297 7.94 2.06 8.32
8/5/2022 4:30:00 PM 24.83 76.694 0.291 7.94 2.02 8.19
8/5/2022 4:45:00 PM 24.83 76.694 0.286 7.94 2.03 8.24
8/5/2022 5:00:00 PM 24.82 76.676 0.59 7.94 2.1 8.12
8/5/2022 5:15:00 PM 24.81 76.658 0.272 7.95 2.26 8.12
8/5/2022 5:30:00 PM 24.78 76.604 0.274 7.95 1.89 8.18
8/5/2022 5:45:00 PM 24.77 76.586 0.298 7.96 2.01 8.2
8/5/2022 6:00:00 PM 24.79 76.622 0.608 7.96 3.04 8.18
8/5/2022 6:15:00 PM 24.82 76.676 0.315 7.96 2.09 8.09
8/5/2022 6:30:00 PM 24.85 76.73 0.302 7.96 2.08 8.17
8/5/2022 6:45:00 PM 24.84 76.712 0.609 7.96 1.75 8.11
8/5/2022 7:00:00 PM 24.82 76.676 0.6 7.96 2.22 8.06
8/5/2022 7:15:00 PM 24.82 76.676 0.599 7.95 2.14 8.08
8/5/2022 7:30:00 PM 24.79 76.622 0.315 7.97 2.12 8.09
8/5/2022 7:45:00 PM 24.72 76.496 0.291 7.97 2.44 8.16
8/5/2022 8:00:00 PM 24.65 76.37 0.278 7.97 1.96 8.09
8/5/2022 8:15:00 PM 24.56 76.208 0.274 7.96 2.05 8.07
8/5/2022 8:30:00 PM 24.5 76.1 0.293 7.96 2.65 8.02
8/5/2022 8:45:00 PM 24.46 76.028 0.599 7.96 2.67 8.09
8/5/2022 9:00:00 PM 24.4 75.92 0.29 7.96 3.32 8.09
8/5/2022 9:15:00 PM 24.36 75.848 0.285 7.96 2.69 8.1
8/5/2022 9:30:00 PM 24.31 75.758 0.272 7.96 3.57 7.99
8/5/2022 9:45:00 PM 24.27 75.686 0.288 7.96 2.42 8.09
8/5/2022 10:00:00 PM 24.22 75.596 0.578 7.94 2.58 8.08
8/5/2022 10:15:00 PM 24.15 75.47 0.289 7.94 2.03 8.07
8/5/2022 10:30:00 PM 24.1 75.38 0.312 7.94 4.4 8.03
8/5/2022 10:45:00 PM 24.06 75.308 0.292 7.93 2.4 8
8/5/2022 11:00:00 PM 24.03 75.254 0.601 7.91 2.35 8.02
8/5/2022 11:15:00 PM 23.99 75.182 0.293 7.91 2.41 7.99
8/5/2022 11:30:00 PM 23.96 75.128 0.603 7.9 3.06 7.95
8/5/2022 11:45:00 PM 23.92 75.056 0.601 7.91 6.99 7.94
8/6/2022 12:00:00 AM 23.88 74.984 0.267 7.89 2.42 7.89
8/6/2022 12:15:00 AM 23.85 74.93 0.613 7.89 3.06 7.8
8/6/2022 12:30:00 AM 23.81 74.858 0.603 7.88 2.51 7.88
8/6/2022 12:45:00 AM 23.78 74.804 0.261 7.85 2.84 7.81
8/6/2022 1:00:00 AM 23.74 74.732 0.583 7.86 3.56 7.8
8/6/2022 1:15:00 AM 23.71 74.67799 0.614 7.86 2.54 7.79
8/6/2022 1:30:00 AM 23.68 74.624 0.294 7.85 2.63 7.72
8/6/2022 1:45:00 AM 23.65 74.57 0.328 7.85 2.98 7.75
8/6/2022 2:00:00 AM 23.62 74.516 0.324 7.84 3.13 7.73
8/6/2022 2:15:00 AM 23.59 74.462 0.605 7.83 2.7 7.69
8/6/2022 2:30:00 AM 23.56 74.408 0.617 7.83 2.8 7.62
8/6/2022 2:45:00 AM 23.54 74.372 0.301 7.83 2.74 7.69
8/6/2022 3:00:00 AM 23.51 74.318 0.615 7.84 2.98 7.69
8/6/2022 3:15:00 AM 23.48 74.264 0.62 7.8 2.67 7.7
8/6/2022 3:30:00 AM 23.45 74.21 0.603 7.81 2.53 7.63
8/6/2022 3:45:00 AM 23.42 74.156 0.298 7.83 3.05 7.68
8/6/2022 4:00:00 AM 23.39 74.102 0.313 7.82 2.6 7.65
8/6/2022 4:15:00 AM 23.37 74.066 0.619 7.82 3.17 7.62
8/6/2022 4:30:00 AM 23.34 74.012 0.609 7.82 3.51 7.67
8/6/2022 4:45:00 AM 23.31 73.958 0.331 7.81 3.22 7.68
8/6/2022 5:00:00 AM 23.28 73.904 0.263 7.79 3.29 7.63
8/6/2022 5:15:00 AM 23.26 73.868 0.604 7.79 2.96 7.66
8/6/2022 5:30:00 AM 23.24 73.832 0.277 7.79 3.45 7.64
8/6/2022 5:45:00 AM 23.22 73.796 0.607 7.81 3.08 7.65
8/6/2022 6:00:00 AM 23.21 73.778 0.606 7.81 3.1 7.64
8/6/2022 6:15:00 AM 23.2 73.76 0.272 7.8 3.58 7.59
8/6/2022 6:30:00 AM 23.2 73.76 0.277 7.81 2.76 7.67
8/6/2022 6:45:00 AM 23.2 73.76 0.606 7.82 3.41 7.6
8/6/2022 7:00:00 AM 23.2 73.76 0.306 7.81 2.96 7.69
8/6/2022 7:15:00 AM 23.21 73.778 0.607 7.82 2.88 7.72
8/6/2022 7:30:00 AM 23.21 73.778 0.609 7.82 2.97 7.73
8/6/2022 7:45:00 AM 23.22 73.796 0.617 7.82 3.46 7.65
8/6/2022 8:00:00 AM 23.22 73.796 0.299 7.82 2.67 7.72
8/6/2022 8:15:00 AM 23.22 73.796 0.3 7.82 2.5 7.71
8/6/2022 8:30:00 AM 23.22 73.796 0.609 7.82 2.74 7.69
8/6/2022 8:45:00 AM 23.22 73.796 0.317 7.82 2.76 7.76
8/6/2022 9:00:00 AM 23.22 73.796 0.608 7.82 2.79 7.71
8/6/2022 9:15:00 AM 23.23 73.814 0.284 7.83 2.94 7.75
8/6/2022 9:30:00 AM 23.24 73.832 0.321 7.82 3 7.78
8/6/2022 9:45:00 AM 23.24 73.832 0.59 7.83 3.25 7.75
8/6/2022 10:00:00 AM 23.25 73.85 0.298 7.83 2.61 7.76
8/6/2022 10:15:00 AM 23.26 73.868 0.315 7.83 3.1 7.81
8/6/2022 10:30:00 AM 23.28 73.904 0.605 7.84 2.96 7.84
8/6/2022 10:45:00 AM 23.3 73.94 0.604 7.84 2.93 7.84
8/6/2022 11:00:00 AM 23.32 73.976 0.329 7.84 2.65 7.86
8/6/2022 11:15:00 AM 23.36 74.048 0.292 7.85 2.5 7.97
8/6/2022 11:30:00 AM 23.39 74.102 0.616 7.85 2.51 7.99
8/6/2022 11:45:00 AM 23.53 74.354 0.604 7.87 2.73 8.23
8/6/2022 12:00:00 PM 23.68 74.624 0.297 7.89 2.88 8.4
8/6/2022 12:15:00 PM 23.78 74.804 0.604 7.9 2.78 8.45
8/6/2022 12:30:00 PM 23.79 74.82201 0.583 7.89 2.74 8.38
8/6/2022 12:45:00 PM 23.82 74.876 0.604 7.9 2.75 8.34
8/6/2022 1:00:00 PM 23.83 74.894 0.307 7.9 2.8 8.25
8/6/2022 1:15:00 PM 23.84 74.912 0.312 7.9 2.43 8.31
8/6/2022 1:30:00 PM 23.88 74.984 0.32 7.9 2.85 8.31
8/6/2022 1:45:00 PM 23.92 75.056 0.292 7.91 2.5 8.29
8/6/2022 2:00:00 PM 23.89 75.002 0.297 7.9 2.35 8.22
8/6/2022 2:15:00 PM 23.94 75.092 0.581 7.9 2.57 8.3
8/6/2022 2:30:00 PM 24.02 75.236 0.614 7.91 2.63 8.42
8/6/2022 2:45:00 PM 24.11 75.398 0.297 7.91 2.55 8.42
8/6/2022 3:00:00 PM 24.18 75.524 0.612 7.9 2.76 8.35
8/6/2022 3:15:00 PM 24.21 75.578 0.3 7.91 2.16 8.26
8/6/2022 3:30:00 PM 24.31 75.758 0.603 7.92 2.44 8.34
8/6/2022 3:45:00 PM 24.32 75.776 0.316 7.92 2.54 8.33
8/6/2022 4:00:00 PM 24.36 75.848 0.604 7.93 2.27 8.33
8/6/2022 4:15:00 PM 24.37 75.866 0.616 7.94 2.24 8.31
8/6/2022 4:30:00 PM 24.37 75.866 0.303 7.93 2.25 8.28
8/6/2022 4:45:00 PM 24.38 75.884 0.277 7.94 2.13 8.29
8/6/2022 5:00:00 PM 24.38 75.884 0.607 7.94 2.3 8.33
8/6/2022 5:15:00 PM 24.38 75.884 0.589 7.94 2.5 8.31
8/6/2022 5:30:00 PM 24.38 75.884 0.605 7.93 2.12 8.22
8/6/2022 5:45:00 PM 24.38 75.884 0.617 7.94 2.11 8.23
8/6/2022 6:00:00 PM 24.37 75.866 0.609 7.95 2.29 8.21
8/6/2022 6:15:00 PM 24.35 75.83 0.606 7.94 2.31 8.14
8/6/2022 6:30:00 PM 24.31 75.758 0.58 7.93 2.24 8.12
8/6/2022 6:45:00 PM 24.3 75.74 0.608 7.94 2.23 8.11
8/6/2022 7:00:00 PM 24.32 75.776 0.61 7.95 2.23 8.15
8/6/2022 7:15:00 PM 24.31 75.758 0.31 7.96 2.38 8.19
8/6/2022 7:30:00 PM 24.29 75.722 0.609 7.96 2.74 8.17
8/6/2022 7:45:00 PM 24.26 75.668 0.611 7.95 2.1 8.13
8/6/2022 8:00:00 PM 24.23 75.614 0.611 7.94 2.32 8.07
8/6/2022 8:15:00 PM 24.2 75.56 0.594 7.94 2.38 8.08
8/6/2022 8:30:00 PM 24.17 75.506 0.613 7.94 2.64 7.95
8/6/2022 8:45:00 PM 24.13 75.434 0.319 7.94 4.1 7.98
8/6/2022 9:00:00 PM 24.1 75.38 0.29 7.94 2.57 7.99
8/6/2022 9:15:00 PM 24.06 75.308 0.615 7.94 2.42 8.02
8/6/2022 9:30:00 PM 24.02 75.236 0.607 7.92 3.31 8
8/6/2022 9:45:00 PM 23.97 75.146 0.296 7.93 2.45 8.03
8/6/2022 10:00:00 PM 23.97 75.146 0.291 7.93 3.09 7.95
8/6/2022 10:15:00 PM 23.92 75.056 0.61 7.91 2.66 8.01
8/6/2022 10:30:00 PM 23.88 74.984 0.605 7.9 2.41 7.99
8/6/2022 10:45:00 PM 23.84 74.912 0.609 7.91 3.05 7.96
8/6/2022 11:00:00 PM 23.81 74.858 0.292 7.91 2.8 7.98
8/6/2022 11:15:00 PM 23.78 74.804 0.289 7.9 2.65 7.96
8/6/2022 11:30:00 PM 23.75 74.75 0.449 7.87 28.93 7.92
8/6/2022 11:45:00 PM 23.71 74.67799 0.318 7.88 6.68 7.97
8/7/2022 12:00:00 AM 23.67 74.606 0.31 7.88 3.22 7.95
8/7/2022 12:15:00 AM 23.64 74.552 0.321 7.87 4.3 7.94
8/7/2022 12:30:00 AM 23.61 74.498 0.279 7.88 5.75 7.95
8/7/2022 12:45:00 AM 23.59 74.462 0.295 7.87 3.03 7.94
8/7/2022 1:00:00 AM 23.56 74.408 0.611 7.87 4.28 7.93
8/7/2022 1:15:00 AM 23.54 74.372 0.315 7.87 3.6 7.93
8/7/2022 1:30:00 AM 23.51 74.318 0.307 7.87 3.94 7.91
8/7/2022 1:45:00 AM 23.49 74.282 0.628 7.87 6.46 7.88
8/7/2022 2:00:00 AM 23.47 74.246 0.301 7.87 4.17 7.84
8/7/2022 2:15:00 AM 23.44 74.192 0.627 7.87 4.8 7.82
8/7/2022 2:30:00 AM 23.41 74.138 0.279 7.86 5.85 7.83
8/7/2022 2:45:00 AM 23.38 74.084 0.627 7.85 4.18 7.81
8/7/2022 3:00:00 AM 23.35 74.03 0.628 7.86 3.08 7.79
8/7/2022 3:15:00 AM 23.32 73.976 0.628 7.85 4.76 7.79
8/7/2022 3:30:00 AM 23.29 73.922 0.292 7.85 3.55 7.77
8/7/2022 3:45:00 AM 23.27 73.886 0.625 7.84 2.91 7.76
8/7/2022 4:00:00 AM 23.24 73.832 0.623 7.84 2.96 7.76
8/7/2022 4:15:00 AM 23.22 73.796 0.585 7.84 3.07 7.75
8/7/2022 4:30:00 AM 23.2 73.76 0.31 7.83 3.17 7.75
8/7/2022 4:45:00 AM 23.18 73.724 0.317 7.84 2.89 7.75
8/7/2022 5:00:00 AM 23.16 73.688 0.268 7.83 3.16 7.71
8/7/2022 5:15:00 AM 23.14 73.652 0.589 7.81 3.05 7.73
8/7/2022 5:30:00 AM 23.12 73.616 0.621 7.81 3.48 7.73
8/7/2022 5:45:00 AM 23.1 73.58 0.3 7.83 4.01 7.71
8/7/2022 6:00:00 AM 23.09 73.562 0.315 7.82 3.75 7.68
8/7/2022 6:15:00 AM 23.08 73.544 0.625 7.82 3.22 7.7
8/7/2022 6:30:00 AM 23.07 73.526 0.632 7.82 3.49 7.68
8/7/2022 6:45:00 AM 23.07 73.526 0.623 7.82 3 7.68
8/7/2022 7:00:00 AM 23.07 73.526 0.635 7.82 3.76 7.68
8/7/2022 7:15:00 AM 23.07 73.526 0.632 7.82 2.81 7.59
8/7/2022 7:30:00 AM 23.07 73.526 0.602 7.82 3.15 7.72
8/7/2022 7:45:00 AM 23.08 73.544 0.276 7.83 2.77 7.66
8/7/2022 8:00:00 AM 23.08 73.544 0.322 7.83 2.77 7.74
8/7/2022 8:15:00 AM 23.09 73.562 0.587 7.82 3.27 7.76
8/7/2022 8:30:00 AM 23.11 73.598 0.625 7.84 3.25 7.85
8/7/2022 8:45:00 AM 23.14 73.652 0.626 7.84 3.24 7.9
8/7/2022 9:00:00 AM 23.18 73.724 0.635 7.85 2.88 8.04
8/7/2022 9:15:00 AM 23.25 73.85 0.637 7.86 3.48 8.1
8/7/2022 9:30:00 AM 23.25 73.85 0.626 7.86 2.75 8.15
8/7/2022 9:45:00 AM 23.27 73.886 0.626 7.86 2.74 8.14
8/7/2022 10:00:00 AM 23.29 73.922 0.627 7.87 2.48 8.16
8/7/2022 10:15:00 AM 23.41 74.138 0.625 7.87 2.65 8.24
8/7/2022 10:30:00 AM 23.52 74.336 0.624 7.88 2.92 8.32
8/7/2022 10:45:00 AM 23.65 74.57 0.625 7.89 2.4 8.38
8/7/2022 11:00:00 AM 23.77 74.786 0.622 7.9 2.71 8.45
8/7/2022 11:15:00 AM 23.84 74.912 0.626 7.9 2.63 8.41
8/7/2022 11:30:00 AM 23.77 74.786 0.611 7.9 2.65 8.33
8/7/2022 11:45:00 AM 23.87 74.966 0.626 7.9 2.62 8.35
8/7/2022 12:00:00 PM 24 75.2 0.634 7.91 2.87 8.43
8/7/2022 12:15:00 PM 24.12 75.416 0.634 7.91 2.52 8.52
8/7/2022 12:30:00 PM 24.21 75.578 0.602 7.91 2.42 8.53
8/7/2022 12:45:00 PM 24.31 75.758 0.625 7.92 2.51 8.52
8/7/2022 1:00:00 PM 24.36 75.848 0.626 7.92 2.68 8.48
8/7/2022 1:15:00 PM 24.45 76.01 0.627 7.93 2.83 8.43
8/7/2022 1:30:00 PM 24.46 76.028 0.604 7.92 5.99 8.42
8/7/2022 1:45:00 PM 24.52 76.136 0.629 7.94 2.48 8.33
8/7/2022 2:00:00 PM 24.63 76.334 0.627 7.93 3.01 8.48
8/7/2022 2:15:00 PM 24.68 76.424 0.634 7.94 2.3 8.46
8/7/2022 2:30:00 PM 24.75 76.55 0.629 7.94 2.38 8.43
8/7/2022 2:45:00 PM 24.75 76.55 0.597 7.94 2.19 8.36
8/7/2022 3:00:00 PM 24.77 76.586 0.628 7.95 2.43 8.42
8/7/2022 3:15:00 PM 24.71 76.478 0.308 7.96 2.63 8.4
8/7/2022 3:30:00 PM 24.68 76.424 0.617 7.96 2.01 8.4
8/7/2022 3:45:00 PM 24.74 76.532 0.628 7.97 2.37 8.3
8/7/2022 4:00:00 PM 24.77 76.586 0.627 7.97 2.68 8.4
8/7/2022 4:15:00 PM 24.76 76.568 0.622 7.97 2.07 8.39
8/7/2022 4:30:00 PM 24.79 76.622 0.621 7.97 2.13 8.39
8/7/2022 4:45:00 PM 24.84 76.712 0.636 7.98 2.41 8.29
8/7/2022 5:00:00 PM 24.92 76.856 0.633 7.98 2.29 8.32
8/7/2022 5:15:00 PM 24.97 76.946 0.633 7.99 2.11 8.37
8/7/2022 5:30:00 PM 24.97 76.946 0.635 7.99 2.47 8.35
8/7/2022 5:45:00 PM 24.95 76.91 0.634 8 2.27 8.34
8/7/2022 6:00:00 PM 24.96 76.92799 0.624 8.01 1.99 8.31
8/7/2022 6:15:00 PM 24.97 76.946 0.632 8.02 2.73 8.2
8/7/2022 6:30:00 PM 24.98 76.964 0.633 8.02 2.12 8.23
8/7/2022 6:45:00 PM 24.94 76.892 0.635 8.01 2.33 8.1
8/7/2022 7:00:00 PM 24.91 76.838 0.634 8.01 2.14 8.07
8/7/2022 7:15:00 PM 24.86 76.748 0.633 8 2.29 8.09
8/7/2022 7:30:00 PM 24.84 76.712 0.641 8 2.12 8.12
8/7/2022 7:45:00 PM 24.85 76.73 0.628 8 2.36 8.16
8/7/2022 8:00:00 PM 24.85 76.73 0.638 8 3.93 8.11
8/7/2022 8:15:00 PM 24.85 76.73 0.637 8 2.33 8.1
8/7/2022 8:30:00 PM 24.83 76.694 0.636 8 2.3 8.01
8/7/2022 8:45:00 PM 24.8 76.64 0.637 8 3.8 8
8/7/2022 9:00:00 PM 24.77 76.586 0.634 7.99 5.13 8.06
8/7/2022 9:15:00 PM 24.74 76.532 0.643 7.99 2.51 8.06
8/7/2022 9:30:00 PM 24.69 76.442 0.633 7.98 3.4 8.08
8/7/2022 9:45:00 PM 24.65 76.37 0.636 7.98 2.73 8.08
8/7/2022 10:00:00 PM 24.61 76.298 0.611 7.97 12.13 8.02
8/7/2022 10:15:00 PM 24.55 76.19 0.634 7.95 2.74 8.06
8/7/2022 10:30:00 PM 24.52 76.136 0.634 7.95 2.38 8
8/7/2022 10:45:00 PM 24.47 76.046 0.639 7.96 2.14 8.03
8/7/2022 11:00:00 PM 24.42 75.956 0.616 7.95 2.44 7.97
8/7/2022 11:15:00 PM 24.38 75.884 0.613 7.95 2.31 7.99
8/7/2022 11:30:00 PM 24.34 75.812 0.644 7.84 2.52 7.92
8/7/2022 11:45:00 PM 24.31 75.758 0.636 7.93 2.73 7.95
8/8/2022 12:00:00 AM 24.28 75.704 0.636 7.92 2.65 7.91
8/8/2022 12:15:00 AM 24.24 75.632 0.646 7.92 2.3 7.92
8/8/2022 12:30:00 AM 24.22 75.596 0.636 7.91 2.68 7.91
8/8/2022 12:45:00 AM 24.19 75.542 0.633 7.89 2.73 7.79
8/8/2022 1:00:00 AM 24.17 75.506 0.639 7.91 2.92 7.88
8/8/2022 1:15:00 AM 24.14 75.452 0.642 7.9 6.41 7.82
8/8/2022 1:30:00 AM 24.11 75.398 0.647 7.89 3.7 7.79
8/8/2022 1:45:00 AM 24.08 75.344 0.635 7.88 4.33 7.74
8/8/2022 2:00:00 AM 24.06 75.308 0.605 7.88 4.89 7.7
8/8/2022 2:15:00 AM 24.04 75.272 0.647 7.88 2.99 7.72
8/8/2022 2:30:00 AM 24.02 75.236 0.639 7.87 3 7.58
8/8/2022 2:45:00 AM 24 75.2 0.64 7.87 3.24 7.69
8/8/2022 3:00:00 AM 23.99 75.182 0.642 7.87 2.8 7.66
8/8/2022 3:15:00 AM 23.97 75.146 0.638 7.85 3.96 7.56
8/8/2022 3:30:00 AM 23.95 75.11 0.633 7.84 3.29 7.58
8/8/2022 3:45:00 AM 23.93 75.074 0.605 7.85 2.54 7.46
8/8/2022 4:00:00 AM 23.92 75.056 0.644 7.85 3.29 7.61
8/8/2022 4:15:00 AM 23.91 75.038 0.641 7.84 3.48 7.6
8/8/2022 4:30:00 AM 23.9 75.02 0.635 7.81 3.01 7.56
8/8/2022 4:45:00 AM 23.88 74.984 0.637 7.84 3.08 7.57
8/8/2022 5:00:00 AM 23.87 74.966 0.637 7.83 8.02 7.56
8/8/2022 5:15:00 AM 23.85 74.93 0.644 7.84 3.11 7.52
8/8/2022 5:30:00 AM 23.84 74.912 0.639 7.83 2.68 7.54
8/8/2022 5:45:00 AM 23.83 74.894 0.649 7.81 2.96 7.51
8/8/2022 6:00:00 AM 23.82 74.876 0.649 7.83 3.12 7.55
8/8/2022 6:15:00 AM 23.8 74.84 0.649 7.83 2.78 7.52
8/8/2022 6:30:00 AM 23.79 74.82201 0.64 7.82 2.69 7.53
8/8/2022 6:45:00 AM 23.78 74.804 0.643 7.82 2.56 7.36
8/8/2022 7:00:00 AM 23.77 74.786 0.637 7.82 3.09 7.5
8/8/2022 7:15:00 AM 23.77 74.786 0.65 7.78 2.54 7.5
8/8/2022 7:30:00 AM 23.78 74.804 0.65 7.82 2.26 7.49
8/8/2022 7:45:00 AM 23.79 74.82201 0.643 7.82 2.55 7.49
8/8/2022 8:00:00 AM 23.8 74.84 0.644 7.82 2.52 7.49
8/8/2022 8:15:00 AM 23.81 74.858 0.641 7.82 3.22 7.53
8/8/2022 8:30:00 AM 23.84 74.912 0.647 7.82 2.87 7.41
8/8/2022 8:45:00 AM 23.88 74.984 0.641 7.83 2.32 7.58
8/8/2022 9:00:00 AM 23.93 75.074 0.647 7.83 2.4 7.56
8/8/2022 9:15:00 AM 23.99 75.182 0.643 7.85 2.42 7.73
8/8/2022 9:30:00 AM 24.06 75.308 0.638 7.85 2.35 7.83
8/8/2022 9:45:00 AM 24.14 75.452 0.638 7.86 2.15 7.87
8/8/2022 10:00:00 AM 24.22 75.596 0.627 7.86 2.42 7.85
8/8/2022 10:15:00 AM 24.32 75.776 0.64 7.86 3.27 7.96
8/8/2022 10:30:00 AM 24.42 75.956 0.641 7.87 2.73 8.08
8/8/2022 10:45:00 AM 24.51 76.118 0.641 7.88 2.72 8.08
8/8/2022 11:00:00 AM 24.61 76.298 0.625 7.89 2.97 8.14
8/8/2022 11:15:00 AM 24.68 76.424 0.646 7.89 2.73 8.22
8/8/2022 11:30:00 AM 24.7 76.46 0.639 7.89 2.65 8.18
8/8/2022 11:45:00 AM 24.71 76.478 0.639 7.89 3.75 7.99
8/8/2022 12:00:00 PM 24.85 76.73 0.636 7.9 2.97 8.25
8/8/2022 12:15:00 PM 24.92 76.856 0.635 7.9 4.45 8.22
8/8/2022 12:30:00 PM 24.96 76.92799 0.643 7.9 2.59 8.19
8/8/2022 12:45:00 PM 25.04 77.07201 0.637 7.9 3.02 8.26
8/8/2022 1:00:00 PM 25.08 77.144 0.637 7.9 2.57 8.2
8/8/2022 1:15:00 PM 25.18 77.324 0.62 7.9 2.24 8.23
8/8/2022 1:30:00 PM 25.2 77.36 0.641 7.91 2.36 8.22
8/8/2022 1:45:00 PM 25.17 77.306 0.625 7.9 2.66 8.07
8/8/2022 2:00:00 PM 25.21 77.378 0.634 7.91 2.4 7.92
8/8/2022 2:15:00 PM 25.22 77.396 0.627 7.9 2.12 7.83
8/8/2022 2:30:00 PM 25.28 77.504 0.631 7.91 2.05 8.06
8/8/2022 2:45:00 PM 25.35 77.63 0.64 7.91 2.07 8.14
8/8/2022 3:00:00 PM 25.4 77.72 0.63 7.91 2.08 8.15
8/8/2022 3:15:00 PM 25.45 77.81 0.629 7.93 2.28 8.13
8/8/2022 3:30:00 PM 25.54 77.972 0.638 7.94 2.1 8.17
8/8/2022 3:45:00 PM 25.57 78.026 0.633 7.95 5.02 8.03
8/8/2022 4:00:00 PM 25.55 77.99 0.63 7.95 3.23 8.15
8/8/2022 4:15:00 PM 25.55 77.99 0.628 7.95 3.71 8.08
8/8/2022 4:30:00 PM 25.58 78.044 0.632 7.95 4.3 8.09
8/8/2022 4:45:00 PM 25.61 78.098 0.613 7.96 2.68 8.12
8/8/2022 5:00:00 PM 25.63 78.134 0.63 7.96 3.05 8.1
8/8/2022 5:15:00 PM 25.67 78.206 0.629 7.97 1.95 8.01
8/8/2022 5:30:00 PM 25.67 78.206 0.631 7.97 2.1 8.04
8/8/2022 5:45:00 PM 25.68 78.224 0.635 7.98 2.35 8
8/8/2022 6:00:00 PM 25.66 78.188 0.627 7.98 1.86 7.97
8/8/2022 6:15:00 PM 25.63 78.134 0.628 7.98 1.9 7.75
8/8/2022 6:30:00 PM 25.59 78.062 0.626 7.97 2.27 7.93
8/8/2022 6:45:00 PM 25.59 78.062 0.624 7.96 2.05 7.85
8/8/2022 7:00:00 PM 25.57 78.026 0.63 7.98 2.56 7.9
8/8/2022 7:15:00 PM 25.57 78.026 0.629 7.98 1.83 7.89
8/8/2022 7:30:00 PM 25.56 78.008 0.634 7.98 2.06 7.82
8/8/2022 7:45:00 PM 25.53 77.954 0.626 7.98 2.11 7.71
8/8/2022 8:00:00 PM 25.51 77.918 0.625 7.98 2.03 7.76
8/8/2022 8:15:00 PM 25.51 77.918 0.63 7.98 1.98 7.73
8/8/2022 8:30:00 PM 25.5 77.9 0.63 7.98 2.23 7.83
8/8/2022 8:45:00 PM 25.49 77.882 0.629 7.98 2.14 7.78
8/8/2022 9:00:00 PM 25.47 77.846 0.625 7.98 2.19 7.72
8/8/2022 9:15:00 PM 25.45 77.81 0.629 7.98 2.34 7.75
8/8/2022 9:30:00 PM 25.42 77.756 0.625 7.97 3.04 7.76
8/8/2022 9:45:00 PM 25.39 77.702 0.62 7.96 2.3 7.65
8/8/2022 10:00:00 PM 25.35 77.63 0.629 7.97 2.08 7.8
8/8/2022 10:15:00 PM 25.31 77.558 0.634 7.96 2.31 7.85
8/8/2022 10:30:00 PM 25.27 77.486 0.618 7.96 2.5 7.76
8/8/2022 10:45:00 PM 25.23 77.414 0.628 7.95 3.27 7.76
8/8/2022 11:00:00 PM 25.18 77.324 0.635 7.95 2.4 7.76
8/8/2022 11:15:00 PM 25.13 77.234 0.598 7.94 3.06 7.75
8/8/2022 11:30:00 PM 25.08 77.144 0.595 7.93 2.48 7.75
8/8/2022 11:45:00 PM 25.03 77.054 0.626 7.92 2.34 7.67
8/9/2022 12:00:00 AM 24.99 76.982 0.604 7.92 2.26 7.62
8/9/2022 12:15:00 AM 24.95 76.91 0.631 7.92 2.12 7.65
8/9/2022 12:30:00 AM 24.92 76.856 0.631 7.92 3.71 7.56
8/9/2022 12:45:00 AM 24.89 76.802 0.63 7.9 2.98 7.56
8/9/2022 1:00:00 AM 24.87 76.766 0.604 7.89 2.89 7.51
8/9/2022 1:15:00 AM 24.84 76.712 0.626 7.89 2.83 7.57
8/9/2022 1:30:00 AM 24.81 76.658 0.632 7.89 2.91 7.47
8/9/2022 1:45:00 AM 24.79 76.622 0.64 7.89 3.45 7.54
8/9/2022 2:00:00 AM 24.76 76.568 0.637 7.88 3.38 7.53
8/9/2022 2:15:00 AM 24.74 76.532 0.635 7.87 2.26 7.55
8/9/2022 2:30:00 AM 24.72 76.496 0.633 7.87 3.32 7.51
8/9/2022 2:45:00 AM 24.71 76.478 0.631 7.86 3.18 7.4
8/9/2022 3:00:00 AM 24.69 76.442 0.621 7.86 2.6 7.48
8/9/2022 3:15:00 AM 24.67 76.406 0.637 7.86 2.73 7.43
8/9/2022 3:30:00 AM 24.65 76.37 0.639 7.85 2.79 7.44
8/9/2022 3:45:00 AM 24.63 76.334 0.631 7.84 4.08 7.38
8/9/2022 4:00:00 AM 24.61 76.298 0.643 7.84 3.55 7.35
8/9/2022 4:15:00 AM 24.59 76.262 0.62 7.84 5.23 7.4
8/9/2022 4:30:00 AM 24.57 76.226 0.631 7.83 7.82 7.35
8/9/2022 4:45:00 AM 24.55 76.19 0.642 7.82 3.14 7.21
8/9/2022 5:00:00 AM 24.53 76.154 0.641 7.82 2.58 7.3
8/9/2022 5:15:00 AM 24.52 76.136 0.642 7.82 4.37 7.2
8/9/2022 5:30:00 AM 24.5 76.1 0.637 7.81 4.94 7.28
8/9/2022 5:45:00 AM 24.48 76.064 0.636 7.8 2.9 7.23
8/9/2022 6:00:00 AM 24.47 76.046 0.647 7.72 2.31 7.1
8/9/2022 6:15:00 AM 24.46 76.028 0.638 7.81 2.5 7.2
8/9/2022 6:30:00 AM 24.44 75.992 0.648 7.82 2.48 7.25
8/9/2022 6:45:00 AM 24.44 75.992 0.628 7.81 2.39 7.27
8/9/2022 7:00:00 AM 24.43 75.974 0.641 7.81 2.57 7.3
8/9/2022 7:15:00 AM 24.43 75.974 0.641 7.81 3.86 7.32
8/9/2022 7:30:00 AM 24.43 75.974 0.643 7.82 2.52 7.27
8/9/2022 7:45:00 AM 24.44 75.992 0.64 7.82 2.56 7.33
8/9/2022 8:00:00 AM 24.45 76.01 0.635 7.82 2.06 7.26
8/9/2022 8:15:00 AM 24.46 76.028 0.642 7.82 2.2 7.34
8/9/2022 8:30:00 AM 24.48 76.064 0.619 7.83 2.33 7.44
8/9/2022 8:45:00 AM 24.51 76.118 0.646 7.83 2.23 7.42
8/9/2022 9:00:00 AM 24.56 76.208 0.646 7.83 2.29 7.52
8/9/2022 9:15:00 AM 24.61 76.298 0.645 7.84 2.29 7.62
8/9/2022 9:30:00 AM 24.66 76.388 0.641 7.83 2.36 7.6
8/9/2022 9:45:00 AM 24.73 76.514 0.642 7.82 2.37 7.73
8/9/2022 10:00:00 AM 24.81 76.658 0.647 7.84 3.79 7.66
8/9/2022 10:15:00 AM 24.88 76.784 0.644 7.85 2.99 7.83
8/9/2022 10:30:00 AM 24.97 76.946 0.654 7.86 2.41 7.9
8/9/2022 10:45:00 AM 25.07 77.126 0.633 7.86 2.28 7.94
8/9/2022 11:00:00 AM 25.14 77.252 0.645 7.87 2.41 7.89
8/9/2022 11:15:00 AM 25.22 77.396 0.648 7.87 2.06 7.85
8/9/2022 11:30:00 AM 25.21 77.378 0.644 7.86 2.43 7.91
8/9/2022 11:45:00 AM 25.19 77.342 0.644 7.86 1.99 7.85
8/9/2022 12:00:00 PM 25.2 77.36 0.646 7.87 2.61 7.9
8/9/2022 12:15:00 PM 25.28 77.504 0.65 7.87 2.38 7.97
8/9/2022 12:30:00 PM 25.45 77.81 0.65 7.88 2.44 8.12
8/9/2022 12:45:00 PM 25.47 77.846 0.649 7.88 2.08 8.09
8/9/2022 1:00:00 PM 25.44 77.792 0.646 7.88 2.23 7.99
8/9/2022 1:15:00 PM 25.58 78.044 0.647 7.88 2.13 8.1
8/9/2022 1:30:00 PM 25.65 78.17 0.646 7.89 2.83 8.09
8/9/2022 1:45:00 PM 25.71 78.278 0.654 7.9 2.49 8.1
8/9/2022 2:00:00 PM 25.79 78.422 0.646 7.9 2.38 8.1
8/9/2022 2:15:00 PM 25.84 78.512 0.627 7.9 2.27 7.99
8/9/2022 2:30:00 PM 25.9 78.62 0.646 7.91 2.5 8.03
8/9/2022 2:45:00 PM 25.96 78.728 0.648 7.91 3.14 8.02
8/9/2022 3:00:00 PM 26.02 78.836 0.643 7.91 3.09 8.06
8/9/2022 3:15:00 PM 25.99 78.782 0.62 7.91 2.34 7.84
8/9/2022 3:30:00 PM 25.87 78.566 0.641 7.91 2.95 7.56
8/9/2022 3:45:00 PM 25.76 78.368 0.287 7.92 5.72 7.57
8/9/2022 4:00:00 PM 25.87 78.566 0.27 7.94 9.46 7.59
8/9/2022 4:15:00 PM 25.86 78.548 0.272 7.92 8.17 7.64
8/9/2022 4:30:00 PM 25.57 78.026 0.599 7.89 4.86 7.64
8/9/2022 4:45:00 PM 25.49 77.882 0.615 7.88 5.01 7.77
8/9/2022 5:00:00 PM 25.55 77.99 0.615 7.92 6.38 7.99
8/9/2022 5:15:00 PM 25.72 78.296 0.624 7.93 8.09 8.04
8/9/2022 5:30:00 PM 25.75 78.35 0.614 7.98 9.03 8.1
8/9/2022 5:45:00 PM 25.7 78.26 0.619 7.98 8.66 8.13
8/9/2022 6:00:00 PM 25.57 78.026 0.597 7.97 6.33 8.12
8/9/2022 6:15:00 PM 25.48 77.864 0.619 7.95 7.43 8.16
8/9/2022 6:30:00 PM 25.38 77.684 0.616 7.96 5.24 8.09
8/9/2022 6:45:00 PM 25.31 77.558 0.619 7.94 4.39 8.06
8/9/2022 7:00:00 PM 25.25 77.45 0.613 7.95 5.12 8.03
8/9/2022 7:15:00 PM 25.2 77.36 0.605 7.94 5.65 8.01
8/9/2022 7:30:00 PM 25.13 77.234 0.61 7.91 5.52 8
8/9/2022 7:45:00 PM 25.04 77.07201 0.572 7.92 6.84 7.97
8/9/2022 8:00:00 PM 24.95 76.91 0.611 7.9 6.36 7.93
8/9/2022 8:15:00 PM 24.85 76.73 0.577 7.9 8.01 7.88
8/9/2022 8:30:00 PM 24.76 76.568 0.265 7.87 9.25 7.85
8/9/2022 8:45:00 PM 24.67 76.406 0.572 7.87 7.12 7.84
8/9/2022 9:00:00 PM 24.59 76.262 0.615 7.85 6.23 7.81
8/9/2022 9:15:00 PM 24.52 76.136 0.61 7.85 7.08 7.8
8/9/2022 9:30:00 PM 24.45 76.01 0.608 7.82 4.99 7.78
8/9/2022 9:45:00 PM 24.39 75.902 0.607 7.83 5.08 7.77
8/9/2022 10:00:00 PM 24.33 75.794 0.616 7.82 5.39 7.78
8/9/2022 10:15:00 PM 24.29 75.722 0.604 7.83 4.93 7.78
8/9/2022 10:30:00 PM 24.26 75.668 0.616 7.82 5.28 7.77
8/9/2022 10:45:00 PM 24.23 75.614 0.62 7.81 4.5 7.75
8/9/2022 11:00:00 PM 24.22 75.596 0.616 7.83 4.7 7.73
8/9/2022 11:15:00 PM 24.21 75.578 0.595 7.83 6.6 7.74
8/9/2022 11:30:00 PM 24.2 75.56 0.61 7.84 5.59 7.72
8/9/2022 11:45:00 PM 24.2 75.56 0.613 7.83 4.93 7.68
8/10/2022 12:00:00 AM 24.21 75.578 0.308 7.82 4.72 7.65
8/10/2022 12:15:00 AM 24.23 75.614 0.612 7.82 6.08 7.62
8/10/2022 12:30:00 AM 24.25 75.65 0.607 7.82 5.23 7.59
8/10/2022 12:45:00 AM 24.27 75.686 0.607 7.82 4.9 7.55
8/10/2022 1:00:00 AM 24.31 75.758 0.259 7.81 5.37 7.5
8/10/2022 1:15:00 AM 24.34 75.812 0.269 7.8 5.72 7.46
8/10/2022 1:30:00 AM 24.39 75.902 0.249 7.8 6.25 7.39
8/10/2022 1:45:00 AM 24.43 75.974 0.305 7.81 7.34 7.35
8/10/2022 2:00:00 AM 24.47 76.046 0.307 7.8 6.64 7.3
8/10/2022 2:15:00 AM 24.52 76.136 0.318 7.78 134.94 7.22
8/10/2022 2:30:00 AM 24.56 76.208 0.268 7.78 16.21 7.05
8/10/2022 2:45:00 AM 24.6 76.28 0.301 7.77 10.13 7.16
8/10/2022 3:00:00 AM 24.63 76.334 0.311 7.76 9.23 7.1
8/10/2022 3:15:00 AM 24.67 76.406 0.535 7.75 9.08 7.05
8/10/2022 3:30:00 AM 24.68 76.424 0.293 7.74 10.64 7.01
8/10/2022 3:45:00 AM 24.71 76.478 0.303 7.73 10.85 6.96
8/10/2022 4:00:00 AM 24.73 76.514 0.296 7.69 11.09 6.92
8/10/2022 4:15:00 AM 24.75 76.55 0.283 7.72 11 6.89
8/10/2022 4:30:00 AM 24.76 76.568 0.27 7.71 11 6.86
8/10/2022 4:45:00 AM 24.78 76.604 0.26 7.66 11.04 6.81
8/10/2022 5:00:00 AM 24.79 76.622 0.475 7.67 11 6.77
8/10/2022 5:15:00 AM 24.8 76.64 0.468 7.69 11.49 6.74
8/10/2022 5:30:00 AM 24.8 76.64 0.462 7.67 10.62 6.72
8/10/2022 5:45:00 AM 24.81 76.658 0.304 7.66 36.22 6.7
8/10/2022 6:00:00 AM 24.8 76.64 0.258 7.66 11.22 6.67
8/10/2022 6:15:00 AM 24.79 76.622 0.257 7.65 11.71 6.65
8/10/2022 6:30:00 AM 24.79 76.622 0.302 7.64 11.26 6.63
8/10/2022 6:45:00 AM 24.8 76.64 0.44 7.64 11.71 6.64
8/10/2022 7:00:00 AM 24.79 76.622 0.257 7.63 11.13 6.63
8/10/2022 7:15:00 AM 24.79 76.622 0.304 7.63 10.77 6.64
8/10/2022 7:30:00 AM 24.78 76.604 0.282 7.63 10.85 6.62
8/10/2022 7:45:00 AM 24.77 76.586 0.292 7.63 10.52 6.61
8/10/2022 8:00:00 AM 24.77 76.586 0.291 7.63 10.64 6.62
8/10/2022 8:15:00 AM 24.77 76.586 0.282 7.63 10.41 6.63
8/10/2022 8:30:00 AM 24.78 76.604 0.286 7.63 10.65 6.67
8/10/2022 8:45:00 AM 24.8 76.64 0.298 7.63 10 6.69
8/10/2022 9:00:00 AM 24.82 76.676 0.302 7.63 9.56 6.76
8/10/2022 9:15:00 AM 24.87 76.766 0.298 7.64 9.6 6.84
8/10/2022 9:30:00 AM 24.92 76.856 0.283 7.65 10.08 6.9
8/10/2022 9:45:00 AM 24.93 76.874 0.441 7.65 9.29 6.94
8/10/2022 10:00:00 AM 24.99 76.982 0.442 7.64 9.08 6.97
8/10/2022 10:15:00 AM 25.05 77.09 0.292 7.66 8.81 7.04
8/10/2022 10:30:00 AM 25.08 77.144 0.287 7.65 8.5 7.05
8/10/2022 10:45:00 AM 25.12 77.216 0.291 7.67 8.43 7.09
8/10/2022 11:00:00 AM 25.25 77.45 0.288 7.68 8.25 7.22
8/10/2022 11:15:00 AM 25.33 77.594 0.254 7.68 8.27 7.28
8/10/2022 11:30:00 AM 25.22 77.396 0.256 7.68 7.33 7.17
8/10/2022 11:45:00 AM 25.31 77.558 0.258 7.68 8.15 7.27
8/10/2022 12:00:00 PM 25.29 77.522 0.261 7.69 7.43 7.24
8/10/2022 12:15:00 PM 25.12 77.216 0.252 7.68 7.19 6.99
8/10/2022 12:30:00 PM 25.09 77.162 0.269 7.68 8.59 7.08
8/10/2022 12:45:00 PM 25.03 77.054 0.288 7.66 7.05 7.02
8/10/2022 1:00:00 PM 25.03 77.054 0.282 7.67 7.4 7.06
8/10/2022 1:15:00 PM 25.12 77.216 0.279 7.67 6.46 7.18
8/10/2022 1:30:00 PM 25.25 77.45 0.28 7.68 7 7.27
8/10/2022 1:45:00 PM 25.3 77.54 0.252 7.7 6.29 7.28
8/10/2022 2:00:00 PM 25.28 77.504 0.296 7.7 5.84 7.19
8/10/2022 2:15:00 PM 25.29 77.522 0.289 7.69 11.85 7.17
8/10/2022 2:30:00 PM 25.27 77.486 0.268 7.7 7.8 7.13
8/10/2022 2:45:00 PM 25.36 77.648 0.283 7.71 6.32 7.27
8/10/2022 3:00:00 PM 25.43 77.774 0.264 7.72 5.43 7.32
8/10/2022 3:15:00 PM 25.43 77.774 0.296 7.73 5.18 7.33
8/10/2022 3:30:00 PM 25.42 77.756 0.237 7.74 5.28 7.35
8/10/2022 3:45:00 PM 25.39 77.702 0.236 7.74 5.16 7.32
8/10/2022 4:00:00 PM 25.38 77.684 0.274 7.74 4.65 7.31
8/10/2022 4:15:00 PM 25.39 77.702 0.284 7.75 4.66 7.34
8/10/2022 4:30:00 PM 25.41 77.738 0.294 7.75 4.74 7.36
8/10/2022 4:45:00 PM 25.43 77.774 0.236 7.76 9.57 7.36
8/10/2022 5:00:00 PM 25.4 77.72 0.251 7.76 4.8 7.31
8/10/2022 5:15:00 PM 25.38 77.684 0.285 7.76 4.28 7.29
8/10/2022 5:30:00 PM 25.4 77.72 0.244 7.77 4.31 7.31
8/10/2022 5:45:00 PM 25.4 77.72 0.243 7.77 4.51 7.26
8/10/2022 6:00:00 PM 25.41 77.738 0.299 7.78 4.02 7.3
8/10/2022 6:15:00 PM 25.45 77.81 0.297 7.78 4.1 7.29
8/10/2022 6:30:00 PM 25.48 77.864 0.248 7.79 3.92 7.31
8/10/2022 6:45:00 PM 25.51 77.918 0.291 7.8 4.39 7.33
8/10/2022 7:00:00 PM 25.55 77.99 0.261 7.8 3.75 7.3
8/10/2022 7:15:00 PM 25.57 78.026 0.534 7.8 3.49 7.27
8/10/2022 7:30:00 PM 25.56 78.008 0.267 7.81 3.67 7.28
8/10/2022 7:45:00 PM 25.52 77.936 0.252 7.81 3.42 7.25
8/10/2022 8:00:00 PM 25.48 77.864 0.271 7.81 3.88 7.27
8/10/2022 8:15:00 PM 25.44 77.792 0.28 7.8 4.07 7.26
8/10/2022 8:30:00 PM 25.39 77.702 0.272 7.81 4 7.27
8/10/2022 8:45:00 PM 25.34 77.612 0.322 7.8 3.68 7.25
8/10/2022 9:00:00 PM 25.28 77.504 0.255 7.81 4.41 7.28
8/10/2022 9:15:00 PM 25.23 77.414 0.252 7.8 3.59 7.25
8/10/2022 9:30:00 PM 25.18 77.324 0.298 7.8 3.55 7.26
8/10/2022 9:45:00 PM 25.12 77.216 0.299 7.8 4.23 7.27
8/10/2022 10:00:00 PM 25.08 77.144 0.293 7.79 5.81 7.25
8/10/2022 10:15:00 PM 25.03 77.054 0.284 7.78 3.4 7.25
8/10/2022 10:30:00 PM 24.98 76.964 0.255 7.78 3.32 7.22
8/10/2022 10:45:00 PM 24.93 76.874 0.248 7.78 5.98 7.19
8/10/2022 11:00:00 PM 24.88 76.784 0.248 7.77 3.16 7.17
8/10/2022 11:15:00 PM 24.84 76.712 0.308 7.76 2.98 7.14
8/10/2022 11:30:00 PM 24.8 76.64 0.295 7.76 2.98 7.11
8/10/2022 11:45:00 PM 24.77 76.586 0.305 7.75 3.2 7.1
8/11/2022 12:00:00 AM 24.72 76.496 0.24 7.74 3.29 7.09
8/11/2022 12:15:00 AM 24.68 76.424 0.295 7.74 3.34 7.08
8/11/2022 12:30:00 AM 24.63 76.334 0.256 7.74 3.16 7.05
8/11/2022 12:45:00 AM 24.59 76.262 0.265 7.73 2.94 7.03
8/11/2022 1:00:00 AM 24.54 76.172 0.568 7.73 3.58 7.02
8/11/2022 1:15:00 AM 24.5 76.1 0.241 7.72 3.14 7
8/11/2022 1:30:00 AM 24.47 76.046 0.286 7.72 2.99 7.01
8/11/2022 1:45:00 AM 24.43 75.974 0.28 7.73 3.7 6.98
8/11/2022 2:00:00 AM 24.4 75.92 0.299 7.72 3.94 6.97
8/11/2022 2:15:00 AM 24.36 75.848 0.275 7.72 4.1 6.97
8/11/2022 2:30:00 AM 24.32 75.776 0.258 7.72 4.35 6.96
8/11/2022 2:45:00 AM 24.29 75.722 0.302 7.72 3.23 6.97
8/11/2022 3:00:00 AM 24.25 75.65 0.263 7.72 3.52 7
8/11/2022 3:15:00 AM 24.21 75.578 0.266 7.72 3.64 7.01
8/11/2022 3:30:00 AM 24.18 75.524 0.583 7.72 3.4 7.01
8/11/2022 3:45:00 AM 24.16 75.488 0.3 7.71 3.23 7.02
8/11/2022 4:00:00 AM 24.12 75.416 0.27 7.72 3.33 7.02
8/11/2022 4:15:00 AM 24.1 75.38 0.269 7.72 4.7 7.02
8/11/2022 4:30:00 AM 24.06 75.308 0.322 7.71 4.11 7.03
8/11/2022 4:45:00 AM 24.03 75.254 0.254 7.7 3.21 7.04
8/11/2022 5:00:00 AM 24 75.2 0.322 7.73 3.64 7.04
8/11/2022 5:15:00 AM 23.98 75.164 0.272 7.72 3.41 7.02
8/11/2022 5:30:00 AM 23.95 75.11 0.281 7.72 3.2 7.02
8/11/2022 5:45:00 AM 23.93 75.074 0.259 7.71 3.16 7.03
8/11/2022 6:00:00 AM 23.91 75.038 0.307 7.72 2.98 7.01
8/11/2022 6:15:00 AM 23.88 74.984 0.287 7.72 3.34 7.02
8/11/2022 6:30:00 AM 23.86 74.948 0.305 7.72 3.67 7.02
8/11/2022 6:45:00 AM 23.84 74.912 0.291 7.72 3.14 7.05
8/11/2022 7:00:00 AM 23.81 74.858 0.251 7.73 2.92 7.08
8/11/2022 7:15:00 AM 23.79 74.82201 0.312 7.73 2.83 7.08
8/11/2022 7:30:00 AM 23.78 74.804 0.306 7.73 2.82 7.15
8/11/2022 7:45:00 AM 23.78 74.804 0.277 7.74 3.87 7.17
8/11/2022 8:00:00 AM 23.75 74.75 0.586 7.74 3.07 7.15
8/11/2022 8:15:00 AM 23.75 74.75 0.298 7.73 3.21 7.16
8/11/2022 8:30:00 AM 23.75 74.75 0.31 7.74 3.41 7.19
8/11/2022 8:45:00 AM 23.76 74.768 0.586 7.75 3.05 7.26
8/11/2022 9:00:00 AM 23.79 74.82201 0.294 7.76 2.93 7.34
8/11/2022 9:15:00 AM 23.82 74.876 0.283 7.75 2.99 7.38
8/11/2022 9:30:00 AM 23.89 75.002 0.244 7.76 3.28 7.45
8/11/2022 9:45:00 AM 23.95 75.11 0.295 7.77 3 7.55
8/11/2022 10:00:00 AM 24.01 75.218 0.317 7.77 4.06 7.63
8/11/2022 10:15:00 AM 24.08 75.344 0.588 7.78 3.68 7.75
8/11/2022 10:30:00 AM 24.08 75.344 0.588 7.79 3.2 7.72
8/11/2022 10:45:00 AM 24.11 75.398 0.308 7.79 3.15 7.75
8/11/2022 11:00:00 AM 24.16 75.488 0.249 7.79 3.28 7.8
8/11/2022 11:15:00 AM 24.29 75.722 0.268 7.81 2.89 7.89
8/11/2022 11:30:00 AM 24.41 75.938 0.279 7.81 3.31 7.94
8/11/2022 11:45:00 AM 24.5 76.1 0.553 7.79 2.72 7.96
8/11/2022 12:00:00 PM 24.56 76.208 0.314 7.81 2.79 7.97
8/11/2022 12:15:00 PM 24.62 76.316 0.593 7.82 2.82 7.98
8/11/2022 12:30:00 PM 24.69 76.442 0.321 7.81 2.89 8
8/11/2022 12:45:00 PM 24.74 76.532 0.597 7.82 4.96 7.99
8/11/2022 1:00:00 PM 24.73 76.514 0.594 7.82 3.2 7.97
8/11/2022 1:15:00 PM 24.75 76.55 0.584 7.81 5.23 7.96
8/11/2022 1:30:00 PM 24.79 76.622 0.586 7.81 2.75 7.96
8/11/2022 1:45:00 PM 24.82 76.676 0.281 7.83 2.56 7.95
8/11/2022 2:00:00 PM 24.83 76.694 0.307 7.83 2.66 7.93
8/11/2022 2:15:00 PM 24.84 76.712 0.321 7.83 2.88 7.92
8/11/2022 2:30:00 PM 24.82 76.676 0.593 7.84 2.7 7.9
8/11/2022 2:45:00 PM 24.84 76.712 0.595 7.85 2.71 7.92
8/11/2022 3:00:00 PM 24.87 76.766 0.294 7.85 2.61 7.93
8/11/2022 3:15:00 PM 24.87 76.766 0.305 7.85 2.66 7.95
8/11/2022 3:30:00 PM 24.89 76.802 0.597 7.85 2.41 7.9
8/11/2022 3:45:00 PM 24.93 76.874 0.604 7.86 2.42 7.9
8/11/2022 4:00:00 PM 24.97 76.946 0.607 7.87 2.64 7.91
8/11/2022 4:15:00 PM 25 77 0.3 7.87 2.4 7.87
8/11/2022 4:30:00 PM 25.04 77.07201 0.607 7.88 2.23 7.92
8/11/2022 4:45:00 PM 25.11 77.198 0.28 7.89 2.25 7.92
8/11/2022 5:00:00 PM 25.17 77.306 0.595 7.9 2.24 7.92
8/11/2022 5:15:00 PM 25.21 77.378 0.606 7.89 2.11 7.88
8/11/2022 5:30:00 PM 25.23 77.414 0.61 7.91 2 7.84
8/11/2022 5:45:00 PM 25.24 77.432 0.612 7.91 2.19 7.85
8/11/2022 6:00:00 PM 25.23 77.414 0.615 7.93 2.06 7.86
8/11/2022 6:15:00 PM 25.22 77.396 0.293 7.93 2.22 7.85
8/11/2022 6:30:00 PM 25.2 77.36 0.614 7.93 1.99 7.79
8/11/2022 6:45:00 PM 25.22 77.396 0.61 7.93 2.07 7.8
8/11/2022 7:00:00 PM 25.25 77.45 0.617 7.93 2.26 7.8
8/11/2022 7:15:00 PM 25.26 77.468 0.618 7.93 2.22 7.74
8/11/2022 7:30:00 PM 25.25 77.45 0.619 7.94 2.02 7.77
8/11/2022 7:45:00 PM 25.21 77.378 0.616 7.94 1.99 7.69
8/11/2022 8:00:00 PM 25.17 77.306 0.62 7.93 2.18 7.72
8/11/2022 8:15:00 PM 25.11 77.198 0.618 7.94 2.07 7.74
8/11/2022 8:30:00 PM 25.06 77.108 0.62 7.94 2.03 7.75
8/11/2022 8:45:00 PM 25.03 77.054 0.59 7.92 2.58 7.73
8/11/2022 9:00:00 PM 24.99 76.982 0.617 7.92 2.42 7.73
8/11/2022 9:15:00 PM 24.95 76.91 0.616 7.92 2.53 7.72
8/11/2022 9:30:00 PM 24.91 76.838 0.623 7.92 2.53 7.71
8/11/2022 9:45:00 PM 24.85 76.73 0.622 7.93 2.77 7.7
8/11/2022 10:00:00 PM 24.79 76.622 0.629 7.93 2.17 7.72
8/11/2022 10:15:00 PM 24.74 76.532 0.616 7.91 2.11 7.72
8/11/2022 10:30:00 PM 24.69 76.442 0.618 7.91 2.3 7.68
8/11/2022 10:45:00 PM 24.64 76.352 0.623 7.92 2.51 7.71
8/11/2022 11:00:00 PM 24.6 76.28 0.624 7.91 2.16 7.67
8/11/2022 11:15:00 PM 24.55 76.19 0.623 7.9 2.03 7.65
8/11/2022 11:30:00 PM 24.51 76.118 0.594 7.88 2.71 7.61
8/11/2022 11:45:00 PM 24.46 76.028 0.632 7.89 2.34 7.6
8/12/2022 12:00:00 AM 24.42 75.956 0.612 7.88 2.21 7.65
8/12/2022 12:15:00 AM 24.37 75.866 0.632 7.88 2.04 7.56
8/12/2022 12:30:00 AM 24.32 75.776 0.621 7.86 2.37 7.57
8/12/2022 12:45:00 AM 24.25 75.65 0.624 7.86 2.66 7.54
8/12/2022 1:00:00 AM 24.19 75.542 0.618 7.83 2.6 7.52
8/12/2022 1:15:00 AM 24.14 75.452 0.631 7.82 2.11 7.5
8/12/2022 1:30:00 AM 24.09 75.362 0.631 7.83 2.18 7.31
8/12/2022 1:45:00 AM 24.03 75.254 0.618 7.84 2.37 7.45
8/12/2022 2:00:00 AM 23.98 75.164 0.603 7.82 2.76 7.4
8/12/2022 2:15:00 AM 23.94 75.092 0.621 7.82 2.94 7.35
8/12/2022 2:30:00 AM 23.89 75.002 0.623 7.81 2.75 7.39
8/12/2022 2:45:00 AM 23.85 74.93 0.627 7.81 5.1 7.38
8/12/2022 3:00:00 AM 23.8 74.84 0.625 7.79 2.86 7.39
8/12/2022 3:15:00 AM 23.76 74.768 0.629 7.81 4.35 7.38
8/12/2022 3:30:00 AM 23.72 74.696 0.628 7.8 3.15 7.34
8/12/2022 3:45:00 AM 23.68 74.624 0.631 7.79 4.24 7.36
8/12/2022 4:00:00 AM 23.63 74.534 0.635 7.8 3.07 7.36
8/12/2022 4:15:00 AM 23.6 74.48 0.632 7.8 4.52 7.34
8/12/2022 4:30:00 AM 23.56 74.408 0.629 7.78 4.5 7.31
8/12/2022 4:45:00 AM 23.51 74.318 0.637 7.81 4.86 7.32
8/12/2022 5:00:00 AM 23.47 74.246 0.632 7.79 6.78 7.37
8/12/2022 5:15:00 AM 23.42 74.156 0.614 7.8 4.64 7.34
8/12/2022 5:30:00 AM 23.37 74.066 0.645 7.78 3.49 7.36
8/12/2022 5:45:00 AM 23.33 73.994 0.646 7.8 3.33 7.34
8/12/2022 6:00:00 AM 23.29 73.922 0.633 7.78 3.44 7.27
8/12/2022 6:15:00 AM 23.25 73.85 0.625 7.79 3.54 7.37
8/12/2022 6:30:00 AM 23.21 73.778 0.637 7.79 3.46 7.37
8/12/2022 6:45:00 AM 23.18 73.724 0.633 7.78 3.2 7.15
8/12/2022 7:00:00 AM 23.15 73.67 0.645 7.79 3.26 7.42
8/12/2022 7:15:00 AM 23.12 73.616 0.634 7.79 3.31 7.38
8/12/2022 7:30:00 AM 23.08 73.544 0.645 7.79 3.31 7.32
8/12/2022 7:45:00 AM 23.06 73.508 0.633 7.79 2.96 7.44
8/12/2022 8:00:00 AM 23.03 73.454 0.644 7.8 3.32 7.47
8/12/2022 8:15:00 AM 23.01 73.418 0.648 7.81 3.19 7.46
8/12/2022 8:30:00 AM 23 73.4 0.649 7.81 3.57 7.51
8/12/2022 8:45:00 AM 23 73.4 0.65 7.82 3.17 7.57
8/12/2022 9:00:00 AM 23.02 73.436 0.636 7.82 3.3 7.68
8/12/2022 9:15:00 AM 23.06 73.508 0.633 7.81 3.08 7.75
8/12/2022 9:30:00 AM 23.12 73.616 0.62 7.83 3.37 7.83
8/12/2022 9:45:00 AM 23.18 73.724 0.645 7.84 2.69 7.9
8/12/2022 10:00:00 AM 23.24 73.832 0.653 7.84 3.2 7.95
8/12/2022 10:15:00 AM 23.31 73.958 0.634 7.85 3.08 8.01
8/12/2022 10:30:00 AM 23.37 74.066 0.641 7.86 2.99 8.11
8/12/2022 10:45:00 AM 23.41 74.138 0.645 7.86 2.87 8.12
8/12/2022 11:00:00 AM 23.49 74.282 0.65 7.87 4.45 8.13
8/12/2022 11:15:00 AM 23.59 74.462 0.648 7.87 3.07 8.26
8/12/2022 11:30:00 AM 23.66 74.588 0.655 7.87 2.85 8.34
8/12/2022 11:45:00 AM 23.7 74.66 0.647 7.89 2.79 8.34
8/12/2022 12:00:00 PM 23.72 74.696 0.656 7.87 2.47 8.26
8/12/2022 12:15:00 PM 23.72 74.696 0.625 7.86 2.77 8.21
8/12/2022 12:30:00 PM 23.76 74.768 0.649 7.86 4.13 8.21
8/12/2022 12:45:00 PM 23.69 74.642 0.655 7.86 10.14 8.11
8/12/2022 1:00:00 PM 23.8 74.84 0.657 7.87 3.25 8.17
8/12/2022 1:15:00 PM 23.8 74.84 0.654 7.87 3.32 8.2
8/12/2022 1:30:00 PM 23.87 74.966 0.651 7.86 2.68 8.28
8/12/2022 1:45:00 PM 23.92 75.056 0.656 7.88 2.73 8.29
8/12/2022 2:00:00 PM 23.92 75.056 0.657 7.87 2.6 8.25
8/12/2022 2:15:00 PM 23.83 74.894 0.659 7.89 2.31 8.12
8/12/2022 2:30:00 PM 23.83 74.894 0.66 7.89 2.47 8.1
8/12/2022 2:45:00 PM 23.86 74.948 0.66 7.89 3.52 8.08
8/12/2022 3:00:00 PM 23.9 75.02 0.661 7.89 2.96 8.13
8/12/2022 3:15:00 PM 23.92 75.056 0.636 7.88 2.36 8.17
8/12/2022 3:30:00 PM 23.9 75.02 0.655 7.88 2.17 8.08
8/12/2022 3:45:00 PM 23.93 75.074 0.658 7.9 2.22 8.13
8/12/2022 4:00:00 PM 23.96 75.128 0.661 7.92 2.03 8.12
8/12/2022 4:15:00 PM 23.96 75.128 0.658 7.9 1.88 8.1
8/12/2022 4:30:00 PM 23.95 75.11 0.672 7.92 1.76 8.08
8/12/2022 4:45:00 PM 23.96 75.128 0.663 7.91 1.84 8.03
8/12/2022 5:00:00 PM 23.97 75.146 0.659 7.92 1.99 8.07
8/12/2022 5:15:00 PM 23.98 75.164 0.665 7.93 1.85 7.98
8/12/2022 5:30:00 PM 23.96 75.128 0.65 7.93 1.8 8.01
8/12/2022 5:45:00 PM 23.97 75.146 0.641 7.94 2.05 7.97
8/12/2022 6:00:00 PM 23.97 75.146 0.625 7.94 1.93 7.97
8/12/2022 6:15:00 PM 23.96 75.128 0.667 7.95 1.97 7.95
8/12/2022 6:30:00 PM 23.94 75.092 0.646 7.96 1.82 7.97
8/12/2022 6:45:00 PM 23.92 75.056 0.668 7.94 1.79 7.93
8/12/2022 7:00:00 PM 23.92 75.056 0.668 7.95 1.82 7.91
8/12/2022 7:15:00 PM 23.91 75.038 0.668 7.95 1.7 7.92
8/12/2022 7:30:00 PM 23.9 75.02 0.671 7.96 1.94 7.94
8/12/2022 7:45:00 PM 23.89 75.002 0.67 7.97 1.87 7.94
8/12/2022 8:00:00 PM 23.87 74.966 0.677 7.95 2.04 7.89
8/12/2022 8:15:00 PM 23.85 74.93 0.671 7.96 1.85 7.98
8/12/2022 8:30:00 PM 23.81 74.858 0.67 7.96 1.86 7.89
8/12/2022 8:45:00 PM 23.77 74.786 0.64 7.96 2.09 7.88
8/12/2022 9:00:00 PM 23.73 74.714 0.665 7.97 2.47 7.95
8/12/2022 9:15:00 PM 23.67 74.606 0.668 7.96 1.8 7.93
8/12/2022 9:30:00 PM 23.61 74.498 0.664 7.95 2.44 7.94
8/12/2022 9:45:00 PM 23.55 74.39 0.677 7.95 51.61 7.93
8/12/2022 10:00:00 PM 23.5 74.3 0.667 7.96 2.36 7.59
8/12/2022 10:15:00 PM 23.44 74.192 0.668 7.94 1.85 7.92
8/12/2022 10:30:00 PM 23.38 74.084 0.676 7.92 2.6 7.93
8/12/2022 10:45:00 PM 23.33 73.994 0.663 7.91 2.08 7.91
8/12/2022 11:00:00 PM 23.28 73.904 0.664 7.89 2.16 7.9
8/12/2022 11:15:00 PM 23.24 73.832 0.659 7.93 2.11 7.89
8/12/2022 11:30:00 PM 23.19 73.742 0.664 7.92 2.1 7.86
8/12/2022 11:45:00 PM 23.15 73.67 0.667 7.92 2.32 7.85
8/13/2022 12:00:00 AM 23.1 73.58 0.669 7.92 2.51 7.82
8/13/2022 12:15:00 AM 23.06 73.508 0.676 7.91 2.05 7.75
8/13/2022 12:30:00 AM 23.02 73.436 0.667 7.89 2.73 7.74
8/13/2022 12:45:00 AM 22.97 73.346 0.668 7.89 2.42 7.74
8/13/2022 1:00:00 AM 22.92 73.256 0.667 7.88 2.66 7.71
8/13/2022 1:15:00 AM 22.87 73.166 0.647 7.89 4.12 7.71
8/13/2022 1:30:00 AM 22.83 73.094 0.668 7.88 2.94 7.68
8/13/2022 1:45:00 AM 22.78 73.004 0.67 7.88 2.97 7.77
8/13/2022 2:00:00 AM 22.72 72.896 0.671 7.88 3.84 7.76
8/13/2022 2:15:00 AM 22.66 72.788 0.676 7.88 3.3 7.7
8/13/2022 2:30:00 AM 22.6 72.68 0.663 7.86 3.55 7.7
8/13/2022 2:45:00 AM 22.52 72.536 0.663 7.83 3.79 7.69
8/13/2022 3:00:00 AM 22.46 72.42799 0.664 7.86 3.64 7.71
8/13/2022 3:15:00 AM 22.38 72.284 0.661 7.86 3.77 7.72
8/13/2022 3:30:00 AM 22.31 72.158 0.656 7.85 4.33 7.68
8/13/2022 3:45:00 AM 22.24 72.032 0.662 7.85 3.2 7.7
8/13/2022 4:00:00 AM 22.17 71.906 0.663 7.86 4.98 7.52
8/13/2022 4:15:00 AM 22.11 71.798 0.664 7.85 3.54 7.63
8/13/2022 4:30:00 AM 22.03 71.654 0.664 7.84 4 7.68
8/13/2022 4:45:00 AM 21.97 71.546 0.665 7.84 3.44 7.66
8/13/2022 5:00:00 AM 21.9 71.42 0.635 7.82 5.64 7.66
8/13/2022 5:15:00 AM 21.83 71.294 0.629 7.81 3.82 7.65
8/13/2022 5:30:00 AM 21.76 71.168 0.657 7.8 4 7.63
8/13/2022 5:45:00 AM 21.69 71.042 0.658 7.82 3.84 7.63
8/13/2022 6:00:00 AM 21.64 70.952 0.659 7.79 3.51 7.64
8/13/2022 6:15:00 AM 21.57 70.826 0.665 7.8 3.69 7.6
8/13/2022 6:30:00 AM 21.51 70.718 0.671 7.83 3.92 7.49
8/13/2022 6:45:00 AM 21.45 70.61 0.564 7.75 3.32 7.6
8/13/2022 7:00:00 AM 21.4 70.52 0.66 7.79 3.61 7.62
8/13/2022 7:15:00 AM 21.35 70.43 0.661 7.8 3.49 7.63
8/13/2022 7:30:00 AM 21.31 70.358 0.661 7.81 3.93 7.66
8/13/2022 7:45:00 AM 21.28 70.304 0.67 7.8 3.58 7.64
8/13/2022 8:00:00 AM 21.25 70.25 0.6 7.79 4.5 7.65
8/13/2022 8:15:00 AM 21.24 70.232 0.661 7.81 3.67 7.63
8/13/2022 8:30:00 AM 21.23 70.214 0.664 7.82 3.82 7.7
8/13/2022 8:45:00 AM 21.25 70.25 0.669 7.82 3.75 7.78
8/13/2022 9:00:00 AM 21.28 70.304 0.65 7.82 3.21 7.88
8/13/2022 9:15:00 AM 21.31 70.358 0.65 7.83 3.3 7.96
8/13/2022 9:30:00 AM 21.36 70.448 0.652 7.85 3.18 7.9
8/13/2022 9:45:00 AM 21.4 70.52 0.625 7.84 3.01 8.15
8/13/2022 10:00:00 AM 21.44 70.592 0.659 7.85 3.01 8.2
8/13/2022 10:15:00 AM 21.48 70.664 0.661 7.85 2.93 8.25
8/13/2022 10:30:00 AM 21.55 70.79 0.657 7.85 2.94 8.37
8/13/2022 10:45:00 AM 21.62 70.916 0.667 7.87 2.82 8.45
8/13/2022 11:00:00 AM 21.69 71.042 0.656 7.86 2.58 8.55
8/13/2022 11:15:00 AM 21.76 71.168 0.636 7.87 2.66 8.6
8/13/2022 11:30:00 AM 21.78 71.204 0.661 7.87 2.56 8.58
8/13/2022 11:45:00 AM 21.83 71.294 0.601 7.86 2.81 8.64
8/13/2022 12:00:00 PM 21.9 71.42 0.6 7.89 2.42 8.67
8/13/2022 12:15:00 PM 21.91 71.438 0.649 7.85 2.52 8.63
8/13/2022 12:30:00 PM 21.95 71.51 0.627 7.88 2.25 8.63
8/13/2022 12:45:00 PM 21.97 71.546 0.665 7.89 2.38 8.64
8/13/2022 1:00:00 PM 22.01 71.618 0.657 7.88 2.78 8.62
8/13/2022 1:15:00 PM 21.99 71.582 0.641 7.87 2.95 8.6
8/13/2022 1:30:00 PM 21.98 71.564 0.65 7.87 2.68 8.56
8/13/2022 1:45:00 PM 21.98 71.564 0.664 7.87 2.55 8.49
8/13/2022 2:00:00 PM 22 71.6 0.613 7.85 3.53 8.51
8/13/2022 2:15:00 PM 22.02 71.636 0.645 7.87 2.57 8.53
8/13/2022 2:30:00 PM 22.03 71.654 0.299 7.88 2.61 8.48
8/13/2022 2:45:00 PM 22.05 71.69 0.653 7.88 11.46 8.42
8/13/2022 3:00:00 PM 22.1 71.78 0.644 7.88 3.64 8.48
8/13/2022 3:15:00 PM 22.12 71.816 0.664 7.9 2.49 8.35
8/13/2022 3:30:00 PM 22.13 71.834 0.651 7.88 2.78 8.29
8/13/2022 3:45:00 PM 22.16 71.888 0.65 7.88 2.55 8.3
8/13/2022 4:00:00 PM 22.21 71.978 0.656 7.91 2.38 8.11
8/13/2022 4:15:00 PM 22.26 72.068 0.646 7.91 2.25 8.32
8/13/2022 4:30:00 PM 22.31 72.158 0.659 7.91 1.89 8.27
8/13/2022 4:45:00 PM 22.37 72.266 0.654 7.91 2.04 8.16
8/13/2022 5:00:00 PM 22.41 72.338 0.654 7.92 2.73 8.09
8/13/2022 5:15:00 PM 22.43 72.374 0.653 7.93 1.99 8.19
8/13/2022 5:30:00 PM 22.44 72.392 0.653 7.92 2.03 8.24
8/13/2022 5:45:00 PM 22.44 72.392 0.648 7.93 2.91 8.18
8/13/2022 6:00:00 PM 22.44 72.392 0.624 7.94 2.21 8.13
8/13/2022 6:15:00 PM 22.42 72.356 0.652 7.95 2.76 7.96
8/13/2022 6:30:00 PM 22.41 72.338 0.655 7.95 3.14 8.33
8/13/2022 6:45:00 PM 22.41 72.338 0.656 7.95 3.09 8.37
8/13/2022 7:00:00 PM 22.42 72.356 0.653 7.97 8.52 8.36
8/13/2022 7:15:00 PM 22.42 72.356 0.657 7.97 2.66 8.38
8/13/2022 7:30:00 PM 22.42 72.356 0.664 7.98 2.67 8.35
8/13/2022 7:45:00 PM 22.41 72.338 0.607 7.96 2.13 8.34
8/13/2022 8:00:00 PM 22.38 72.284 0.654 7.97 1.94 8.36
8/13/2022 8:15:00 PM 22.35 72.23 0.655 7.99 1.91 8.37
8/13/2022 8:30:00 PM 22.3 72.14 0.653 7.99 2.14 8.33
8/13/2022 8:45:00 PM 22.26 72.068 0.582 7.99 2.2 8.37
8/13/2022 9:00:00 PM 22.21 71.978 0.645 7.99 2.42 8.39
8/13/2022 9:15:00 PM 22.16 71.888 0.657 7.99 2.16 8.38
8/13/2022 9:30:00 PM 22.12 71.816 0.651 7.99 2.25 8.43
8/13/2022 9:45:00 PM 22.07 71.726 0.666 8 2.32 8.41
8/13/2022 10:00:00 PM 22.02 71.636 0.65 7.95 1.94 8.43
8/13/2022 10:15:00 PM 21.97 71.546 0.645 7.98 2.21 8.42
8/13/2022 10:30:00 PM 21.92 71.456 0.647 7.98 2.04 8.31
8/13/2022 10:45:00 PM 21.88 71.384 0.667 7.94 2.28 8.35
8/13/2022 11:00:00 PM 21.83 71.294 0.655 7.97 2.38 8.33
8/13/2022 11:15:00 PM 21.8 71.24 0.653 7.96 2.07 8.34
8/13/2022 11:30:00 PM 21.77 71.186 0.668 7.97 1.99 8.3
8/13/2022 11:45:00 PM 21.72 71.096 0.644 7.95 2.18 8.31
8/14/2022 12:00:00 AM 21.68 71.024 0.641 7.94 2.23 8.31
8/14/2022 12:15:00 AM 21.64 70.952 0.604 7.95 1.91 8.3
8/14/2022 12:30:00 AM 21.6 70.88 0.598 7.94 2.55 8.28
8/14/2022 12:45:00 AM 21.56 70.808 0.592 7.93 2.2 8.26
8/14/2022 1:00:00 AM 21.52 70.736 0.651 7.92 2.33 8.23
8/14/2022 1:15:00 AM 21.48 70.664 0.653 7.88 2.3 8.18
8/14/2022 1:30:00 AM 21.44 70.592 0.656 7.9 2.7 8.13
8/14/2022 1:45:00 AM 21.41 70.538 0.649 7.89 2.86 8.1
8/14/2022 2:00:00 AM 21.37 70.466 0.64 7.87 4.88 8.05
8/14/2022 2:15:00 AM 21.33 70.394 0.589 7.86 2.86 8
8/14/2022 2:30:00 AM 21.29 70.32201 0.653 7.85 5.31 8.02
8/14/2022 2:45:00 AM 21.24 70.232 0.661 7.87 2.72 8.02
8/14/2022 3:00:00 AM 21.2 70.16 0.656 7.83 3.12 8.03
8/14/2022 3:15:00 AM 21.16 70.088 0.663 7.86 3.12 8
8/14/2022 3:30:00 AM 21.11 69.998 0.652 7.87 3.27 8.02
8/14/2022 3:45:00 AM 21.06 69.908 0.66 7.85 3.39 8.01
8/14/2022 4:00:00 AM 21.01 69.818 0.663 7.86 3.82 7.97
8/14/2022 4:15:00 AM 20.96 69.728 0.661 7.86 3.42 8.01
8/14/2022 4:30:00 AM 20.9 69.62 0.309 7.85 4.22 8.01
8/14/2022 4:45:00 AM 20.86 69.548 0.658 7.84 3.35 7.99
8/14/2022 5:00:00 AM 20.81 69.458 0.658 7.85 4.42 7.98
8/14/2022 5:15:00 AM 20.76 69.368 0.662 7.84 3.36 7.98
8/14/2022 5:30:00 AM 20.72 69.296 0.659 7.82 3.76 7.95
8/14/2022 5:45:00 AM 20.67 69.206 0.627 7.83 3.2 7.93
8/14/2022 6:00:00 AM 20.61 69.098 0.659 7.83 3.18 7.91
8/14/2022 6:15:00 AM 20.56 69.008 0.654 7.81 3.51 7.93
8/14/2022 6:30:00 AM 20.5 68.9 0.651 7.82 3.74 7.93
8/14/2022 6:45:00 AM 20.45 68.81 0.645 7.82 3.09 7.91
8/14/2022 7:00:00 AM 20.39 68.702 0.657 7.81 3.2 7.9
8/14/2022 7:15:00 AM 20.35 68.63 0.668 7.82 3.26 7.95
8/14/2022 7:30:00 AM 20.31 68.558 0.265 7.82 3.55 7.94
8/14/2022 7:45:00 AM 20.28 68.504 0.649 7.81 3.48 7.95
8/14/2022 8:00:00 AM 20.26 68.468 0.629 7.82 3.43 7.96
8/14/2022 8:15:00 AM 20.24 68.432 0.664 7.81 3.71 8
8/14/2022 8:30:00 AM 20.25 68.45 0.656 7.83 2.64 8.06
8/14/2022 8:45:00 AM 20.27 68.486 0.669 7.83 2.78 8.12
8/14/2022 9:00:00 AM 20.3 68.54 0.623 7.82 3.41 8.2
8/14/2022 9:15:00 AM 20.35 68.63 0.668 7.83 2.93 8.3
8/14/2022 9:30:00 AM 20.42 68.756 0.661 7.78 3.22 8.39
8/14/2022 9:45:00 AM 20.47 68.846 0.648 7.85 3.37 8.49
8/14/2022 10:00:00 AM 20.53 68.954 0.671 7.86 4.66 8.54
8/14/2022 10:15:00 AM 20.61 69.098 0.65 7.86 3.33 8.65
8/14/2022 10:30:00 AM 20.68 69.224 0.646 7.86 3.17 8.72
8/14/2022 10:45:00 AM 20.74 69.332 0.656 7.86 3.22 8.75
8/14/2022 11:00:00 AM 20.81 69.458 0.669 7.88 3.38 8.86
8/14/2022 11:15:00 AM 20.88 69.584 0.677 7.89 3.16 8.89
8/14/2022 11:30:00 AM 20.93 69.674 0.651 7.88 3.04 8.9
8/14/2022 11:45:00 AM 21.01 69.818 0.67 7.89 3.61 8.95
8/14/2022 12:00:00 PM 21.07 69.926 0.613 7.89 3.04 8.97
8/14/2022 12:15:00 PM 21.09 69.962 0.67 7.89 2.72 8.94
8/14/2022 12:30:00 PM 21.15 70.07 0.646 7.9 2.55 8.95
8/14/2022 12:45:00 PM 21.22 70.196 0.671 7.9 2.42 8.94
8/14/2022 1:00:00 PM 21.25 70.25 0.658 7.9 3.02 8.9
8/14/2022 1:15:00 PM 21.29 70.32201 0.676 7.8 2.96 8.84
8/14/2022 1:30:00 PM 21.28 70.304 0.621 7.9 2.98 8.85
8/14/2022 1:45:00 PM 21.33 70.394 0.67 7.9 3.06 8.85
8/14/2022 2:00:00 PM 21.27 70.286 0.658 7.88 3.01 8.73
8/14/2022 2:15:00 PM 21.4 70.52 0.669 7.91 2.59 8.78
8/14/2022 2:30:00 PM 21.49 70.682 0.665 7.91 2.6 8.78
8/14/2022 2:45:00 PM 21.51 70.718 0.643 7.91 1.93 8.75
8/14/2022 3:00:00 PM 21.55 70.79 0.659 7.91 2.61 8.7
8/14/2022 3:15:00 PM 21.61 70.898 0.671 7.9 2.63 8.7
8/14/2022 3:30:00 PM 21.66 70.988 0.661 7.89 2.75 8.69
8/14/2022 3:45:00 PM 21.68 71.024 0.67 7.91 2.53 8.66
8/14/2022 4:00:00 PM 21.66 70.988 0.663 7.9 1.83 8.63
8/14/2022 4:15:00 PM 21.66 70.988 0.671 7.92 2.5 8.59
8/14/2022 4:30:00 PM 21.69 71.042 0.64 7.94 1.79 8.61
8/14/2022 4:45:00 PM 21.66 70.988 0.648 7.94 2.74 8.6
8/14/2022 5:00:00 PM 21.67 71.006 0.653 7.95 3.13 8.66
8/14/2022 5:15:00 PM 21.67 71.006 0.659 7.96 2.43 8.72
8/14/2022 5:30:00 PM 21.66 70.988 0.66 7.97 2.44 8.76
8/14/2022 5:45:00 PM 21.63 70.934 0.66 7.96 4.39 8.78
8/14/2022 6:00:00 PM 21.61 70.898 0.655 7.97 2.24 8.8
8/14/2022 6:15:00 PM 21.61 70.898 0.644 7.96 2.03 8.81
8/14/2022 6:30:00 PM 21.6 70.88 0.648 7.97 2.04 8.76
8/14/2022 6:45:00 PM 21.58 70.844 0.647 7.98 2.37 8.68
8/14/2022 7:00:00 PM 21.57 70.826 0.603 7.99 3 8.64
8/14/2022 7:15:00 PM 21.56 70.808 0.652 7.98 2.34 8.64
8/14/2022 7:30:00 PM 21.56 70.808 0.66 7.98 2.26 8.65
8/14/2022 7:45:00 PM 21.54 70.772 0.661 8 1.64 8.62
8/14/2022 8:00:00 PM 21.53 70.754 0.649 7.98 1.73 8.6
8/14/2022 8:15:00 PM 21.51 70.718 0.652 7.98 2 8.63
8/14/2022 8:30:00 PM 21.5 70.7 0.654 7.99 1.79 8.6
8/14/2022 8:45:00 PM 21.49 70.682 0.649 7.99 2.11 8.64
8/14/2022 9:00:00 PM 21.48 70.664 0.566 8 2.03 8.65
8/14/2022 9:15:00 PM 21.47 70.646 0.669 7.99 2.02 8.65
8/14/2022 9:30:00 PM 21.45 70.61 0.659 8.01 1.85 8.65
8/14/2022 9:45:00 PM 21.42 70.556 0.653 8 2.03 8.66
8/14/2022 10:00:00 PM 21.4 70.52 0.65 8 1.92 8.66
8/14/2022 10:15:00 PM 21.38 70.484 0.591 8 2.41 8.64
8/14/2022 10:30:00 PM 21.36 70.448 0.654 7.98 2.01 8.63
8/14/2022 10:45:00 PM 21.34 70.412 0.655 7.96 1.93 8.62
8/14/2022 11:00:00 PM 21.31 70.358 0.655 7.97 1.95 8.65
8/14/2022 11:15:00 PM 21.28 70.304 0.654 7.99 2.05 8.6
8/14/2022 11:30:00 PM 21.26 70.268 0.651 7.96 2.11 8.6
8/14/2022 11:45:00 PM 21.23 70.214 0.625 7.97 3.46 8.6
8/15/2022 12:00:00 AM 21.2 70.16 0.659 7.97 2.2 8.58
8/15/2022 12:15:00 AM 21.18 70.124 0.629 7.99 1.97 8.57
8/15/2022 12:30:00 AM 21.15 70.07 0.642 7.98 2.13 8.57
8/15/2022 12:45:00 AM 21.13 70.034 0.67 7.98 3.17 8.54
8/15/2022 1:00:00 AM 21.1 69.98 0.651 7.96 6.36 8.54
8/15/2022 1:15:00 AM 21.07 69.926 0.671 7.95 4.03 8.52
8/15/2022 1:30:00 AM 21.05 69.89 0.661 7.96 3.39 8.51
8/15/2022 1:45:00 AM 21.02 69.836 0.656 7.9 2.32 8.47
8/15/2022 2:00:00 AM 21 69.8 0.65 7.94 2.74 8.45
8/15/2022 2:15:00 AM 20.97 69.746 0.653 7.94 5.23 8.45
8/15/2022 2:30:00 AM 20.94 69.692 0.672 7.94 2.5 8.39
8/15/2022 2:45:00 AM 20.91 69.638 0.656 7.93 2.91 8.37
8/15/2022 3:00:00 AM 20.88 69.584 0.658 7.91 2.35 8.34
8/15/2022 3:15:00 AM 20.85 69.53 0.651 7.9 2.51 8.32
8/15/2022 3:30:00 AM 20.82 69.476 0.326 7.86 2 8.3
8/15/2022 3:45:00 AM 20.79 69.422 0.657 7.88 2.4 8.27
8/15/2022 4:00:00 AM 20.76 69.368 0.65 7.89 2.39 8.24
8/15/2022 4:15:00 AM 20.74 69.332 0.32 7.87 2.66 8.21
8/15/2022 4:30:00 AM 20.71 69.278 0.319 7.87 2.43 8.17
8/15/2022 4:45:00 AM 20.69 69.242 0.655 7.86 2.65 8.12
8/15/2022 5:00:00 AM 20.67 69.206 0.651 7.86 3.68 8.1
8/15/2022 5:15:00 AM 20.65 69.17 0.642 7.85 2.53 8.08
8/15/2022 5:30:00 AM 20.63 69.134 0.647 7.86 3.35 8.06
8/15/2022 5:45:00 AM 20.61 69.098 0.662 7.85 2.61 8.06
8/15/2022 6:00:00 AM 20.59 69.062 0.656 7.85 3.32 8.04
8/15/2022 6:15:00 AM 20.57 69.026 0.677 7.85 4.19 8.04
8/15/2022 6:30:00 AM 20.55 68.99 0.636 7.85 2.59 8.05
8/15/2022 6:45:00 AM 20.54 68.972 0.649 7.84 4.11 8.03
8/15/2022 7:00:00 AM 20.52 68.936 0.669 7.85 2.92 8.04
8/15/2022 7:15:00 AM 20.51 68.918 0.661 7.84 2.71 8.05
8/15/2022 7:30:00 AM 20.5 68.9 0.65 7.78 2.84 8.02
8/15/2022 7:45:00 AM 20.49 68.882 0.565 7.86 2.61 8.09
8/15/2022 8:00:00 AM 20.48 68.864 0.656 7.86 2.39 8.1
8/15/2022 8:15:00 AM 20.47 68.846 0.637 7.86 2.61 8.14
8/15/2022 8:30:00 AM 20.47 68.846 0.669 7.86 2.39 8.19
8/15/2022 8:45:00 AM 20.47 68.846 0.668 7.87 2.37 8.26
8/15/2022 9:00:00 AM 20.48 68.864 0.594 7.86 2.19 8.22
8/15/2022 9:15:00 AM 20.49 68.882 0.681 7.87 3.31 8.28
8/15/2022 9:30:00 AM 20.48 68.864 0.66 7.87 2.82 8.36
8/15/2022 9:45:00 AM 20.49 68.882 0.664 7.87 3.14 8.43
8/15/2022 10:00:00 AM 20.53 68.954 0.633 7.9 2.92 8.6
8/15/2022 10:15:00 AM 20.58 69.044 0.666 7.86 4.77 8.75
8/15/2022 10:30:00 AM 20.76 69.368 0.669 7.9 2.67 8.99
8/15/2022 10:45:00 AM 20.81 69.458 0.661 7.91 2.82 9.05
8/15/2022 11:00:00 AM 20.83 69.494 0.669 7.92 2.5 9.09
8/15/2022 11:15:00 AM 20.85 69.53 0.664 7.89 3.1 9.11
8/15/2022 11:30:00 AM 20.8 69.44 0.667 7.92 2.47 8.99
8/15/2022 11:45:00 AM 20.8 69.44 0.67 7.92 2.77 8.99
8/15/2022 12:00:00 PM 20.79 69.422 0.665 7.91 3.01 8.99
8/15/2022 12:15:00 PM 20.77 69.386 0.668 7.89 2.58 8.89
8/15/2022 12:30:00 PM 20.76 69.368 0.672 7.88 3 8.86
8/15/2022 12:45:00 PM 20.83 69.494 0.676 7.92 37.22 9.02
8/15/2022 1:00:00 PM 20.83 69.494 0.679 7.92 3.19 8.93
8/15/2022 1:15:00 PM 20.84 69.512 0.672 7.92 2.19 8.94
8/15/2022 1:30:00 PM 20.9 69.62 0.68 7.93 2.27 9.07
8/15/2022 1:45:00 PM 20.93 69.674 0.677 7.94 1.99 9.08
8/15/2022 2:00:00 PM 21.03 69.854 0.675 7.94 2.1 9.15
8/15/2022 2:15:00 PM 21.06 69.908 0.673 7.94 2.22 9.15
8/15/2022 2:30:00 PM 21.1 69.98 0.667 7.94 2.46 9.15
8/15/2022 2:45:00 PM 21.18 70.124 0.667 7.95 6.59 9.21
8/15/2022 3:00:00 PM 21.2 70.16 0.673 7.95 4.95 9.16
8/15/2022 3:15:00 PM 21.25 70.25 0.644 7.96 2.09 9.14
8/15/2022 3:30:00 PM 21.29 70.32201 0.69 7.96 1.98 9.09
8/15/2022 3:45:00 PM 21.26 70.268 0.674 7.95 2.23 8.99
8/15/2022 4:00:00 PM 21.33 70.394 0.671 7.96 2.61 9.05
8/15/2022 4:15:00 PM 21.34 70.412 0.651 7.96 2.08 9.02
8/15/2022 4:30:00 PM 21.33 70.394 0.679 7.97 2.26 8.88
8/15/2022 4:45:00 PM 21.32 70.376 0.675 7.96 2.11 8.74
8/15/2022 5:00:00 PM 21.32 70.376 0.655 7.97 5.17 8.82
8/15/2022 5:15:00 PM 21.34 70.412 0.685 7.97 3.59 8.84
8/15/2022 5:30:00 PM 21.36 70.448 0.678 7.98 4.1 8.87
8/15/2022 5:45:00 PM 21.39 70.502 0.676 7.99 3.62 8.94
8/15/2022 6:00:00 PM 21.41 70.538 0.675 7.99 3.26 8.89
8/15/2022 6:15:00 PM 21.42 70.556 0.665 7.98 2.74 8.83
8/15/2022 6:30:00 PM 21.41 70.538 0.68 7.96 3.48 8.73
8/15/2022 6:45:00 PM 21.41 70.538 0.691 7.98 1.64 8.67
8/15/2022 7:00:00 PM 21.41 70.538 0.691 7.98 1.74 8.66
8/15/2022 7:15:00 PM 21.42 70.556 0.691 7.98 1.73 8.65
8/15/2022 7:30:00 PM 21.42 70.556 0.673 7.98 1.85 8.66
8/15/2022 7:45:00 PM 21.41 70.538 0.674 7.97 1.67 8.62
8/15/2022 8:00:00 PM 21.42 70.556 0.621 7.98 1.64 8.64
8/15/2022 8:15:00 PM 21.42 70.556 0.69 7.99 1.46 8.61
8/15/2022 8:30:00 PM 21.42 70.556 0.672 8 1.85 8.61
8/15/2022 8:45:00 PM 21.4 70.52 0.671 7.99 3.23 8.61
8/15/2022 9:00:00 PM 21.39 70.502 0.679 7.99 2.14 8.62
8/15/2022 9:15:00 PM 21.37 70.466 0.675 7.98 3.86 8.6
8/15/2022 9:30:00 PM 21.36 70.448 0.674 8 2.09 8.59
8/15/2022 9:45:00 PM 21.33 70.394 0.67 7.99 2.17 8.59
8/15/2022 10:00:00 PM 21.31 70.358 0.641 7.99 1.76 8.56
8/15/2022 10:15:00 PM 21.29 70.32201 0.679 7.99 1.87 8.57
8/15/2022 10:30:00 PM 21.27 70.286 0.678 7.98 1.86 8.56
8/15/2022 10:45:00 PM 21.25 70.25 0.687 7.98 2.3 8.5
8/15/2022 11:00:00 PM 21.23 70.214 0.687 7.97 2.57 8.5
8/15/2022 11:15:00 PM 21.21 70.17799 0.61 7.95 1.82 8.5
8/15/2022 11:30:00 PM 21.18 70.124 0.674 7.96 2.03 8.46
8/15/2022 11:45:00 PM 21.15 70.07 0.675 7.96 2.83 8.47
8/16/2022 12:00:00 AM 21.12 70.016 0.68 7.96 1.77 8.44
8/16/2022 12:15:00 AM 21.09 69.962 0.668 7.95 1.9 8.44
8/16/2022 12:30:00 AM 21.06 69.908 0.678 7.95 1.76 8.38
8/16/2022 12:45:00 AM 21.03 69.854 0.688 7.94 2.2 8.37
8/16/2022 1:00:00 AM 21 69.8 0.674 7.93 1.86 8.4
8/16/2022 1:15:00 AM 20.96 69.728 0.673 7.93 1.95 8.38
8/16/2022 1:30:00 AM 20.93 69.674 0.662 7.93 1.86 8.37
8/16/2022 1:45:00 AM 20.9 69.62 0.66 7.9 1.82 8.31
8/16/2022 2:00:00 AM 20.87 69.566 0.675 7.92 1.69 8.33
8/16/2022 2:15:00 AM 20.83 69.494 0.665 7.91 1.84 8.3
8/16/2022 2:30:00 AM 20.8 69.44 0.671 7.9 2.04 8.28
8/16/2022 2:45:00 AM 20.76 69.368 0.689 7.9 2.27 8.26
8/16/2022 3:00:00 AM 20.73 69.314 0.689 7.89 1.94 8.24
8/16/2022 3:15:00 AM 20.7 69.26 0.613 7.87 2.17 8.22
8/16/2022 3:30:00 AM 20.68 69.224 0.662 7.87 2.26 8.18
8/16/2022 3:45:00 AM 20.66 69.188 0.664 7.87 2.59 8.19
8/16/2022 4:00:00 AM 20.64 69.152 0.672 7.87 2.27 8.17
8/16/2022 4:15:00 AM 20.63 69.134 0.669 7.87 2.63 8.14
8/16/2022 4:30:00 AM 20.61 69.098 0.666 7.86 2.5 8.14
8/16/2022 4:45:00 AM 20.59 69.062 0.674 7.86 2.36 8.11
8/16/2022 5:00:00 AM 20.56 69.008 0.621 7.85 2.91 8.1
8/16/2022 5:15:00 AM 20.54 68.972 0.667 7.85 2.86 8.1
8/16/2022 5:30:00 AM 20.51 68.918 0.673 7.84 3 8.09
8/16/2022 5:45:00 AM 20.49 68.882 0.674 7.83 2.65 8.05
8/16/2022 6:00:00 AM 20.46 68.828 0.679 7.85 2.84 8.07
8/16/2022 6:15:00 AM 20.43 68.774 0.675 7.85 2.65 8.05
8/16/2022 6:30:00 AM 20.41 68.738 0.665 7.84 3.06 8
8/16/2022 6:45:00 AM 20.38 68.684 0.659 7.85 2.89 8.07
8/16/2022 7:00:00 AM 20.36 68.648 0.675 7.84 2.8 8.08
8/16/2022 7:15:00 AM 20.34 68.612 0.67 7.83 2.49 8.12
8/16/2022 7:30:00 AM 20.32 68.576 0.667 7.82 2.77 8.15
8/16/2022 7:45:00 AM 20.32 68.576 0.674 7.83 2.94 8.23
8/16/2022 8:00:00 AM 20.32 68.576 0.681 7.86 2.56 8.29
8/16/2022 8:15:00 AM 20.33 68.594 0.645 7.87 2.58 8.36
8/16/2022 8:30:00 AM 20.33 68.594 0.673 7.87 2.87 8.45
8/16/2022 8:45:00 AM 20.35 68.63 0.688 7.87 2.47 8.48
8/16/2022 9:00:00 AM 20.39 68.702 0.676 7.88 2.5 8.6
8/16/2022 9:15:00 AM 20.43 68.774 0.675 7.88 2.29 8.65
8/16/2022 9:30:00 AM 20.44 68.792 0.679 7.88 2.49 8.71
8/16/2022 9:45:00 AM 20.43 68.774 0.673 7.89 2.27 8.76
8/16/2022 10:00:00 AM 20.46 68.828 0.661 7.89 2.2 8.83
8/16/2022 10:15:00 AM 20.47 68.846 0.669 7.9 2.29 8.9
8/16/2022 10:30:00 AM 20.51 68.918 0.675 7.91 2.23 8.97
8/16/2022 10:45:00 AM 20.6 69.08 0.677 7.91 2.37 9.07
8/16/2022 11:00:00 AM 20.73 69.314 0.679 7.92 2.36 9.15
8/16/2022 11:15:00 AM 20.85 69.53 0.636 7.91 2.43 9.2
8/16/2022 11:30:00 AM 20.83 69.494 0.675 7.92 2.97 9.17
8/16/2022 11:45:00 AM 20.84 69.512 0.673 7.92 2.62 9.2
8/16/2022 12:00:00 PM 20.82 69.476 0.67 7.92 3.07 9.16
8/16/2022 12:15:00 PM 20.94 69.692 0.666 7.92 2.56 9.21
8/16/2022 12:30:00 PM 21.05 69.89 0.673 7.92 2.68 9.24
8/16/2022 12:45:00 PM 21.16 70.088 0.674 7.93 2.39 9.25
8/16/2022 1:00:00 PM 21.19 70.142 0.675 7.94 2.14 9.25
8/16/2022 1:15:00 PM 21.15 70.07 0.679 7.93 1.87 9.2
8/16/2022 1:30:00 PM 21.19 70.142 0.674 7.94 2.52 9.18
8/16/2022 1:45:00 PM 21.26 70.268 0.677 7.94 2.09 9.14
8/16/2022 2:00:00 PM 21.29 70.32201 0.637 7.92 2.05 9.07
8/16/2022 2:15:00 PM 21.34 70.412 0.68 7.93 1.76 9.05
8/16/2022 2:30:00 PM 21.41 70.538 0.68 7.94 1.67 9.04
8/16/2022 2:45:00 PM 21.5 70.7 0.682 7.94 2.03 9
8/16/2022 3:00:00 PM 21.55 70.79 0.68 7.94 1.96 8.96
8/16/2022 3:15:00 PM 21.61 70.898 0.69 7.93 2.02 8.98
8/16/2022 3:30:00 PM 21.64 70.952 0.677 7.96 2.03 9.02
8/16/2022 3:45:00 PM 21.64 70.952 0.682 7.95 1.79 8.97
8/16/2022 4:00:00 PM 21.7 71.06 0.683 7.96 2.28 8.98
8/16/2022 4:15:00 PM 21.71 71.078 0.683 7.97 2.08 8.93
8/16/2022 4:30:00 PM 21.71 71.078 0.68 7.97 1.98 8.92
8/16/2022 4:45:00 PM 21.7 71.06 0.682 7.98 1.96 8.89
8/16/2022 5:00:00 PM 21.73 71.114 0.681 7.98 2.31 8.88
8/16/2022 5:15:00 PM 21.71 71.078 0.68 7.98 1.88 8.87
8/16/2022 5:30:00 PM 21.69 71.042 0.647 7.98 2.44 8.83
8/16/2022 5:45:00 PM 21.67 71.006 0.68 7.98 2.62 8.84
8/16/2022 6:00:00 PM 21.65 70.97 0.677 7.97 1.78 8.78
8/16/2022 6:15:00 PM 21.63 70.934 0.68 7.98 1.81 8.78
8/16/2022 6:30:00 PM 21.61 70.898 0.681 7.99 1.93 8.75
8/16/2022 6:45:00 PM 21.59 70.862 0.682 7.98 1.74 8.75
8/16/2022 7:00:00 PM 21.59 70.862 0.682 7.99 1.58 8.74
8/16/2022 7:15:00 PM 21.59 70.862 0.682 8 1.63 8.74
8/16/2022 7:30:00 PM 21.59 70.862 0.691 8 2.47 8.71
8/16/2022 7:45:00 PM 21.58 70.844 0.683 8 2.07 8.69
8/16/2022 8:00:00 PM 21.56 70.808 0.682 8 2 8.67
8/16/2022 8:15:00 PM 21.55 70.79 0.677 7.99 3.41 8.67
8/16/2022 8:30:00 PM 21.53 70.754 0.681 8 2.08 8.65
8/16/2022 8:45:00 PM 21.5 70.7 0.684 7.99 2.37 8.66
8/16/2022 9:00:00 PM 21.48 70.664 0.678 7.99 1.78 8.66
8/16/2022 9:15:00 PM 21.47 70.646 0.69 8 3.2 8.64
8/16/2022 9:30:00 PM 21.45 70.61 0.67 8.01 3.64 8.63
8/16/2022 9:45:00 PM 21.43 70.574 0.689 8.01 2.85 8.63
8/16/2022 10:00:00 PM 21.4 70.52 0.671 8.01 9.12 8.61
8/16/2022 10:15:00 PM 21.37 70.466 0.677 7.99 3.44 8.68
8/16/2022 10:30:00 PM 21.34 70.412 0.689 7.99 6.69 8.66
8/16/2022 10:45:00 PM 21.3 70.34 0.675 7.99 2.93 8.66
8/16/2022 11:00:00 PM 21.27 70.286 0.681 7.99 71.26 8.68
8/16/2022 11:15:00 PM 21.23 70.214 0.688 7.99 7.51 8.64
8/16/2022 11:30:00 PM 21.19 70.142 0.627 7.98 2.6 8.64
8/16/2022 11:45:00 PM 21.15 70.07 0.676 7.98 2.22 8.66
8/17/2022 12:00:00 AM 21.11 69.998 0.676 7.99 2.51 8.65
8/17/2022 12:15:00 AM 21.07 69.926 0.676 7.97 1.91 8.64
8/17/2022 12:30:00 AM 21.03 69.854 0.677 7.98 2.09 8.61
8/17/2022 12:45:00 AM 21 69.8 0.675 7.97 2.47 8.61
8/17/2022 1:00:00 AM 20.98 69.764 0.637 7.97 2.44 8.62
8/17/2022 1:15:00 AM 20.94 69.692 0.676 7.96 2.11 8.59
8/17/2022 1:30:00 AM 20.91 69.638 0.678 7.97 2.11 8.57
8/17/2022 1:45:00 AM 20.88 69.584 0.68 7.96 2.16 8.55
8/17/2022 2:00:00 AM 20.85 69.53 0.669 7.95 2.13 8.52
8/17/2022 2:15:00 AM 20.82 69.476 0.665 7.94 2.33 8.5
8/17/2022 2:30:00 AM 20.8 69.44 0.685 7.93 2.16 8.48
8/17/2022 2:45:00 AM 20.77 69.386 0.681 7.94 2.37 8.46
8/17/2022 3:00:00 AM 20.73 69.314 0.686 7.93 2.02 8.46
8/17/2022 3:15:00 AM 20.7 69.26 0.689 7.92 1.97 8.42
8/17/2022 3:30:00 AM 20.66 69.188 0.629 7.91 1.97 8.4
8/17/2022 3:45:00 AM 20.63 69.134 0.672 7.9 2.36 8.38
8/17/2022 4:00:00 AM 20.6 69.08 0.679 7.91 3.13 8.38
8/17/2022 4:15:00 AM 20.56 69.008 0.67 7.9 2.72 8.36
8/17/2022 4:30:00 AM 20.53 68.954 0.681 7.89 2.58 8.35
8/17/2022 4:45:00 AM 20.5 68.9 0.68 7.88 2.77 8.32
8/17/2022 5:00:00 AM 20.46 68.828 0.683 7.89 2.86 8.28
8/17/2022 5:15:00 AM 20.43 68.774 0.679 7.88 2.69 8.28
8/17/2022 5:30:00 AM 20.4 68.72 0.683 7.87 2.93 8.26
8/17/2022 5:45:00 AM 20.37 68.666 0.68 7.86 2.89 8.27
8/17/2022 6:00:00 AM 20.33 68.594 0.689 7.87 3.32 8.24
8/17/2022 6:15:00 AM 20.3 68.54 0.679 7.87 3.44 8.24
8/17/2022 6:30:00 AM 20.28 68.504 0.689 7.87 2.93 8.23
8/17/2022 6:45:00 AM 20.26 68.468 0.672 7.87 3.3 8.25
8/17/2022 7:00:00 AM 20.23 68.414 0.689 7.85 2.92 8.27
8/17/2022 7:15:00 AM 20.21 68.378 0.676 7.86 3.37 8.29
8/17/2022 7:30:00 AM 20.19 68.342 0.677 7.86 3.03 8.33
8/17/2022 7:45:00 AM 20.19 68.342 0.674 7.86 3 8.4
8/17/2022 8:00:00 AM 20.18 68.324 0.68 7.87 3.03 8.44
8/17/2022 8:15:00 AM 20.17 68.306 0.678 7.87 3.52 8.48
8/17/2022 8:30:00 AM 20.17 68.306 0.689 7.87 3.21 8.52
8/17/2022 8:45:00 AM 20.17 68.306 0.689 7.86 3.03 8.59
8/17/2022 9:00:00 AM 20.18 68.324 0.684 7.88 4.51 8.66
8/17/2022 9:15:00 AM 20.19 68.342 0.689 7.88 4.12 8.73
8/17/2022 9:30:00 AM 20.2 68.36 0.684 7.88 4.4 8.8
8/17/2022 9:45:00 AM 20.21 68.378 0.68 7.89 2.85 8.83
8/17/2022 10:00:00 AM 20.26 68.468 0.678 7.9 3.49 8.96
8/17/2022 10:15:00 AM 20.28 68.504 0.674 7.88 3.06 8.99
8/17/2022 10:30:00 AM 20.35 68.63 0.636 7.92 2.87 9.12
8/17/2022 10:45:00 AM 20.32 68.576 0.637 7.89 2.78 9.07
8/17/2022 11:00:00 AM 20.32 68.576 0.669 7.9 2.88 9.1
8/17/2022 11:15:00 AM 20.31 68.558 0.67 7.9 4.76 9.1
8/17/2022 11:30:00 AM 20.34 68.612 0.681 7.91 2.77 9.15
8/17/2022 11:45:00 AM 20.33 68.594 0.656 7.91 3.24 9.15
8/17/2022 12:00:00 PM 20.38 68.684 0.624 7.89 2.84 9.18
8/17/2022 12:15:00 PM 20.34 68.612 0.628 7.89 2.48 9.09
8/17/2022 12:30:00 PM 20.32 68.576 0.668 7.88 3.08 9
8/17/2022 12:45:00 PM 20.35 68.63 0.671 7.89 2.66 9.07
8/17/2022 1:00:00 PM 20.36 68.648 0.682 7.91 2.85 9.1
8/17/2022 1:15:00 PM 20.37 68.666 0.686 7.92 3.24 9.11
8/17/2022 1:30:00 PM 20.4 68.72 0.677 7.91 3.29 9.17
8/17/2022 1:45:00 PM 20.39 68.702 0.694 7.91 2.26 9.07
8/17/2022 2:00:00 PM 20.44 68.792 0.694 7.92 2.22 9.12
8/17/2022 2:15:00 PM 20.57 69.026 0.683 7.92 3.16 9.17
8/17/2022 2:30:00 PM 20.69 69.242 0.683 7.93 2.71 9.23
8/17/2022 2:45:00 PM 20.7 69.26 0.686 7.93 2.02 9.2
8/17/2022 3:00:00 PM 20.5 68.9 0.695 7.82 2.48 8.73
8/17/2022 3:15:00 PM 20.17 68.306 0.641 7.92 3.62 8.63
8/17/2022 3:30:00 PM 20.23 68.414 0.665 7.89 3.53 8.49
8/17/2022 3:45:00 PM 20.19 68.342 0.642 7.89 3.19 8.41
8/17/2022 4:00:00 PM 20.18 68.324 0.661 7.89 3.07 8.4
8/17/2022 4:15:00 PM 20.19 68.342 0.673 7.88 2.99 8.41
8/17/2022 4:30:00 PM 20.18 68.324 0.693 7.89 2.73 8.4
8/17/2022 4:45:00 PM 20.19 68.342 0.681 7.88 1.85 8.41
8/17/2022 5:00:00 PM 20.22 68.396 0.682 7.9 2.73 8.56
8/17/2022 5:15:00 PM 20.27 68.486 0.687 7.92 2.01 8.73
8/17/2022 5:30:00 PM 20.29 68.522 0.681 7.91 2.27 8.77
8/17/2022 5:45:00 PM 20.32 68.576 0.688 7.93 2.15 8.8
8/17/2022 6:00:00 PM 20.34 68.612 0.682 7.92 1.88 8.77
8/17/2022 6:15:00 PM 20.35 68.63 0.674 7.93 1.93 8.73
8/17/2022 6:30:00 PM 20.37 68.666 0.678 7.94 2.09 8.71
8/17/2022 6:45:00 PM 20.39 68.702 0.689 7.94 2.26 8.69
8/17/2022 7:00:00 PM 20.39 68.702 0.643 7.94 1.98 8.65
8/17/2022 7:15:00 PM 20.4 68.72 0.697 7.94 1.83 8.65
8/17/2022 7:30:00 PM 20.4 68.72 0.683 7.94 2.08 8.65
8/17/2022 7:45:00 PM 20.39 68.702 0.692 7.94 1.89 8.59
8/17/2022 8:00:00 PM 20.39 68.702 0.697 7.96 2.12 8.59
8/17/2022 8:15:00 PM 20.38 68.684 0.691 7.95 2.35 8.58
8/17/2022 8:30:00 PM 20.36 68.648 0.681 7.95 2.42 8.57
8/17/2022 8:45:00 PM 20.35 68.63 0.687 7.96 2.31 8.58
8/17/2022 9:00:00 PM 20.33 68.594 0.684 7.95 2.54 8.55
8/17/2022 9:15:00 PM 20.32 68.576 0.614 7.93 2.11 8.56
8/17/2022 9:30:00 PM 20.3 68.54 0.682 7.95 2.29 8.54
8/17/2022 9:45:00 PM 20.28 68.504 0.7 7.95 2.11 8.53
8/17/2022 10:00:00 PM 20.27 68.486 0.687 7.94 2.09 8.51
8/17/2022 10:15:00 PM 20.25 68.45 0.701 7.93 2.07 8.5
8/17/2022 10:30:00 PM 20.25 68.45 0.677 7.92 2.54 8.51
8/17/2022 10:45:00 PM 20.24 68.432 0.702 7.92 2.15 8.52
8/17/2022 11:00:00 PM 20.23 68.414 0.703 7.92 3.27 8.55
8/17/2022 11:15:00 PM 20.23 68.414 0.654 7.92 4.37 8.59
8/17/2022 11:30:00 PM 20.22 68.396 0.696 7.93 4.93 8.66
8/17/2022 11:45:00 PM 20.2 68.36 0.639 7.93 4.4 8.69
8/18/2022 12:00:00 AM 20.18 68.324 0.675 7.94 5.28 8.71
8/18/2022 12:15:00 AM 20.15 68.27 0.698 7.94 4.77 8.69
8/18/2022 12:30:00 AM 20.1 68.18 0.687 7.89 4.32 8.65
8/18/2022 12:45:00 AM 20.04 68.07201 0.7 7.93 3.56 8.61
8/18/2022 1:00:00 AM 19.97 67.946 0.678 7.92 3.61 8.59
8/18/2022 1:15:00 AM 19.89 67.802 0.7 7.91 3.06 8.55
8/18/2022 1:30:00 AM 19.81 67.658 0.683 7.9 3.29 8.53
8/18/2022 1:45:00 AM 19.73 67.514 0.7 7.89 11.22 8.52
8/18/2022 2:00:00 AM 19.65 67.37 0.679 7.84 4.54 8.5
8/18/2022 2:15:00 AM 19.58 67.244 0.707 7.87 2.95 8.49
8/18/2022 2:30:00 AM 19.5 67.1 0.654 7.82 2.84 8.49
8/18/2022 2:45:00 AM 19.43 66.974 0.708 7.86 2.61 8.48
8/18/2022 3:00:00 AM 19.36 66.848 0.69 7.86 2.89 8.5
8/18/2022 3:15:00 AM 19.29 66.722 0.709 7.85 2.38 8.5
8/18/2022 3:30:00 AM 19.23 66.614 0.678 7.86 3.07 8.5
8/18/2022 3:45:00 AM 19.17 66.506 0.703 7.82 3.68 8.51
8/18/2022 4:00:00 AM 19.11 66.398 0.717 7.83 2.8 8.51
8/18/2022 4:15:00 AM 19.06 66.308 0.703 7.8 2.53 8.53
8/18/2022 4:30:00 AM 19.02 66.236 0.689 7.84 2.74 8.54
8/18/2022 4:45:00 AM 18.97 66.146 0.721 7.85 4.08 8.55
8/18/2022 5:00:00 AM 18.92 66.056 0.675 7.79 2.84 8.57
8/18/2022 5:15:00 AM 18.88 65.984 0.693 7.85 2.96 8.58
8/18/2022 5:30:00 AM 18.84 65.912 0.71 7.8 2.73 8.61
8/18/2022 5:45:00 AM 18.79 65.82201 0.686 7.84 3.24 8.63
8/18/2022 6:00:00 AM 18.75 65.75 0.72 7.84 3.29 8.65
8/18/2022 6:15:00 AM 18.71 65.67799 0.688 7.81 2.92 8.68
8/18/2022 6:30:00 AM 18.68 65.624 0.714 7.83 2.89 8.69
8/18/2022 6:45:00 AM 18.65 65.57 0.713 7.83 2.85 8.69
8/18/2022 7:00:00 AM 18.62 65.516 0.724 7.83 2.47 8.73
8/18/2022 7:15:00 AM 18.6 65.48 0.728 7.84 2.65 8.75
8/18/2022 7:30:00 AM 18.6 65.48 0.727 7.85 2.4 8.77
8/18/2022 7:45:00 AM 18.6 65.48 0.715 7.84 2.75 8.77
8/18/2022 8:00:00 AM 18.6 65.48 0.7 7.85 2.64 8.76
8/18/2022 8:15:00 AM 18.62 65.516 0.679 7.86 2.43 8.76
8/18/2022 8:30:00 AM 18.64 65.552 0.724 7.87 3.45 8.76
8/18/2022 8:45:00 AM 18.68 65.624 0.723 7.86 2.29 8.78
8/18/2022 9:00:00 AM 18.72 65.696 0.725 7.86 2.36 8.81
8/18/2022 9:15:00 AM 18.78 65.804 0.722 7.87 2.58 8.84
8/18/2022 9:30:00 AM 18.85 65.93 0.738 7.88 2.33 8.87
8/18/2022 9:45:00 AM 18.91 66.038 0.718 7.88 2.25 8.9
8/18/2022 10:00:00 AM 18.99 66.182 0.722 7.89 2.24 8.95
8/18/2022 10:15:00 AM 19.06 66.308 0.736 7.9 2.06 8.97
8/18/2022 10:30:00 AM 19.15 66.47 0.716 7.9 3.04 9.01
8/18/2022 10:45:00 AM 19.26 66.668 0.733 7.91 2.17 9.07
8/18/2022 11:00:00 AM 19.35 66.83 0.718 7.89 2.28 9.1
8/18/2022 11:15:00 AM 19.41 66.938 0.716 7.9 2.08 9.1
8/18/2022 11:30:00 AM 19.49 67.082 0.73 7.91 2.25 9.12
8/18/2022 11:45:00 AM 19.57 67.226 0.638 7.91 2.1 9.18
8/18/2022 12:00:00 PM 19.61 67.298 0.67 7.93 2.06 9.15
8/18/2022 12:15:00 PM 19.66 67.388 0.705 7.92 2.12 9.14
8/18/2022 12:30:00 PM 19.72 67.496 0.699 7.94 2.26 9.15
8/18/2022 12:45:00 PM 19.76 67.568 0.64 7.94 2.04 9.14
8/18/2022 1:00:00 PM 19.78 67.604 0.68 7.95 3.37 9.13
8/18/2022 1:15:00 PM 19.81 67.658 0.664 7.93 2.41 9.11
8/18/2022 1:30:00 PM 19.91 67.838 0.714 7.96 3.58 9.15
8/18/2022 1:45:00 PM 19.93 67.874 0.713 7.96 2.28 9.11
8/18/2022 2:00:00 PM 19.96 67.92799 0.663 7.94 2.22 9.09
8/18/2022 2:15:00 PM 20 68 0.707 7.95 2.04 9.08
8/18/2022 2:30:00 PM 20.05 68.09 0.701 7.94 1.94 9.07
8/18/2022 2:45:00 PM 20.12 68.216 0.71 7.97 1.97 9.08
8/18/2022 3:00:00 PM 20.16 68.288 0.705 7.98 2.46 9.08
8/18/2022 3:15:00 PM 20.18 68.324 0.704 7.96 2.17 9.06
8/18/2022 3:30:00 PM 20.24 68.432 0.688 7.98 2.19 9.07
8/18/2022 3:45:00 PM 20.28 68.504 0.698 7.98 1.92 9.08
8/18/2022 4:00:00 PM 20.31 68.558 0.7 7.98 1.75 9.06
8/18/2022 4:15:00 PM 20.34 68.612 0.704 7.99 1.89 9.04
8/18/2022 4:30:00 PM 20.34 68.612 0.701 7.99 4.58 9.03
8/18/2022 4:45:00 PM 20.33 68.594 0.699 7.98 1.79 9.01
8/18/2022 5:00:00 PM 20.34 68.612 0.704 7.99 1.84 9
8/18/2022 5:15:00 PM 20.35 68.63 0.697 7.99 1.84 9
8/18/2022 5:30:00 PM 20.37 68.666 0.646 8 2 8.99
8/18/2022 5:45:00 PM 20.42 68.756 0.695 8.01 1.89 8.96
8/18/2022 6:00:00 PM 20.49 68.882 0.72 8.01 1.83 8.95
8/18/2022 6:15:00 PM 20.52 68.936 0.695 8 1.82 8.93
8/18/2022 6:30:00 PM 20.53 68.954 0.706 8.01 3.13 8.91
8/18/2022 6:45:00 PM 20.55 68.99 0.706 8.01 2 8.88
8/18/2022 7:00:00 PM 20.56 69.008 0.715 8.01 1.82 8.88
8/18/2022 7:15:00 PM 20.59 69.062 0.719 8.02 1.77 8.88
8/18/2022 7:30:00 PM 20.61 69.098 0.719 8.01 1.85 8.84
8/18/2022 7:45:00 PM 20.63 69.134 0.717 8.02 1.82 8.86
8/18/2022 8:00:00 PM 20.64 69.152 0.714 7.97 1.86 8.85
8/18/2022 8:15:00 PM 20.65 69.17 0.707 7.99 1.99 8.82
8/18/2022 8:30:00 PM 20.66 69.188 0.728 8.02 1.82 8.81
8/18/2022 8:45:00 PM 20.65 69.17 0.719 8.02 2.05 8.81
8/18/2022 9:00:00 PM 20.64 69.152 0.71 7.99 2.13 8.79
8/18/2022 9:15:00 PM 20.62 69.116 0.71 8.02 2.02 8.81
8/18/2022 9:30:00 PM 20.6 69.08 0.721 8.02 2.07 8.8
8/18/2022 9:45:00 PM 20.56 69.008 0.713 8.01 2.04 8.81
8/18/2022 10:00:00 PM 20.53 68.954 0.717 8.01 2.04 8.8
8/18/2022 10:15:00 PM 20.51 68.918 0.71 8 2.07 8.77
8/18/2022 10:30:00 PM 20.47 68.846 0.698 7.99 2.19 8.77
8/18/2022 10:45:00 PM 20.44 68.792 0.71 7.99 2.07 8.74
8/18/2022 11:00:00 PM 20.4 68.72 0.644 7.98 2.19 8.75
8/18/2022 11:15:00 PM 20.37 68.666 0.707 7.99 2.06 8.74
8/18/2022 11:30:00 PM 20.33 68.594 0.706 7.98 2.36 8.72
8/18/2022 11:45:00 PM 20.3 68.54 0.706 7.99 2.07 8.7
8/19/2022 12:00:00 AM 20.26 68.468 0.701 7.97 2.3 8.7
8/19/2022 12:15:00 AM 20.23 68.414 0.729 7.97 2.4 8.66
8/19/2022 12:30:00 AM 20.19 68.342 0.708 7.96 2.11 8.68
8/19/2022 12:45:00 AM 20.16 68.288 0.706 7.95 2.2 8.67
8/19/2022 1:00:00 AM 20.12 68.216 0.713 7.96 2.1 8.64
8/19/2022 1:15:00 AM 20.09 68.162 0.669 7.93 2.48 8.63
8/19/2022 1:30:00 AM 20.06 68.108 0.718 7.93 2.14 8.62
8/19/2022 1:45:00 AM 20.03 68.054 0.71 7.93 2.37 8.6
8/19/2022 2:00:00 AM 20 68 0.723 7.93 2.26 8.6
8/19/2022 2:15:00 AM 19.97 67.946 0.718 7.91 2.06 8.59
8/19/2022 2:30:00 AM 19.94 67.892 0.702 7.9 2.47 8.55
8/19/2022 2:45:00 AM 19.91 67.838 0.691 7.9 2.13 8.55
8/19/2022 3:00:00 AM 19.89 67.802 0.719 7.91 3.35 8.54
8/19/2022 3:15:00 AM 19.87 67.766 0.716 7.89 2.23 8.52
8/19/2022 3:30:00 AM 19.85 67.73 0.701 7.89 5.37 8.51
8/19/2022 3:45:00 AM 19.83 67.694 0.681 7.87 3.35 8.5
8/19/2022 4:00:00 AM 19.8 67.64 0.724 7.88 2.23 8.48
8/19/2022 4:15:00 AM 19.79 67.622 0.646 7.87 2.26 8.48
8/19/2022 4:30:00 AM 19.77 67.586 0.707 7.87 2.06 8.46
8/19/2022 4:45:00 AM 19.75 67.55 0.705 7.88 2.7 8.45
8/19/2022 5:00:00 AM 19.73 67.514 0.675 7.87 2.08 8.43
8/19/2022 5:15:00 AM 19.72 67.496 0.715 7.87 1.98 8.42
8/19/2022 5:30:00 AM 19.7 67.46 0.711 7.87 2.04 8.4
8/19/2022 5:45:00 AM 19.68 67.424 0.736 7.86 1.99 8.37
8/19/2022 6:00:00 AM 19.66 67.388 0.705 7.86 2.28 8.37
8/19/2022 6:15:00 AM 19.65 67.37 0.727 7.86 2.68 8.38
8/19/2022 6:30:00 AM 19.64 67.352 0.706 7.85 2.62 8.37
8/19/2022 6:45:00 AM 19.63 67.334 0.724 7.85 2.4 8.37
8/19/2022 7:00:00 AM 19.63 67.334 0.717 7.85 3.64 8.38
8/19/2022 7:15:00 AM 19.61 67.298 0.581 7.85 2.62 8.37
8/19/2022 7:30:00 AM 19.62 67.316 0.736 7.85 2.74 8.39
8/19/2022 7:45:00 AM 19.63 67.334 0.718 7.85 2.53 8.41
8/19/2022 8:00:00 AM 19.65 67.37 0.737 7.84 2.56 8.41
8/19/2022 8:15:00 AM 19.67 67.406 0.718 7.85 2.65 8.44
8/19/2022 8:30:00 AM 19.71 67.478 0.725 7.87 2.75 8.49
8/19/2022 8:45:00 AM 19.76 67.568 0.722 7.86 3.87 8.55
8/19/2022 9:00:00 AM 19.81 67.658 0.722 7.88 3.08 8.63
8/19/2022 9:15:00 AM 19.89 67.802 0.727 7.89 2.04 8.7
8/19/2022 9:30:00 AM 19.97 67.946 0.692 7.9 1.96 8.78
8/19/2022 9:45:00 AM 20.06 68.108 0.682 7.91 2.1 8.86
8/19/2022 10:00:00 AM 20.15 68.27 0.726 7.91 1.96 8.91
8/19/2022 10:15:00 AM 20.26 68.468 0.663 7.92 2.19 8.98
8/19/2022 10:30:00 AM 20.38 68.684 0.721 7.92 2.02 9.04
8/19/2022 10:45:00 AM 20.5 68.9 0.706 7.94 2.05 9.1
8/19/2022 11:00:00 AM 20.61 69.098 0.7 7.94 2.32 9.15
8/19/2022 11:15:00 AM 20.72 69.296 0.719 7.94 1.85 9.18
8/19/2022 11:30:00 AM 20.83 69.494 0.724 7.96 1.71 9.2
8/19/2022 11:45:00 AM 20.88 69.584 0.693 7.95 1.84 9.16
8/19/2022 12:00:00 PM 20.97 69.746 0.719 7.96 1.91 9.16
8/19/2022 12:15:00 PM 21.09 69.962 0.733 7.96 1.69 9.22
8/19/2022 12:30:00 PM 21.13 70.034 0.72 7.96 1.97 9.2
8/19/2022 12:45:00 PM 21.17 70.106 0.72 7.96 1.75 9.17
8/19/2022 1:00:00 PM 21.2 70.16 0.719 7.96 1.76 9.14
8/19/2022 1:15:00 PM 21.25 70.25 0.71 7.94 2.02 9.13
8/19/2022 1:30:00 PM 21.12 70.016 0.662 7.94 1.82 8.95
8/19/2022 1:45:00 PM 21.08 69.944 0.719 7.94 1.79 8.9
8/19/2022 2:00:00 PM 21.03 69.854 0.719 7.91 1.69 8.79
8/19/2022 2:15:00 PM 21.15 70.07 0.73 7.94 1.59 8.89
8/19/2022 2:30:00 PM 21.16 70.088 0.716 7.94 1.73 8.86
8/19/2022 2:45:00 PM 21.17 70.106 0.711 7.93 1.85 8.83
8/19/2022 3:00:00 PM 21.14 70.052 0.652 7.93 1.74 8.66
8/19/2022 3:15:00 PM 21.17 70.106 0.719 7.93 1.62 8.57
8/19/2022 3:30:00 PM 21.18 70.124 0.727 7.93 1.74 8.56
8/19/2022 3:45:00 PM 21.21 70.17799 0.709 7.94 1.67 8.66
8/19/2022 4:00:00 PM 21.27 70.286 0.663 7.91 1.72 8.76
8/19/2022 4:15:00 PM 21.32 70.376 0.662 7.92 1.75 8.78
8/19/2022 4:30:00 PM 21.3 70.34 0.724 7.94 1.89 8.73
8/19/2022 4:45:00 PM 21.32 70.376 0.723 7.94 1.5 8.68
8/19/2022 5:00:00 PM 21.36 70.448 0.713 7.96 1.53 8.71
8/19/2022 5:15:00 PM 21.38 70.484 0.699 7.95 4.86 8.63
8/19/2022 5:30:00 PM 21.42 70.556 0.716 7.94 2.22 8.66
8/19/2022 5:45:00 PM 21.44 70.592 0.703 7.92 1.64 8.63
8/19/2022 6:00:00 PM 21.45 70.61 0.718 7.95 1.64 8.61
8/19/2022 6:15:00 PM 21.46 70.628 0.696 7.96 1.67 8.57
8/19/2022 6:30:00 PM 21.46 70.628 0.711 7.93 1.57 8.55
8/19/2022 6:45:00 PM 21.47 70.646 0.667 7.94 1.6 8.51
8/19/2022 7:00:00 PM 21.45 70.61 0.701 7.93 1.55 8.47
8/19/2022 7:15:00 PM 21.43 70.574 0.693 7.92 1.79 8.41
8/19/2022 7:30:00 PM 21.43 70.574 0.704 7.94 2 8.37
8/19/2022 7:45:00 PM 21.42 70.556 0.685 7.93 1.72 8.33
8/19/2022 8:00:00 PM 21.41 70.538 0.701 7.93 1.75 8.3
8/19/2022 8:15:00 PM 21.39 70.502 0.656 7.89 1.88 8.26
8/19/2022 8:30:00 PM 21.38 70.484 0.7 7.91 1.92 8.26
8/19/2022 8:45:00 PM 21.37 70.466 0.695 7.91 2.1 8.26
8/19/2022 9:00:00 PM 21.36 70.448 0.687 7.91 1.8 8.23
8/19/2022 9:15:00 PM 21.35 70.43 0.684 7.88 1.95 8.24
8/19/2022 9:30:00 PM 21.35 70.43 0.686 7.91 2.02 8.26
8/19/2022 9:45:00 PM 21.34 70.412 0.685 7.9 2.08 8.25
8/19/2022 10:00:00 PM 21.33 70.394 0.684 7.89 2.25 8.22
8/19/2022 10:15:00 PM 21.31 70.358 0.677 7.91 1.95 8.25
8/19/2022 10:30:00 PM 21.29 70.32201 0.638 7.91 1.1 8.23
8/19/2022 10:45:00 PM 21.27 70.286 0.682 7.9 2.06 8.21
8/19/2022 11:00:00 PM 21.25 70.25 0.652 7.89 2.23 8.22
8/19/2022 11:15:00 PM 21.23 70.214 0.675 7.89 2.18 8.23
8/19/2022 11:30:00 PM 21.21 70.17799 0.675 7.88 1.8 8.22
8/19/2022 11:45:00 PM 21.18 70.124 0.672 7.88 1.79 8.24
8/20/2022 12:00:00 AM 21.18 70.124 0.672 7.89 1.69 8.21
8/20/2022 12:15:00 AM 21.15 70.07 0.671 7.89 1.87 8.22
8/20/2022 12:30:00 AM 21.14 70.052 0.632 7.87 2.14 8.18
8/20/2022 12:45:00 AM 21.12 70.016 0.679 7.88 1.87 8.19
8/20/2022 1:00:00 AM 21.1 69.98 0.314 7.88 1.85 8.19
8/20/2022 1:15:00 AM 21.08 69.944 0.676 7.87 1.8 8.21
8/20/2022 1:30:00 AM 21.07 69.926 0.326 7.87 2.13 8.18
8/20/2022 1:45:00 AM 21.05 69.89 0.678 7.86 1.87 8.17
8/20/2022 2:00:00 AM 21.04 69.872 0.667 7.84 2.01 8.14
8/20/2022 2:15:00 AM 21.01 69.818 0.336 7.85 2.14 8.15
8/20/2022 2:30:00 AM 21 69.8 0.305 7.85 1.86 8.15
8/20/2022 2:45:00 AM 20.98 69.764 0.669 7.86 2.29 8.14
8/20/2022 3:00:00 AM 20.96 69.728 0.324 7.85 2.29 8.13
8/20/2022 3:15:00 AM 20.94 69.692 0.671 7.84 2.09 8.13
8/20/2022 3:30:00 AM 20.94 69.692 0.308 7.83 2.11 8.1
8/20/2022 3:45:00 AM 20.92 69.656 0.669 7.85 1.66 8.11
8/20/2022 4:00:00 AM 20.9 69.62 0.319 7.83 1.95 8.1
8/20/2022 4:15:00 AM 20.88 69.584 0.328 7.78 2.15 8.07
8/20/2022 4:30:00 AM 20.86 69.548 0.301 7.82 1.91 8.07
8/20/2022 4:45:00 AM 20.84 69.512 0.333 7.81 2.39 8.05
8/20/2022 5:00:00 AM 20.82 69.476 0.303 7.81 1.92 8.05
8/20/2022 5:15:00 AM 20.8 69.44 0.318 7.8 2.37 8.05
8/20/2022 5:30:00 AM 20.77 69.386 0.32 7.8 1.85 8.05
8/20/2022 5:45:00 AM 20.76 69.368 0.293 7.79 2.06 8.03
8/20/2022 6:00:00 AM 20.74 69.332 0.296 7.79 1.84 8.03
8/20/2022 6:15:00 AM 20.73 69.314 0.328 7.8 2.14 8.01
8/20/2022 6:30:00 AM 20.71 69.278 0.305 7.8 2.13 8.04
8/20/2022 6:45:00 AM 20.71 69.278 0.352 7.8 1.99 8
8/20/2022 7:00:00 AM 20.7 69.26 0.655 7.79 1.83 8
8/20/2022 7:15:00 AM 20.69 69.242 0.334 7.8 1.89 8.04
8/20/2022 7:30:00 AM 20.69 69.242 0.329 7.8 2.24 8.06
8/20/2022 7:45:00 AM 20.7 69.26 0.296 7.81 1.87 8.12
8/20/2022 8:00:00 AM 20.71 69.278 0.653 7.79 1.74 8.15
8/20/2022 8:15:00 AM 20.74 69.332 0.272 7.82 2.34 8.23
8/20/2022 8:30:00 AM 20.8 69.44 0.65 7.82 1.82 8.34
8/20/2022 8:45:00 AM 20.81 69.458 0.286 7.82 1.88 8.36
8/20/2022 9:00:00 AM 20.87 69.566 0.306 7.84 2.02 8.47
8/20/2022 9:15:00 AM 20.96 69.728 0.285 7.84 1.83 8.59
8/20/2022 9:30:00 AM 21 69.8 0.637 7.85 1.91 8.64
8/20/2022 9:45:00 AM 21.05 69.89 0.262 7.85 1.82 8.7
8/20/2022 10:00:00 AM 21.14 70.052 0.349 7.86 1.77 8.76
8/20/2022 10:15:00 AM 21.25 70.25 0.35 7.87 2.03 8.84
8/20/2022 10:30:00 AM 21.34 70.412 0.273 7.87 1.9 8.87
8/20/2022 10:45:00 AM 21.44 70.592 0.296 7.87 1.93 8.9
8/20/2022 11:00:00 AM 21.53 70.754 0.341 7.87 1.69 8.95
8/20/2022 11:15:00 AM 21.65 70.97 0.316 7.89 1.92 9
8/20/2022 11:30:00 AM 21.73 71.114 0.332 7.89 1.89 9
8/20/2022 11:45:00 AM 21.85 71.33 0.612 7.87 2.23 9.03
8/20/2022 12:00:00 PM 21.9 71.42 0.264 7.89 1.95 9.01
8/20/2022 12:15:00 PM 21.96 71.528 0.279 7.89 2 9.02
8/20/2022 12:30:00 PM 22.05 71.69 0.258 7.88 1.86 9.04
8/20/2022 12:45:00 PM 22.08 71.744 0.601 7.89 2.08 9
8/20/2022 1:00:00 PM 22.13 71.834 0.348 7.88 2.69 8.95
8/20/2022 1:15:00 PM 22.21 71.978 0.335 7.87 1.95 8.95
8/20/2022 1:30:00 PM 22.23 72.014 0.339 7.87 1.99 8.85
8/20/2022 1:45:00 PM 22.31 72.158 0.301 7.89 1.83 8.87
8/20/2022 2:00:00 PM 22.38 72.284 0.35 7.89 1.97 8.87
8/20/2022 2:15:00 PM 22.41 72.338 0.346 7.89 1.89 8.8
8/20/2022 2:30:00 PM 22.46 72.42799 0.3 7.87 2.04 8.76
8/20/2022 2:45:00 PM 22.43 72.374 0.261 7.88 1.72 8.68
8/20/2022 3:00:00 PM 22.45 72.41 0.587 7.88 1.68 8.64
8/20/2022 3:15:00 PM 22.49 72.482 0.328 7.89 1.68 8.66
8/20/2022 3:30:00 PM 22.52 72.536 0.343 7.89 1.76 8.63
8/20/2022 3:45:00 PM 22.57 72.626 0.323 7.89 1.76 8.67
8/20/2022 4:00:00 PM 22.55 72.59 0.32 7.9 1.83 8.56
8/20/2022 4:15:00 PM 22.62 72.716 0.58 7.9 1.68 8.57
8/20/2022 4:30:00 PM 22.63 72.734 0.25 7.89 1.74 8.55
8/20/2022 4:45:00 PM 22.64 72.752 0.254 7.89 2.21 8.48
8/20/2022 5:00:00 PM 22.66 72.788 0.277 7.89 2.24 8.45
8/20/2022 5:15:00 PM 22.67 72.806 0.286 7.89 1.8 8.43
8/20/2022 5:30:00 PM 22.66 72.788 0.27 7.89 1.81 8.38
8/20/2022 5:45:00 PM 22.67 72.806 0.294 7.89 1.75 8.34
8/20/2022 6:00:00 PM 22.7 72.86 0.32 7.88 1.97 8.32
8/20/2022 6:15:00 PM 22.68 72.824 0.307 7.89 1.79 8.3
8/20/2022 6:30:00 PM 22.68 72.824 0.323 7.9 1.83 8.28
8/20/2022 6:45:00 PM 22.67 72.806 0.304 7.9 1.89 8.26
8/20/2022 7:00:00 PM 22.64 72.752 0.296 7.89 2.09 8.24
8/20/2022 7:15:00 PM 22.63 72.734 0.293 7.89 2.15 8.23
8/20/2022 7:30:00 PM 22.61 72.698 0.296 7.89 1.86 8.19
8/20/2022 7:45:00 PM 22.58 72.644 0.299 7.89 1.92 8.15
8/20/2022 8:00:00 PM 22.55 72.59 0.273 7.88 2.38 8.15
8/20/2022 8:15:00 PM 22.53 72.554 0.273 7.88 2.19 8.12
8/20/2022 8:30:00 PM 22.52 72.536 0.57 7.87 2.07 8.11
8/20/2022 8:45:00 PM 22.52 72.536 0.316 7.85 2.18 8.13
8/20/2022 9:00:00 PM 22.52 72.536 0.328 7.87 2.26 8.11
8/20/2022 9:15:00 PM 22.52 72.536 0.569 7.88 2.22 8.11
8/20/2022 9:30:00 PM 22.5 72.5 0.569 7.87 2.15 8.09
8/20/2022 9:45:00 PM 22.49 72.482 0.281 7.87 2.91 8.15
8/20/2022 10:00:00 PM 22.46 72.42799 0.568 7.84 7.4 8.08
8/20/2022 10:15:00 PM 22.43 72.374 0.254 7.85 2.06 8.09
8/20/2022 10:30:00 PM 22.4 72.32 0.263 7.85 2.2 8.12
8/20/2022 10:45:00 PM 22.37 72.266 0.288 7.86 2.13 8.09
8/20/2022 11:00:00 PM 22.34 72.212 0.291 7.85 2.17 8.12
8/20/2022 11:15:00 PM 22.31 72.158 0.307 7.85 2.32 8.09
8/20/2022 11:30:00 PM 22.28 72.104 0.27 7.85 2.16 8.09
8/20/2022 11:45:00 PM 22.25 72.05 0.273 7.85 2.75 8.1
8/21/2022 12:00:00 AM 22.22 71.996 0.567 7.85 2.11 8.1
8/21/2022 12:15:00 AM 22.19 71.942 0.285 7.84 2.54 8.07
8/21/2022 12:30:00 AM 22.16 71.888 0.306 7.85 2.17 8.08
8/21/2022 12:45:00 AM 22.14 71.852 0.311 7.85 2.16 8.07
8/21/2022 1:00:00 AM 22.11 71.798 0.567 7.84 1.91 8.05
8/21/2022 1:15:00 AM 22.08 71.744 0.299 7.86 2.1 8.08
8/21/2022 1:30:00 AM 22.05 71.69 0.262 7.83 2.36 8.05
8/21/2022 1:45:00 AM 22.03 71.654 0.318 7.84 2.52 8.05
8/21/2022 2:00:00 AM 22 71.6 0.254 7.83 2.02 8.05
8/21/2022 2:15:00 AM 21.97 71.546 0.317 7.81 2.31 8.02
8/21/2022 2:30:00 AM 21.94 71.492 0.57 7.8 3.11 8
8/21/2022 2:45:00 AM 21.91 71.438 0.311 7.81 2.37 7.97
8/21/2022 3:00:00 AM 21.88 71.384 0.253 7.82 2.16 7.96
8/21/2022 3:15:00 AM 21.86 71.348 0.319 7.79 2.93 7.98
8/21/2022 3:30:00 AM 21.83 71.294 0.319 7.77 2.59 7.96
8/21/2022 3:45:00 AM 21.79 71.222 0.263 7.79 2.05 7.93
8/21/2022 4:00:00 AM 21.76 71.168 0.314 7.76 2.15 7.91
8/21/2022 4:15:00 AM 21.73 71.114 0.262 7.79 2.34 7.93
8/21/2022 4:30:00 AM 21.7 71.06 0.289 7.79 2.4 7.91
8/21/2022 4:45:00 AM 21.66 70.988 0.314 7.78 2.27 7.88
8/21/2022 5:00:00 AM 21.64 70.952 0.575 7.8 2.14 7.9
8/21/2022 5:15:00 AM 21.61 70.898 0.576 7.78 2.01 7.87
8/21/2022 5:30:00 AM 21.58 70.844 0.313 7.77 2.42 7.84
8/21/2022 5:45:00 AM 21.55 70.79 0.327 7.79 2.07 7.87
8/21/2022 6:00:00 AM 21.53 70.754 0.268 7.74 3.06 7.83
8/21/2022 6:15:00 AM 21.51 70.718 0.321 7.7 3.37 7.84
8/21/2022 6:30:00 AM 21.5 70.7 0.325 7.72 2.23 7.84
8/21/2022 6:45:00 AM 21.48 70.664 0.577 7.77 2.71 7.84
8/21/2022 7:00:00 AM 21.46 70.628 0.271 7.75 2.26 7.88
8/21/2022 7:15:00 AM 21.46 70.628 0.578 7.77 2.17 7.92
8/21/2022 7:30:00 AM 21.46 70.628 0.321 7.72 2.09 7.95
8/21/2022 7:45:00 AM 21.46 70.628 0.297 7.77 2.11 8
8/21/2022 8:00:00 AM 21.46 70.628 0.271 7.77 2.05 8.04
8/21/2022 8:15:00 AM 21.47 70.646 0.263 7.78 1.99 8.07
8/21/2022 8:30:00 AM 21.48 70.664 0.27 7.78 2.3 8.03
8/21/2022 8:45:00 AM 21.49 70.682 0.309 7.78 2.32 8.02
8/21/2022 9:00:00 AM 21.54 70.772 0.286 7.79 2.13 8.2
8/21/2022 9:15:00 AM 21.59 70.862 0.324 7.76 2.04 8.34
8/21/2022 9:30:00 AM 21.69 71.042 0.263 7.77 1.91 8.45
8/21/2022 9:45:00 AM 21.76 71.168 0.324 7.79 2 8.55
8/21/2022 10:00:00 AM 21.82 71.276 0.296 7.82 2.35 8.57
8/21/2022 10:15:00 AM 21.81 71.258 0.299 7.83 2.83 8.57
8/21/2022 10:30:00 AM 21.88 71.384 0.321 7.84 2.45 8.68
8/21/2022 10:45:00 AM 21.94 71.492 0.333 7.85 2.12 8.77
8/21/2022 11:00:00 AM 21.91 71.438 0.315 7.83 2.32 8.68
8/21/2022 11:15:00 AM 21.91 71.438 0.291 7.85 2.28 8.69
8/21/2022 11:30:00 AM 21.96 71.528 0.327 7.85 2.46 8.75
8/21/2022 11:45:00 AM 22.01 71.618 0.293 7.86 2 8.73
8/21/2022 12:00:00 PM 22.18 71.924 0.319 7.85 1.94 8.91
8/21/2022 12:15:00 PM 22.26 72.068 0.315 7.85 2.03 8.92
8/21/2022 12:30:00 PM 22.24 72.032 0.252 7.87 2 8.9
8/21/2022 12:45:00 PM 22.22 71.996 0.316 7.85 2.37 8.89
8/21/2022 1:00:00 PM 22.28 72.104 0.317 7.87 1.9 8.91
8/21/2022 1:15:00 PM 22.26 72.068 0.291 7.87 1.92 8.82
8/21/2022 1:30:00 PM 22.27 72.086 0.298 7.86 1.77 8.75
8/21/2022 1:45:00 PM 22.32 72.176 0.313 7.83 1.97 8.82
8/21/2022 2:00:00 PM 22.32 72.176 0.271 7.86 2.21 8.72
8/21/2022 2:15:00 PM 22.36 72.248 0.314 7.87 1.86 8.71
8/21/2022 2:30:00 PM 22.4 72.32 0.296 7.88 1.76 8.73
8/21/2022 2:45:00 PM 22.4 72.32 0.313 7.89 1.88 8.68
8/21/2022 3:00:00 PM 22.4 72.32 0.303 7.87 2.35 8.64
8/21/2022 3:15:00 PM 22.41 72.338 0.323 7.86 1.95 8.62
8/21/2022 3:30:00 PM 22.42 72.356 0.253 7.87 1.74 8.58
8/21/2022 3:45:00 PM 22.43 72.374 0.321 7.87 2.04 8.53
8/21/2022 4:00:00 PM 22.48 72.464 0.293 7.88 1.97 8.62
8/21/2022 4:15:00 PM 22.48 72.464 0.305 7.88 2.06 8.52
8/21/2022 4:30:00 PM 22.49 72.482 0.339 7.87 2.04 8.49
8/21/2022 4:45:00 PM 22.48 72.464 0.256 7.87 2.32 8.46
8/21/2022 5:00:00 PM 22.48 72.464 0.325 7.88 2.35 8.36
8/21/2022 5:15:00 PM 22.5 72.5 0.338 7.89 2.09 8.32
8/21/2022 5:30:00 PM 22.51 72.518 0.266 7.88 2.11 8.29
8/21/2022 5:45:00 PM 22.51 72.518 0.305 7.88 2.21 8.25
8/21/2022 6:00:00 PM 22.51 72.518 0.338 7.87 2.03 8.24
8/21/2022 6:15:00 PM 22.52 72.536 0.255 7.85 2.23 8.22
8/21/2022 6:30:00 PM 22.51 72.518 0.314 7.87 1.9 8.18
8/21/2022 6:45:00 PM 22.5 72.5 0.303 7.87 1.87 8.16
8/21/2022 7:00:00 PM 22.5 72.5 0.307 7.88 1.86 8.09
8/21/2022 7:15:00 PM 22.5 72.5 0.295 7.87 1.98 8.07
8/21/2022 7:30:00 PM 22.49 72.482 0.321 7.87 1.93 8.04
8/21/2022 7:45:00 PM 22.48 72.464 0.333 7.87 2.16 8.04
8/21/2022 8:00:00 PM 22.47 72.446 0.318 7.87 1.92 7.99
8/21/2022 8:15:00 PM 22.45 72.41 0.3 7.86 1.96 7.98
8/21/2022 8:30:00 PM 22.44 72.392 0.334 7.86 2.32 7.95
8/21/2022 8:45:00 PM 22.43 72.374 0.254 7.86 2.03 7.99
8/21/2022 9:00:00 PM 22.42 72.356 0.26 7.85 2.18 7.95
8/21/2022 9:15:00 PM 22.41 72.338 0.265 7.85 2.18 7.96
8/21/2022 9:30:00 PM 22.4 72.32 0.264 7.86 2.17 7.95
8/21/2022 9:45:00 PM 22.4 72.32 0.272 7.85 3.31 7.93
8/21/2022 10:00:00 PM 22.38 72.284 0.315 7.86 2.58 7.96
8/21/2022 10:15:00 PM 22.37 72.266 0.276 7.86 2.38 7.95
8/21/2022 10:30:00 PM 22.38 72.284 0.335 7.86 306.73 7.94
8/21/2022 10:45:00 PM 22.39 72.302 0.283 7.86 4.45 7.95
8/21/2022 11:00:00 PM 22.36 72.248 0.263 7.87 3.01 7.95
8/21/2022 11:15:00 PM 22.34 72.212 0.299 7.85 2.31 7.9
8/21/2022 11:30:00 PM 22.32 72.176 0.326 7.86 3.19 7.92
8/21/2022 11:45:00 PM 22.3 72.14 0.586 7.87 1.76 7.89
8/22/2022 12:00:00 AM 22.28 72.104 0.587 7.85 2.29 7.86
8/22/2022 12:15:00 AM 22.26 72.068 0.59 7.84 2.46 7.86
8/22/2022 12:30:00 AM 22.25 72.05 0.292 7.83 2.4 7.87
8/22/2022 12:45:00 AM 22.23 72.014 0.265 7.83 2.02 7.85
8/22/2022 1:00:00 AM 22.21 71.978 0.345 7.84 2.58 7.84
8/22/2022 1:15:00 AM 22.19 71.942 0.303 7.85 2.06 7.85
8/22/2022 1:30:00 AM 22.16 71.888 0.253 7.84 2.19 7.84
8/22/2022 1:45:00 AM 22.13 71.834 0.596 7.84 1.87 7.8
8/22/2022 2:00:00 AM 22.11 71.798 0.278 7.84 2.26 7.8
8/22/2022 2:15:00 AM 22.07 71.726 0.258 7.81 2.11 7.81
8/22/2022 2:30:00 AM 22.04 71.672 0.265 7.82 2.55 7.77
8/22/2022 2:45:00 AM 22.01 71.618 0.283 7.82 2.22 7.77
8/22/2022 3:00:00 AM 21.99 71.582 0.269 7.82 2.47 7.73
8/22/2022 3:15:00 AM 21.97 71.546 0.288 7.8 2.17 7.72
8/22/2022 3:30:00 AM 21.95 71.51 0.29 7.82 1.92 7.73
8/22/2022 3:45:00 AM 21.93 71.474 0.275 7.79 1.95 7.73
8/22/2022 4:00:00 AM 21.91 71.438 0.293 7.81 1.84 7.7
8/22/2022 4:15:00 AM 21.9 71.42 0.28 7.8 2.33 7.7
8/22/2022 4:30:00 AM 21.88 71.384 0.296 7.79 2.13 7.67
8/22/2022 4:45:00 AM 21.86 71.348 0.337 7.8 2.16 7.67
8/22/2022 5:00:00 AM 21.85 71.33 0.607 7.8 1.99 7.63
8/22/2022 5:15:00 AM 21.83 71.294 0.282 7.78 2.84 7.65
8/22/2022 5:30:00 AM 21.82 71.276 0.288 7.78 2.02 7.63
8/22/2022 5:45:00 AM 21.8 71.24 0.311 7.77 10.07 7.62
8/22/2022 6:00:00 AM 21.78 71.204 0.286 7.76 2.98 7.6
8/22/2022 6:15:00 AM 21.76 71.168 0.261 7.76 3.09 7.6
8/22/2022 6:30:00 AM 21.75 71.15 0.266 7.76 2.27 7.58
8/22/2022 6:45:00 AM 21.74 71.132 0.317 7.78 2.03 7.58
8/22/2022 7:00:00 AM 21.73 71.114 0.3 7.77 2.08 7.58
8/22/2022 7:15:00 AM 21.72 71.096 0.269 7.76 1.88 7.62
8/22/2022 7:30:00 AM 21.71 71.078 0.309 7.78 1.95 7.63
8/22/2022 7:45:00 AM 21.71 71.078 0.337 7.77 2.22 7.68
8/22/2022 8:00:00 AM 21.71 71.078 0.279 7.77 2.16 7.71
8/22/2022 8:15:00 AM 21.7 71.06 0.298 7.77 2.14 7.66
8/22/2022 8:30:00 AM 21.7 71.06 0.332 7.78 2.28 7.65
8/22/2022 8:45:00 AM 21.69 71.042 0.298 7.78 1.95 7.65
8/22/2022 9:00:00 AM 21.69 71.042 0.266 7.76 2.09 7.68
8/22/2022 9:15:00 AM 21.69 71.042 0.255 7.77 1.84 7.68
8/22/2022 9:30:00 AM 21.7 71.06 0.254 7.78 1.67 7.78
8/22/2022 9:45:00 AM 21.74 71.132 0.282 7.81 2.1 7.93
8/22/2022 10:00:00 AM 21.82 71.276 0.303 7.82 1.84 8.14
8/22/2022 10:15:00 AM 22.05 71.69 0.285 7.83 1.88 8.43
8/22/2022 10:30:00 AM 22.1 71.78 0.332 7.84 1.92 8.49
8/22/2022 10:45:00 AM 22.17 71.906 0.302 7.84 2.16 8.53
8/22/2022 11:00:00 AM 22.32 72.176 0.256 7.86 1.9 8.66
8/22/2022 11:15:00 AM 22.32 72.176 0.278 7.86 2.12 8.68
8/22/2022 11:30:00 AM 22.38 72.284 0.623 7.88 2.04 8.75
8/22/2022 11:45:00 AM 22.27 72.086 0.275 7.87 1.87 8.62
8/22/2022 12:00:00 PM 22.18 71.924 0.304 7.85 2 8.38
8/22/2022 12:15:00 PM 22.15 71.87 0.623 7.84 1.87 8.37
8/22/2022 12:30:00 PM 22.17 71.906 0.286 7.86 2.01 8.45
8/22/2022 12:45:00 PM 22.19 71.942 0.33 7.86 1.86 8.44
8/22/2022 1:00:00 PM 22.11 71.798 0.253 7.84 1.91 8.21
8/22/2022 1:15:00 PM 22.05 71.69 0.272 7.84 2.09 8.09
8/22/2022 1:30:00 PM 22.11 71.798 0.297 7.81 2.46 8.24
8/22/2022 1:45:00 PM 22.34 72.212 0.337 7.86 2.14 8.54
8/22/2022 2:00:00 PM 22.46 72.42799 0.261 7.87 1.9 8.59
8/22/2022 2:15:00 PM 22.58 72.644 0.61 7.89 1.95 8.66
8/22/2022 2:30:00 PM 22.64 72.752 0.264 7.89 2.22 8.63
8/22/2022 2:45:00 PM 22.74 72.932 0.269 7.87 1.86 8.64
8/22/2022 3:00:00 PM 22.71 72.878 0.255 7.89 1.84 8.53
8/22/2022 3:15:00 PM 22.66 72.788 0.624 7.89 2.03 8.42
8/22/2022 3:30:00 PM 22.74 72.932 0.261 7.89 1.98 8.55
8/22/2022 3:45:00 PM 22.65 72.77 0.624 7.87 1.99 8.36
8/22/2022 4:00:00 PM 22.56 72.608 0.265 7.8 1.99 8.16
8/22/2022 4:15:00 PM 22.55 72.59 0.335 7.87 1.84 8.12
8/22/2022 4:30:00 PM 22.51 72.518 0.258 7.87 1.93 8.07
8/22/2022 4:45:00 PM 22.55 72.59 0.25 7.88 1.85 8.18
8/22/2022 5:00:00 PM 22.56 72.608 0.308 7.87 1.8 8.25
8/22/2022 5:15:00 PM 22.54 72.57201 0.272 7.87 2.14 8.12
8/22/2022 5:30:00 PM 22.54 72.57201 0.276 7.87 1.86 8
8/22/2022 5:45:00 PM 22.57 72.626 0.25 7.89 2.57 8.02
8/22/2022 6:00:00 PM 22.56 72.608 0.323 7.89 4.63 8.11
8/22/2022 6:15:00 PM 22.73 72.914 0.34 7.9 3.69 8.15
8/22/2022 6:30:00 PM 22.85 73.13 0.606 7.89 3 8.06
8/22/2022 6:45:00 PM 22.79 73.022 0.309 7.9 2.51 8.02
8/22/2022 7:00:00 PM 22.72 72.896 0.331 7.89 2.44 8.04
8/22/2022 7:15:00 PM 22.65 72.77 0.276 7.87 2.19 8.01
8/22/2022 7:30:00 PM 22.57 72.626 0.621 7.83 1.95 7.97
8/22/2022 7:45:00 PM 22.55 72.59 0.31 7.88 2.25 7.94
8/22/2022 8:00:00 PM 22.55 72.59 0.292 7.87 2.21 7.96
8/22/2022 8:15:00 PM 22.56 72.608 0.619 7.89 2.31 7.96
8/22/2022 8:30:00 PM 22.55 72.59 0.624 7.88 2.36 7.93
8/22/2022 8:45:00 PM 22.54 72.57201 0.284 7.87 2.39 7.97
8/22/2022 9:00:00 PM 22.52 72.536 0.289 7.9 2.34 7.96
8/22/2022 9:15:00 PM 22.5 72.5 0.289 7.88 2.59 7.94
8/22/2022 9:30:00 PM 22.48 72.464 0.288 7.89 2.43 7.98
8/22/2022 9:45:00 PM 22.45 72.41 0.26 7.88 2.3 7.97
8/22/2022 10:00:00 PM 22.42 72.356 0.286 7.88 2.41 7.95
8/22/2022 10:15:00 PM 22.4 72.32 0.271 7.87 2.88 7.95
8/22/2022 10:30:00 PM 22.36 72.248 0.266 7.85 2.75 7.95
8/22/2022 10:45:00 PM 22.34 72.212 0.63 7.83 2.53 7.95
8/22/2022 11:00:00 PM 22.31 72.158 0.305 7.87 2.62 7.95
8/22/2022 11:15:00 PM 22.28 72.104 0.278 7.88 2.36 7.91
8/22/2022 11:30:00 PM 22.25 72.05 0.251 7.87 2.44 7.91
8/22/2022 11:45:00 PM 22.22 71.996 0.255 7.87 2.35 7.86
8/23/2022 12:00:00 AM 22.2 71.96 0.288 7.86 2.26 7.86
8/23/2022 12:15:00 AM 22.17 71.906 0.275 7.87 2.33 7.83
8/23/2022 12:30:00 AM 22.14 71.852 0.29 7.87 2.29 7.85
8/23/2022 12:45:00 AM 22.11 71.798 0.284 7.86 2.94 7.85
8/23/2022 1:00:00 AM 22.07 71.726 0.635 7.85 7.89 7.97
8/23/2022 1:15:00 AM 22.01 71.618 0.288 7.84 6.86 8.06
8/23/2022 1:30:00 AM 21.97 71.546 0.589 7.85 8.51 8.09
8/23/2022 1:45:00 AM 21.92 71.456 0.307 7.83 5.2 8.1
8/23/2022 2:00:00 AM 21.87 71.366 0.281 7.84 5.4 8.09
8/23/2022 2:15:00 AM 21.8 71.24 0.347 7.82 6.15 8.04
8/23/2022 2:30:00 AM 21.72 71.096 0.284 7.77 6.91 8.02
8/23/2022 2:45:00 AM 21.64 70.952 0.313 7.79 3.89 8.02
8/23/2022 3:00:00 AM 21.55 70.79 0.651 7.79 4.59 8.02
8/23/2022 3:15:00 AM 21.48 70.664 0.645 7.8 3.6 8.05
8/23/2022 3:30:00 AM 21.41 70.538 0.312 7.79 2.41 8.06
8/23/2022 3:45:00 AM 21.35 70.43 0.336 7.8 3.66 8.08
8/23/2022 4:00:00 AM 21.28 70.304 0.668 7.8 3.26 8.09
8/23/2022 4:15:00 AM 21.22 70.196 0.275 7.8 3.04 8.11
8/23/2022 4:30:00 AM 21.16 70.088 0.315 7.78 3.16 8.12
8/23/2022 4:45:00 AM 21.11 69.998 0.631 7.8 3.33 8.14
8/23/2022 5:00:00 AM 21.07 69.926 0.64 7.78 2.98 8.13
8/23/2022 5:15:00 AM 21.04 69.872 0.316 7.77 3.3 8.13
8/23/2022 5:30:00 AM 21.01 69.818 0.633 7.8 3.15 8.13
8/23/2022 5:45:00 AM 20.97 69.746 0.301 7.8 3.47 8.13
8/23/2022 6:00:00 AM 20.94 69.692 0.285 7.78 3.39 8.11
8/23/2022 6:15:00 AM 20.9 69.62 0.277 7.77 3.33 8.11
8/23/2022 6:30:00 AM 20.87 69.566 0.651 7.79 3.4 8.1
8/23/2022 6:45:00 AM 20.84 69.512 0.67 7.8 3.55 8.09
8/23/2022 7:00:00 AM 20.83 69.494 0.311 7.79 3.56 8.09
8/23/2022 7:15:00 AM 20.82 69.476 0.663 7.81 3.12 8.08
8/23/2022 7:30:00 AM 20.82 69.476 0.304 7.8 3.05 8.08
8/23/2022 7:45:00 AM 20.83 69.494 0.652 7.8 2.98 8.09
8/23/2022 8:00:00 AM 20.85 69.53 0.345 7.8 3.14 8.1
8/23/2022 8:15:00 AM 20.86 69.548 0.627 7.81 3.25 8.09
8/23/2022 8:30:00 AM 20.88 69.584 0.328 7.81 3.06 8.09
8/23/2022 8:45:00 AM 20.91 69.638 0.645 7.8 3.3 8.11
8/23/2022 9:00:00 AM 20.96 69.728 0.306 7.82 3.12 8.19
8/23/2022 9:15:00 AM 20.98 69.764 0.342 7.83 3.17 8.2
8/23/2022 9:30:00 AM 21 69.8 0.547 7.84 3.03 8.21
8/23/2022 9:45:00 AM 21 69.8 0.286 7.84 3.49 8.17
8/23/2022 10:00:00 AM 21.02 69.836 0.649 7.84 3.36 8.2
8/23/2022 10:15:00 AM 21.05 69.89 0.648 7.83 3.32 8.27
8/23/2022 10:30:00 AM 21.09 69.962 0.314 7.84 3.6 8.32
8/23/2022 10:45:00 AM 21.18 70.124 0.299 7.86 3.62 8.4
8/23/2022 11:00:00 AM 21.33 70.394 0.661 7.87 3.52 8.49
8/23/2022 11:15:00 AM 21.36 70.448 0.676 7.87 3.33 8.43
8/23/2022 11:30:00 AM 21.43 70.574 0.671 7.88 3.12 8.43
8/23/2022 11:45:00 AM 21.52 70.736 0.67 7.88 3.27 8.48
8/23/2022 12:00:00 PM 21.59 70.862 0.666 7.87 3.53 8.45
8/23/2022 12:15:00 PM 21.66 70.988 0.664 7.89 3.28 8.49
8/23/2022 12:30:00 PM 21.64 70.952 0.672 7.89 3.93 8.44
8/23/2022 12:45:00 PM 21.68 71.024 0.694 7.9 3.76 8.45
8/23/2022 1:00:00 PM 21.66 70.988 0.673 7.88 3.64 8.38
8/23/2022 1:15:00 PM 21.8 71.24 0.695 7.9 3.69 8.47
8/23/2022 1:30:00 PM 21.89 71.402 0.677 7.91 3.55 8.5
8/23/2022 1:45:00 PM 21.98 71.564 0.683 7.91 3.78 8.52
8/23/2022 2:00:00 PM 22.04 71.672 0.7 7.92 3.59 8.5
8/23/2022 2:15:00 PM 22.09 71.762 0.702 7.92 3.4 8.47
8/23/2022 2:30:00 PM 22.19 71.942 0.698 7.93 3.59 8.53
8/23/2022 2:45:00 PM 22.3 72.14 0.691 7.92 3.54 8.52
8/23/2022 3:00:00 PM 22.31 72.158 0.692 7.92 3.92 8.46
8/23/2022 3:15:00 PM 22.37 72.266 0.67 7.95 3.78 8.48
8/23/2022 3:30:00 PM 22.41 72.338 0.7 7.94 3.75 8.46
8/23/2022 3:45:00 PM 22.44 72.392 0.692 7.94 3.58 8.42
8/23/2022 4:00:00 PM 22.48 72.464 0.666 7.95 3.6 8.42
8/23/2022 4:15:00 PM 22.49 72.482 0.645 7.96 3.67 8.39
8/23/2022 4:30:00 PM 22.52 72.536 0.701 7.96 4.05 8.4
8/23/2022 4:45:00 PM 22.56 72.608 0.616 7.95 3.86 8.38
8/23/2022 5:00:00 PM 22.61 72.698 0.69 7.96 3.44 8.39
8/23/2022 5:15:00 PM 22.66 72.788 0.697 7.96 2.91 8.36
8/23/2022 5:30:00 PM 22.68 72.824 0.694 7.96 3.21 8.27
8/23/2022 5:45:00 PM 22.75 72.95 0.7 7.95 3.64 8.33
8/23/2022 6:00:00 PM 22.8 73.04 0.705 7.97 3.4 8.33
8/23/2022 6:15:00 PM 22.83 73.094 0.7 7.96 3.37 8.28
8/23/2022 6:30:00 PM 22.83 73.094 0.705 7.98 3.08 8.25
8/23/2022 6:45:00 PM 22.83 73.094 0.694 7.97 3.23 8.23
8/23/2022 7:00:00 PM 22.84 73.112 0.707 7.96 3.25 8.22
8/23/2022 7:15:00 PM 22.86 73.148 0.655 7.97 2.8 8.21
8/23/2022 7:30:00 PM 22.87 73.166 0.698 7.97 2.89 8.21
8/23/2022 7:45:00 PM 22.89 73.202 0.704 7.97 2.82 8.2
8/23/2022 8:00:00 PM 22.9 73.22 0.712 7.97 3.54 8.18
8/23/2022 8:15:00 PM 22.89 73.202 0.708 7.97 3.41 8.2
8/23/2022 8:30:00 PM 22.87 73.166 0.707 7.96 3.37 8.17
8/23/2022 8:45:00 PM 22.84 73.112 0.703 7.96 3.07 8.19
8/23/2022 9:00:00 PM 22.8 73.04 0.707 7.96 3.12 8.19
8/23/2022 9:15:00 PM 22.76 72.968 0.705 7.95 3.28 8.18
8/23/2022 9:30:00 PM 22.72 72.896 0.706 7.94 2.96 8.19
8/23/2022 9:45:00 PM 22.67 72.806 0.664 7.95 3.68 8.17
8/23/2022 10:00:00 PM 22.62 72.716 0.713 7.95 2.94 8.17
8/23/2022 10:15:00 PM 22.57 72.626 0.714 7.94 3.38 8.15
8/23/2022 10:30:00 PM 22.53 72.554 0.698 7.94 3.02 8.14
8/23/2022 10:45:00 PM 22.48 72.464 0.703 7.93 3.01 8.14
8/23/2022 11:00:00 PM 22.44 72.392 0.704 7.92 3.37 8.12
8/23/2022 11:15:00 PM 22.41 72.338 0.699 7.91 3.31 8.09
8/23/2022 11:30:00 PM 22.39 72.302 0.721 7.9 2.98 8.07
8/23/2022 11:45:00 PM 22.36 72.248 0.71 7.9 2.81 8.07
8/24/2022 12:00:00 AM 22.32 72.176 0.711 7.91 2.94 8.05
8/24/2022 12:15:00 AM 22.3 72.14 0.705 7.89 3.33 8.06
8/24/2022 12:30:00 AM 22.27 72.086 0.694 7.89 2.85 8.03
8/24/2022 12:45:00 AM 22.24 72.032 0.693 7.89 3.53 8.05
8/24/2022 1:00:00 AM 22.22 71.996 0.7 7.89 2.98 8.02
8/24/2022 1:15:00 AM 22.19 71.942 0.707 7.87 2.85 8.01
8/24/2022 1:30:00 AM 22.16 71.888 0.707 7.87 3.29 8
8/24/2022 1:45:00 AM 22.15 71.87 0.701 7.87 3.16 8
8/24/2022 2:00:00 AM 22.12 71.816 0.688 7.88 2.93 7.99
8/24/2022 2:15:00 AM 22.11 71.798 0.697 7.86 2.91 7.97
8/24/2022 2:30:00 AM 22.1 71.78 0.702 7.86 2.76 7.97
8/24/2022 2:45:00 AM 22.09 71.762 0.72 7.86 3.78 7.93
8/24/2022 3:00:00 AM 22.07 71.726 0.72 7.84 2.89 7.93
8/24/2022 3:15:00 AM 22.06 71.708 0.72 7.85 3.15 7.9
8/24/2022 3:30:00 AM 22.06 71.708 0.701 7.86 3.11 7.91
8/24/2022 3:45:00 AM 22.06 71.708 0.609 7.86 3.96 7.9
8/24/2022 4:00:00 AM 22.04 71.672 0.687 7.85 3.5 7.89
8/24/2022 4:15:00 AM 22.03 71.654 0.7 7.86 3.21 7.9
8/24/2022 4:30:00 AM 22.03 71.654 0.72 7.85 3.09 7.88
8/24/2022 4:45:00 AM 22.02 71.636 0.72 7.8 3.03 7.87
8/24/2022 5:00:00 AM 22.01 71.618 0.701 7.85 3.3 7.88
8/24/2022 5:15:00 AM 22 71.6 0.698 7.84 2.99 7.86
8/24/2022 5:30:00 AM 21.99 71.582 0.698 7.85 2.92 7.86
8/24/2022 5:45:00 AM 21.98 71.564 0.719 7.82 2.99 7.84
8/24/2022 6:00:00 AM 21.97 71.546 0.718 7.83 3.28 7.83
8/24/2022 6:15:00 AM 21.96 71.528 0.656 7.83 2.99 7.8
8/24/2022 6:30:00 AM 21.95 71.51 0.696 7.84 3.48 7.78
8/24/2022 6:45:00 AM 21.94 71.492 0.701 7.84 3.38 7.71
8/24/2022 7:00:00 AM 21.93 71.474 0.688 7.84 2.72 7.76
8/24/2022 7:15:00 AM 21.92 71.456 0.689 7.84 3.13 7.75
8/24/2022 7:30:00 AM 21.93 71.474 0.699 7.83 3.19 7.78
8/24/2022 7:45:00 AM 21.94 71.492 0.621 7.84 3.64 7.78
8/24/2022 8:00:00 AM 21.95 71.51 0.658 7.83 3.37 7.79
8/24/2022 8:15:00 AM 21.96 71.528 0.682 7.83 3.42 7.75
8/24/2022 8:30:00 AM 21.99 71.582 0.678 7.83 3.63 7.82
8/24/2022 8:45:00 AM 22.03 71.654 0.685 7.84 3.67 7.85
8/24/2022 9:00:00 AM 22.07 71.726 0.692 7.85 3.26 7.85
8/24/2022 9:15:00 AM 22.12 71.816 0.697 7.86 3.57 7.99
8/24/2022 9:30:00 AM 22.18 71.924 0.69 7.86 2.97 7.97
8/24/2022 9:45:00 AM 22.24 72.032 0.693 7.86 2.87 8.08
8/24/2022 10:00:00 AM 22.32 72.176 0.689 7.87 3.09 8.13
8/24/2022 10:15:00 AM 22.39 72.302 0.695 7.87 2.62 8.21
8/24/2022 10:30:00 AM 22.47 72.446 0.671 7.88 3.54 8.3
8/24/2022 10:45:00 AM 22.56 72.608 0.671 7.89 2.69 8.35
8/24/2022 11:00:00 AM 22.63 72.734 0.672 7.89 2.55 8.38
8/24/2022 11:15:00 AM 22.7 72.86 0.64 7.89 2.6 8.39
8/24/2022 11:30:00 AM 22.75 72.95 0.665 7.89 2.93 8.4
8/24/2022 11:45:00 AM 22.8 73.04 0.671 7.89 2.29 8.41
8/24/2022 12:00:00 PM 22.86 73.148 0.649 7.89 2.5 8.44
8/24/2022 12:15:00 PM 22.84 73.112 0.669 7.88 2.45 8.38
8/24/2022 12:30:00 PM 22.77 72.986 0.648 7.88 2.21 8.27
8/24/2022 12:45:00 PM 22.75 72.95 0.643 7.87 2.25 8.26
8/24/2022 1:00:00 PM 22.73 72.914 0.641 7.88 2.53 8.25
8/24/2022 1:15:00 PM 22.68 72.824 0.327 7.87 2.51 8.15
8/24/2022 1:30:00 PM 22.8 73.04 0.286 7.88 2.61 8.32
8/24/2022 1:45:00 PM 22.79 73.022 0.299 7.88 2.17 8.29
8/24/2022 2:00:00 PM 22.83 73.094 0.292 7.87 2.21 8.3
8/24/2022 2:15:00 PM 22.87 73.166 0.629 7.88 3.41 8.32
8/24/2022 2:30:00 PM 22.85 73.13 0.328 7.88 2.41 8.23
8/24/2022 2:45:00 PM 22.79 73.022 0.256 7.87 2.49 8.13
8/24/2022 3:00:00 PM 22.78 73.004 0.279 7.86 2.3 8.08
8/24/2022 3:15:00 PM 22.8 73.04 0.277 7.86 2.59 8.02
8/24/2022 3:30:00 PM 22.89 73.202 0.296 7.86 2.31 8.17
8/24/2022 3:45:00 PM 22.98 73.364 0.253 7.88 2.79 8.19
8/24/2022 4:00:00 PM 23.03 73.454 0.322 7.89 2.4 8.21
8/24/2022 4:15:00 PM 23.04 73.472 0.258 7.87 2.56 8.14
8/24/2022 4:30:00 PM 23.05 73.49 0.254 7.88 2.77 8.12
8/24/2022 4:45:00 PM 23.03 73.454 0.26 7.87 2.33 8.06
8/24/2022 5:00:00 PM 23.03 73.454 0.263 7.86 2.45 8.04
8/24/2022 5:15:00 PM 23.02 73.436 0.588 7.87 2.16 8.01
8/24/2022 5:30:00 PM 22.97 73.346 0.34 7.86 2.78 7.94
8/24/2022 5:45:00 PM 22.94 73.292 0.258 7.87 4.88 7.89
8/24/2022 6:00:00 PM 22.94 73.292 0.258 7.85 2.42 7.85
8/24/2022 6:15:00 PM 22.95 73.31 0.574 7.86 2.14 7.84
8/24/2022 6:30:00 PM 22.96 73.328 0.311 7.86 2.3 7.79
8/24/2022 6:45:00 PM 22.98 73.364 0.315 7.85 2.63 7.77
8/24/2022 7:00:00 PM 22.99 73.382 0.275 7.84 2.25 7.66
8/24/2022 7:15:00 PM 23.02 73.436 0.316 7.84 2.21 7.74
8/24/2022 7:30:00 PM 23.05 73.49 0.302 7.82 2.35 7.72
8/24/2022 7:45:00 PM 23.08 73.544 0.551 7.84 2.13 7.68
8/24/2022 8:00:00 PM 23.1 73.58 0.256 7.84 2.53 7.66
8/24/2022 8:15:00 PM 23.12 73.616 0.292 7.83 2.38 7.64
8/24/2022 8:30:00 PM 23.12 73.616 0.304 7.84 2.36 7.66
8/24/2022 8:45:00 PM 23.1 73.58 0.299 7.84 4.27 7.65
8/24/2022 9:00:00 PM 23.08 73.544 0.314 7.83 2.35 7.64
8/24/2022 9:15:00 PM 23.05 73.49 0.304 7.82 3.15 7.65
8/24/2022 9:30:00 PM 23.02 73.436 0.318 7.83 3.12 7.66
8/24/2022 9:45:00 PM 22.99 73.382 0.318 7.83 4.34 7.65
8/24/2022 10:00:00 PM 22.95 73.31 0.309 7.83 2.46 7.65
8/24/2022 10:15:00 PM 22.9 73.22 0.535 7.83 2.79 7.65
8/24/2022 10:30:00 PM 22.86 73.148 0.312 7.81 2.3 7.65
8/24/2022 10:45:00 PM 22.81 73.058 0.293 7.82 2.47 7.65
8/24/2022 11:00:00 PM 22.77 72.986 0.291 7.81 2.61 7.65
8/24/2022 11:15:00 PM 22.73 72.914 0.295 7.79 2.43 7.64
8/24/2022 11:30:00 PM 22.69 72.842 0.299 7.79 2.36 7.62
8/24/2022 11:45:00 PM 22.65 72.77 0.306 7.79 2.54 7.64
8/25/2022 12:00:00 AM 22.61 72.698 0.296 7.76 2.95 7.6
8/25/2022 12:15:00 AM 22.57 72.626 0.296 7.79 2.57 7.6
8/25/2022 12:30:00 AM 22.53 72.554 0.32 7.78 2.63 7.63
8/25/2022 12:45:00 AM 22.49 72.482 0.314 7.78 2.63 7.61
8/25/2022 1:00:00 AM 22.45 72.41 0.305 7.77 2.59 7.61
8/25/2022 1:15:00 AM 22.41 72.338 0.528 7.77 2.65 7.6
8/25/2022 1:30:00 AM 22.37 72.266 0.288 7.72 2.54 7.58
8/25/2022 1:45:00 AM 22.33 72.194 0.318 7.75 2.61 7.59
8/25/2022 2:00:00 AM 22.3 72.14 0.277 7.76 3.07 7.58
8/25/2022 2:15:00 AM 22.26 72.068 0.273 7.75 3.22 7.55
8/25/2022 2:30:00 AM 22.23 72.014 0.284 7.73 6.37 7.56
8/25/2022 2:45:00 AM 22.19 71.942 0.282 7.72 2.63 7.53
8/25/2022 3:00:00 AM 22.15 71.87 0.294 7.73 2.72 7.53
8/25/2022 3:15:00 AM 22.12 71.816 0.301 7.73 2.54 7.51
8/25/2022 3:30:00 AM 22.08 71.744 0.299 7.71 2.81 7.5
8/25/2022 3:45:00 AM 22.05 71.69 0.312 7.72 2.9 7.46
8/25/2022 4:00:00 AM 22.02 71.636 0.319 7.7 3.09 7.49
8/25/2022 4:15:00 AM 21.98 71.564 0.273 7.71 3.18 7.45
8/25/2022 4:30:00 AM 21.95 71.51 0.524 7.61 3.82 7.48
8/25/2022 4:45:00 AM 21.91 71.438 0.287 7.7 3.66 7.44
8/25/2022 5:00:00 AM 21.88 71.384 0.283 7.7 3.22 7.44
8/25/2022 5:15:00 AM 21.84 71.312 0.271 7.7 3.18 7.42
8/25/2022 5:30:00 AM 21.81 71.258 0.271 7.68 3.92 7.37
8/25/2022 5:45:00 AM 21.77 71.186 0.265 7.7 3.46 7.4
8/25/2022 6:00:00 AM 21.73 71.114 0.276 7.65 3.82 7.37
8/25/2022 6:15:00 AM 21.7 71.06 0.292 7.68 3.85 7.38
8/25/2022 6:30:00 AM 21.67 71.006 0.494 7.69 3.64 7.39
8/25/2022 6:45:00 AM 21.63 70.934 0.271 7.68 3.75 7.37
8/25/2022 7:00:00 AM 21.6 70.88 0.32 7.67 3.34 7.4
8/25/2022 7:15:00 AM 21.57 70.826 0.266 7.65 3.46 7.45
8/25/2022 7:30:00 AM 21.54 70.772 0.324 7.68 3.73 7.46
8/25/2022 7:45:00 AM 21.53 70.754 0.281 7.69 3.57 7.51
8/25/2022 8:00:00 AM 21.53 70.754 0.327 7.66 3.34 7.55
8/25/2022 8:15:00 AM 21.53 70.754 0.318 7.67 3.77 7.57
8/25/2022 8:30:00 AM 21.54 70.772 0.47 7.69 3.33 7.63
8/25/2022 8:45:00 AM 21.56 70.808 0.305 7.7 3.4 7.7
8/25/2022 9:00:00 AM 21.6 70.88 0.317 7.7 3.28 7.78
8/25/2022 9:15:00 AM 21.65 70.97 0.324 7.72 3.46 7.85
8/25/2022 9:30:00 AM 21.71 71.078 0.323 7.73 3.21 7.92
8/25/2022 9:45:00 AM 21.77 71.186 0.326 7.73 3.4 8.01
8/25/2022 10:00:00 AM 21.84 71.312 0.292 7.74 3.26 8.08
8/25/2022 10:15:00 AM 21.93 71.474 0.32 7.74 3.41 8.19
8/25/2022 10:30:00 AM 21.99 71.582 0.249 7.77 3.95 8.25
8/25/2022 10:45:00 AM 22.08 71.744 0.314 7.75 3.19 8.31
8/25/2022 11:00:00 AM 22.17 71.906